<?xml version="1.0" encoding="UTF-8" standalone="no" ?>
<gpx xmlns="http://www.topografix.com/GPX/1/1" xmlns:xsi="http://www.w3.org/2001/XMLSchema-instance" xsi:schemaLocation="http://www.topografix.com/GPX/1/1 http://www.topografix.com/GPX/1/1/gpx.xsd" version="1.1" creator="VisuGPX - https://www.visugpx.com">
  <metadata>
    <name>83-dim-la Motte</name>
    <desc><![CDATA[83-dim-la Motte : du Peyblou au Capelan]]></desc>
  </metadata>
  <trk>
    <name><![CDATA[2014-03-16-la motte]]></name>
    <trkseg>
      <trkpt lat="43.50156" lon="6.51242">
        <ele>139.3</ele>
        <time>2014-03-16T08:05:10Z</time>
      </trkpt>
      <trkpt lat="43.50163" lon="6.51249">
        <ele>137.8</ele>
        <time>2014-03-16T08:06:15Z</time>
      </trkpt>
      <trkpt lat="43.50164" lon="6.51249">
        <ele>137.9</ele>
        <time>2014-03-16T08:06:16Z</time>
      </trkpt>
      <trkpt lat="43.50156" lon="6.51241">
        <ele>138.2</ele>
        <time>2014-03-16T08:09:47Z</time>
      </trkpt>
      <trkpt lat="43.5014" lon="6.51237">
        <ele>138.4</ele>
        <time>2014-03-16T08:10:01Z</time>
      </trkpt>
      <trkpt lat="43.50135" lon="6.51247">
        <ele>138.9</ele>
        <time>2014-03-16T08:10:41Z</time>
      </trkpt>
      <trkpt lat="43.50142" lon="6.51256">
        <ele>139.6</ele>
        <time>2014-03-16T08:11:28Z</time>
      </trkpt>
      <trkpt lat="43.50142" lon="6.51256">
        <ele>139.4</ele>
        <time>2014-03-16T08:11:29Z</time>
      </trkpt>
      <trkpt lat="43.50144" lon="6.51254">
        <ele>139.4</ele>
        <time>2014-03-16T08:12:36Z</time>
      </trkpt>
      <trkpt lat="43.50142" lon="6.51254">
        <ele>139.4</ele>
        <time>2014-03-16T08:12:37Z</time>
      </trkpt>
      <trkpt lat="43.50133" lon="6.51271">
        <ele>140.6</ele>
        <time>2014-03-16T08:12:58Z</time>
      </trkpt>
      <trkpt lat="43.50132" lon="6.51283">
        <ele>141.8</ele>
        <time>2014-03-16T08:13:09Z</time>
      </trkpt>
      <trkpt lat="43.50136" lon="6.51294">
        <ele>142.4</ele>
        <time>2014-03-16T08:13:18Z</time>
      </trkpt>
      <trkpt lat="43.50145" lon="6.51296">
        <ele>143.7</ele>
        <time>2014-03-16T08:13:27Z</time>
      </trkpt>
      <trkpt lat="43.50153" lon="6.51297">
        <ele>144.9</ele>
        <time>2014-03-16T08:13:34Z</time>
      </trkpt>
      <trkpt lat="43.50161" lon="6.51296">
        <ele>145.6</ele>
        <time>2014-03-16T08:13:42Z</time>
      </trkpt>
      <trkpt lat="43.50162" lon="6.51296">
        <ele>145.9</ele>
        <time>2014-03-16T08:13:43Z</time>
      </trkpt>
      <trkpt lat="43.50178" lon="6.51296">
        <ele>146.8</ele>
        <time>2014-03-16T08:13:56Z</time>
      </trkpt>
      <trkpt lat="43.50186" lon="6.51298">
        <ele>148.4</ele>
        <time>2014-03-16T08:14:05Z</time>
      </trkpt>
      <trkpt lat="43.50195" lon="6.51298">
        <ele>149</ele>
        <time>2014-03-16T08:14:12Z</time>
      </trkpt>
      <trkpt lat="43.50203" lon="6.51295">
        <ele>150.4</ele>
        <time>2014-03-16T08:14:20Z</time>
      </trkpt>
      <trkpt lat="43.50211" lon="6.51292">
        <ele>150.1</ele>
        <time>2014-03-16T08:14:26Z</time>
      </trkpt>
      <trkpt lat="43.50219" lon="6.51288">
        <ele>151.8</ele>
        <time>2014-03-16T08:14:33Z</time>
      </trkpt>
      <trkpt lat="43.50227" lon="6.51287">
        <ele>153.5</ele>
        <time>2014-03-16T08:14:43Z</time>
      </trkpt>
      <trkpt lat="43.50228" lon="6.51287">
        <ele>153.5</ele>
        <time>2014-03-16T08:14:44Z</time>
      </trkpt>
      <trkpt lat="43.50217" lon="6.51305">
        <ele>155.3</ele>
        <time>2014-03-16T08:15:06Z</time>
      </trkpt>
      <trkpt lat="43.50208" lon="6.51308">
        <ele>155.5</ele>
        <time>2014-03-16T08:15:15Z</time>
      </trkpt>
      <trkpt lat="43.50201" lon="6.51314">
        <ele>155.7</ele>
        <time>2014-03-16T08:15:22Z</time>
      </trkpt>
      <trkpt lat="43.50192" lon="6.51316">
        <ele>157.1</ele>
        <time>2014-03-16T08:15:29Z</time>
      </trkpt>
      <trkpt lat="43.50185" lon="6.51321">
        <ele>158</ele>
        <time>2014-03-16T08:15:36Z</time>
      </trkpt>
      <trkpt lat="43.50177" lon="6.51326">
        <ele>158.8</ele>
        <time>2014-03-16T08:15:44Z</time>
      </trkpt>
      <trkpt lat="43.50176" lon="6.51327">
        <ele>158.5</ele>
        <time>2014-03-16T08:15:45Z</time>
      </trkpt>
      <trkpt lat="43.50164" lon="6.5134">
        <ele>159.4</ele>
        <time>2014-03-16T08:15:59Z</time>
      </trkpt>
      <trkpt lat="43.50157" lon="6.51347">
        <ele>159.9</ele>
        <time>2014-03-16T08:16:06Z</time>
      </trkpt>
      <trkpt lat="43.50151" lon="6.51355">
        <ele>160.5</ele>
        <time>2014-03-16T08:16:13Z</time>
      </trkpt>
      <trkpt lat="43.50145" lon="6.51364">
        <ele>160.7</ele>
        <time>2014-03-16T08:16:21Z</time>
      </trkpt>
      <trkpt lat="43.50139" lon="6.51373">
        <ele>161.8</ele>
        <time>2014-03-16T08:16:31Z</time>
      </trkpt>
      <trkpt lat="43.50131" lon="6.51376">
        <ele>162.8</ele>
        <time>2014-03-16T08:16:40Z</time>
      </trkpt>
      <trkpt lat="43.50122" lon="6.51378">
        <ele>163.4</ele>
        <time>2014-03-16T08:16:50Z</time>
      </trkpt>
      <trkpt lat="43.50121" lon="6.51378">
        <ele>163.4</ele>
        <time>2014-03-16T08:16:51Z</time>
      </trkpt>
      <trkpt lat="43.50108" lon="6.5138">
        <ele>165.9</ele>
        <time>2014-03-16T08:17:15Z</time>
      </trkpt>
      <trkpt lat="43.50109" lon="6.51392">
        <ele>167.6</ele>
        <time>2014-03-16T08:17:23Z</time>
      </trkpt>
      <trkpt lat="43.5011" lon="6.51404">
        <ele>169.6</ele>
        <time>2014-03-16T08:17:35Z</time>
      </trkpt>
      <trkpt lat="43.5011" lon="6.51416">
        <ele>172</ele>
        <time>2014-03-16T08:17:46Z</time>
      </trkpt>
      <trkpt lat="43.50114" lon="6.51426">
        <ele>173.5</ele>
        <time>2014-03-16T08:17:58Z</time>
      </trkpt>
      <trkpt lat="43.50115" lon="6.51427">
        <ele>173.9</ele>
        <time>2014-03-16T08:17:59Z</time>
      </trkpt>
      <trkpt lat="43.50126" lon="6.51443">
        <ele>177</ele>
        <time>2014-03-16T08:18:19Z</time>
      </trkpt>
      <trkpt lat="43.50134" lon="6.51447">
        <ele>178.1</ele>
        <time>2014-03-16T08:18:27Z</time>
      </trkpt>
      <trkpt lat="43.50142" lon="6.51452">
        <ele>179.4</ele>
        <time>2014-03-16T08:18:35Z</time>
      </trkpt>
      <trkpt lat="43.5015" lon="6.51457">
        <ele>180.9</ele>
        <time>2014-03-16T08:18:47Z</time>
      </trkpt>
      <trkpt lat="43.50158" lon="6.5146">
        <ele>183.2</ele>
        <time>2014-03-16T08:19:02Z</time>
      </trkpt>
      <trkpt lat="43.50158" lon="6.51461">
        <ele>183.4</ele>
        <time>2014-03-16T08:19:03Z</time>
      </trkpt>
      <trkpt lat="43.50173" lon="6.51472">
        <ele>187.1</ele>
        <time>2014-03-16T08:19:28Z</time>
      </trkpt>
      <trkpt lat="43.50179" lon="6.5148">
        <ele>189.3</ele>
        <time>2014-03-16T08:19:43Z</time>
      </trkpt>
      <trkpt lat="43.50185" lon="6.51488">
        <ele>191</ele>
        <time>2014-03-16T08:19:55Z</time>
      </trkpt>
      <trkpt lat="43.50186" lon="6.515">
        <ele>193.5</ele>
        <time>2014-03-16T08:20:09Z</time>
      </trkpt>
      <trkpt lat="43.50185" lon="6.51501">
        <ele>193.6</ele>
        <time>2014-03-16T08:20:10Z</time>
      </trkpt>
      <trkpt lat="43.50189" lon="6.51521">
        <ele>194.3</ele>
        <time>2014-03-16T08:22:13Z</time>
      </trkpt>
      <trkpt lat="43.50189" lon="6.51521">
        <ele>194.4</ele>
        <time>2014-03-16T08:22:14Z</time>
      </trkpt>
      <trkpt lat="43.50182" lon="6.5153">
        <ele>193.7</ele>
        <time>2014-03-16T08:23:36Z</time>
      </trkpt>
      <trkpt lat="43.50191" lon="6.51549">
        <ele>191.3</ele>
        <time>2014-03-16T08:23:52Z</time>
      </trkpt>
      <trkpt lat="43.50197" lon="6.51557">
        <ele>189.7</ele>
        <time>2014-03-16T08:24:00Z</time>
      </trkpt>
      <trkpt lat="43.50204" lon="6.51565">
        <ele>189</ele>
        <time>2014-03-16T08:24:08Z</time>
      </trkpt>
      <trkpt lat="43.5021" lon="6.51573">
        <ele>187.8</ele>
        <time>2014-03-16T08:24:16Z</time>
      </trkpt>
      <trkpt lat="43.50216" lon="6.51581">
        <ele>186.9</ele>
        <time>2014-03-16T08:24:25Z</time>
      </trkpt>
      <trkpt lat="43.50223" lon="6.51589">
        <ele>185.7</ele>
        <time>2014-03-16T08:24:34Z</time>
      </trkpt>
      <trkpt lat="43.50229" lon="6.51597">
        <ele>185.3</ele>
        <time>2014-03-16T08:24:43Z</time>
      </trkpt>
      <trkpt lat="43.5023" lon="6.51598">
        <ele>185.2</ele>
        <time>2014-03-16T08:24:44Z</time>
      </trkpt>
      <trkpt lat="43.50242" lon="6.51613">
        <ele>182.4</ele>
        <time>2014-03-16T08:25:02Z</time>
      </trkpt>
      <trkpt lat="43.50246" lon="6.51623">
        <ele>182.2</ele>
        <time>2014-03-16T08:25:12Z</time>
      </trkpt>
      <trkpt lat="43.50251" lon="6.51633">
        <ele>181.4</ele>
        <time>2014-03-16T08:25:20Z</time>
      </trkpt>
      <trkpt lat="43.50257" lon="6.51641">
        <ele>181</ele>
        <time>2014-03-16T08:25:29Z</time>
      </trkpt>
      <trkpt lat="43.50262" lon="6.5165">
        <ele>179.6</ele>
        <time>2014-03-16T08:25:39Z</time>
      </trkpt>
      <trkpt lat="43.5027" lon="6.51656">
        <ele>178.6</ele>
        <time>2014-03-16T08:25:46Z</time>
      </trkpt>
      <trkpt lat="43.50271" lon="6.51657">
        <ele>178.8</ele>
        <time>2014-03-16T08:25:47Z</time>
      </trkpt>
      <trkpt lat="43.50283" lon="6.51671">
        <ele>178.2</ele>
        <time>2014-03-16T08:26:02Z</time>
      </trkpt>
      <trkpt lat="43.5029" lon="6.51678">
        <ele>178</ele>
        <time>2014-03-16T08:26:10Z</time>
      </trkpt>
      <trkpt lat="43.50298" lon="6.51681">
        <ele>178</ele>
        <time>2014-03-16T08:26:17Z</time>
      </trkpt>
      <trkpt lat="43.50306" lon="6.51684">
        <ele>178.3</ele>
        <time>2014-03-16T08:26:24Z</time>
      </trkpt>
      <trkpt lat="43.50314" lon="6.51685">
        <ele>178.8</ele>
        <time>2014-03-16T08:26:31Z</time>
      </trkpt>
      <trkpt lat="43.50322" lon="6.51687">
        <ele>179.4</ele>
        <time>2014-03-16T08:26:39Z</time>
      </trkpt>
      <trkpt lat="43.5033" lon="6.51692">
        <ele>180</ele>
        <time>2014-03-16T08:26:46Z</time>
      </trkpt>
      <trkpt lat="43.50338" lon="6.51694">
        <ele>181</ele>
        <time>2014-03-16T08:26:53Z</time>
      </trkpt>
      <trkpt lat="43.5034" lon="6.51694">
        <ele>181</ele>
        <time>2014-03-16T08:26:54Z</time>
      </trkpt>
      <trkpt lat="43.50356" lon="6.51698">
        <ele>182.6</ele>
        <time>2014-03-16T08:27:07Z</time>
      </trkpt>
      <trkpt lat="43.50363" lon="6.51701">
        <ele>183.1</ele>
        <time>2014-03-16T08:27:13Z</time>
      </trkpt>
      <trkpt lat="43.50372" lon="6.51704">
        <ele>182.9</ele>
        <time>2014-03-16T08:27:20Z</time>
      </trkpt>
      <trkpt lat="43.50379" lon="6.51708">
        <ele>183.1</ele>
        <time>2014-03-16T08:27:27Z</time>
      </trkpt>
      <trkpt lat="43.50388" lon="6.51711">
        <ele>182.8</ele>
        <time>2014-03-16T08:27:35Z</time>
      </trkpt>
      <trkpt lat="43.50396" lon="6.51714">
        <ele>182.3</ele>
        <time>2014-03-16T08:27:43Z</time>
      </trkpt>
      <trkpt lat="43.50404" lon="6.51719">
        <ele>180.9</ele>
        <time>2014-03-16T08:27:52Z</time>
      </trkpt>
      <trkpt lat="43.50412" lon="6.51722">
        <ele>179.6</ele>
        <time>2014-03-16T08:27:59Z</time>
      </trkpt>
      <trkpt lat="43.50413" lon="6.51722">
        <ele>179.6</ele>
        <time>2014-03-16T08:28:00Z</time>
      </trkpt>
      <trkpt lat="43.50428" lon="6.51731">
        <ele>179.1</ele>
        <time>2014-03-16T08:28:14Z</time>
      </trkpt>
      <trkpt lat="43.50434" lon="6.51738">
        <ele>177.7</ele>
        <time>2014-03-16T08:28:29Z</time>
      </trkpt>
      <trkpt lat="43.50441" lon="6.51745">
        <ele>176.4</ele>
        <time>2014-03-16T08:28:39Z</time>
      </trkpt>
      <trkpt lat="43.50442" lon="6.51756">
        <ele>176.8</ele>
        <time>2014-03-16T08:28:45Z</time>
      </trkpt>
      <trkpt lat="43.50444" lon="6.51767">
        <ele>175.7</ele>
        <time>2014-03-16T08:28:51Z</time>
      </trkpt>
      <trkpt lat="43.50447" lon="6.51779">
        <ele>173.5</ele>
        <time>2014-03-16T08:29:03Z</time>
      </trkpt>
      <trkpt lat="43.50448" lon="6.51779">
        <ele>173.4</ele>
        <time>2014-03-16T08:29:04Z</time>
      </trkpt>
      <trkpt lat="43.50457" lon="6.51799">
        <ele>170.7</ele>
        <time>2014-03-16T08:29:25Z</time>
      </trkpt>
      <trkpt lat="43.50464" lon="6.51806">
        <ele>170.7</ele>
        <time>2014-03-16T08:29:32Z</time>
      </trkpt>
      <trkpt lat="43.50471" lon="6.51812">
        <ele>169.6</ele>
        <time>2014-03-16T08:29:39Z</time>
      </trkpt>
      <trkpt lat="43.50478" lon="6.51817">
        <ele>169.3</ele>
        <time>2014-03-16T08:29:46Z</time>
      </trkpt>
      <trkpt lat="43.50486" lon="6.5182">
        <ele>168.3</ele>
        <time>2014-03-16T08:29:51Z</time>
      </trkpt>
      <trkpt lat="43.50494" lon="6.51824">
        <ele>167.4</ele>
        <time>2014-03-16T08:30:00Z</time>
      </trkpt>
      <trkpt lat="43.50502" lon="6.51827">
        <ele>167.3</ele>
        <time>2014-03-16T08:30:06Z</time>
      </trkpt>
      <trkpt lat="43.50503" lon="6.51828">
        <ele>167</ele>
        <time>2014-03-16T08:30:07Z</time>
      </trkpt>
      <trkpt lat="43.50517" lon="6.51834">
        <ele>165.5</ele>
        <time>2014-03-16T08:30:21Z</time>
      </trkpt>
      <trkpt lat="43.50524" lon="6.5184">
        <ele>164.4</ele>
        <time>2014-03-16T08:30:30Z</time>
      </trkpt>
      <trkpt lat="43.50533" lon="6.51837">
        <ele>164.6</ele>
        <time>2014-03-16T08:30:45Z</time>
      </trkpt>
      <trkpt lat="43.50525" lon="6.51832">
        <ele>169.3</ele>
        <time>2014-03-16T08:31:33Z</time>
      </trkpt>
      <trkpt lat="43.50525" lon="6.51832">
        <ele>169.5</ele>
        <time>2014-03-16T08:31:34Z</time>
      </trkpt>
      <trkpt lat="43.5051" lon="6.51843">
        <ele>175.2</ele>
        <time>2014-03-16T08:32:11Z</time>
      </trkpt>
      <trkpt lat="43.50502" lon="6.5185">
        <ele>176</ele>
        <time>2014-03-16T08:32:23Z</time>
      </trkpt>
      <trkpt lat="43.50494" lon="6.5185">
        <ele>177.4</ele>
        <time>2014-03-16T08:32:35Z</time>
      </trkpt>
      <trkpt lat="43.50493" lon="6.51849">
        <ele>177.2</ele>
        <time>2014-03-16T08:32:36Z</time>
      </trkpt>
      <trkpt lat="43.50478" lon="6.51842">
        <ele>179.2</ele>
        <time>2014-03-16T08:32:52Z</time>
      </trkpt>
      <trkpt lat="43.5047" lon="6.51847">
        <ele>180.8</ele>
        <time>2014-03-16T08:33:04Z</time>
      </trkpt>
      <trkpt lat="43.50462" lon="6.51848">
        <ele>181.9</ele>
        <time>2014-03-16T08:33:14Z</time>
      </trkpt>
      <trkpt lat="43.50453" lon="6.5185">
        <ele>183.3</ele>
        <time>2014-03-16T08:33:24Z</time>
      </trkpt>
      <trkpt lat="43.50445" lon="6.51846">
        <ele>184</ele>
        <time>2014-03-16T08:33:34Z</time>
      </trkpt>
      <trkpt lat="43.50438" lon="6.51853">
        <ele>185.8</ele>
        <time>2014-03-16T08:33:46Z</time>
      </trkpt>
      <trkpt lat="43.50437" lon="6.51853">
        <ele>186.3</ele>
        <time>2014-03-16T08:33:47Z</time>
      </trkpt>
      <trkpt lat="43.50421" lon="6.51857">
        <ele>187.5</ele>
        <time>2014-03-16T08:34:00Z</time>
      </trkpt>
      <trkpt lat="43.50413" lon="6.51859">
        <ele>186.6</ele>
        <time>2014-03-16T08:34:07Z</time>
      </trkpt>
      <trkpt lat="43.50405" lon="6.51862">
        <ele>186</ele>
        <time>2014-03-16T08:34:14Z</time>
      </trkpt>
      <trkpt lat="43.50397" lon="6.51863">
        <ele>185.8</ele>
        <time>2014-03-16T08:34:23Z</time>
      </trkpt>
      <trkpt lat="43.50388" lon="6.51864">
        <ele>186.8</ele>
        <time>2014-03-16T08:34:31Z</time>
      </trkpt>
      <trkpt lat="43.50389" lon="6.51876">
        <ele>187.1</ele>
        <time>2014-03-16T08:34:42Z</time>
      </trkpt>
      <trkpt lat="43.50396" lon="6.51882">
        <ele>188.3</ele>
        <time>2014-03-16T08:34:49Z</time>
      </trkpt>
      <trkpt lat="43.50397" lon="6.51883">
        <ele>188.3</ele>
        <time>2014-03-16T08:34:50Z</time>
      </trkpt>
      <trkpt lat="43.50411" lon="6.51892">
        <ele>190</ele>
        <time>2014-03-16T08:35:06Z</time>
      </trkpt>
      <trkpt lat="43.50417" lon="6.51899">
        <ele>190.8</ele>
        <time>2014-03-16T08:35:15Z</time>
      </trkpt>
      <trkpt lat="43.50425" lon="6.51901">
        <ele>191.9</ele>
        <time>2014-03-16T08:35:21Z</time>
      </trkpt>
      <trkpt lat="43.50433" lon="6.51902">
        <ele>192.5</ele>
        <time>2014-03-16T08:35:29Z</time>
      </trkpt>
      <trkpt lat="43.5044" lon="6.51906">
        <ele>193.3</ele>
        <time>2014-03-16T08:35:38Z</time>
      </trkpt>
      <trkpt lat="43.50448" lon="6.51911">
        <ele>194</ele>
        <time>2014-03-16T08:35:49Z</time>
      </trkpt>
      <trkpt lat="43.50456" lon="6.51915">
        <ele>194.6</ele>
        <time>2014-03-16T08:35:58Z</time>
      </trkpt>
      <trkpt lat="43.50457" lon="6.51915">
        <ele>194.9</ele>
        <time>2014-03-16T08:35:59Z</time>
      </trkpt>
      <trkpt lat="43.50472" lon="6.51926">
        <ele>196.4</ele>
        <time>2014-03-16T08:36:20Z</time>
      </trkpt>
      <trkpt lat="43.50478" lon="6.51934">
        <ele>197.2</ele>
        <time>2014-03-16T08:36:28Z</time>
      </trkpt>
      <trkpt lat="43.50484" lon="6.51941">
        <ele>198.4</ele>
        <time>2014-03-16T08:36:35Z</time>
      </trkpt>
      <trkpt lat="43.5049" lon="6.51949">
        <ele>199.5</ele>
        <time>2014-03-16T08:36:44Z</time>
      </trkpt>
      <trkpt lat="43.50495" lon="6.51958">
        <ele>200.8</ele>
        <time>2014-03-16T08:36:51Z</time>
      </trkpt>
      <trkpt lat="43.50502" lon="6.51964">
        <ele>200.6</ele>
        <time>2014-03-16T08:36:59Z</time>
      </trkpt>
      <trkpt lat="43.50502" lon="6.51965">
        <ele>200.9</ele>
        <time>2014-03-16T08:37:00Z</time>
      </trkpt>
      <trkpt lat="43.50519" lon="6.51965">
        <ele>202.1</ele>
        <time>2014-03-16T08:37:14Z</time>
      </trkpt>
      <trkpt lat="43.50522" lon="6.51954">
        <ele>204</ele>
        <time>2014-03-16T08:37:54Z</time>
      </trkpt>
      <trkpt lat="43.5053" lon="6.51949">
        <ele>203.4</ele>
        <time>2014-03-16T08:38:03Z</time>
      </trkpt>
      <trkpt lat="43.5053" lon="6.51949">
        <ele>203.7</ele>
        <time>2014-03-16T08:38:04Z</time>
      </trkpt>
      <trkpt lat="43.50543" lon="6.51953">
        <ele>205.4</ele>
        <time>2014-03-16T08:38:21Z</time>
      </trkpt>
      <trkpt lat="43.50536" lon="6.51959">
        <ele>206</ele>
        <time>2014-03-16T08:38:32Z</time>
      </trkpt>
      <trkpt lat="43.50529" lon="6.51964">
        <ele>207.6</ele>
        <time>2014-03-16T08:38:43Z</time>
      </trkpt>
      <trkpt lat="43.50522" lon="6.51969">
        <ele>208</ele>
        <time>2014-03-16T08:38:51Z</time>
      </trkpt>
      <trkpt lat="43.50514" lon="6.51975">
        <ele>208.5</ele>
        <time>2014-03-16T08:39:00Z</time>
      </trkpt>
      <trkpt lat="43.50509" lon="6.51985">
        <ele>210.4</ele>
        <time>2014-03-16T08:39:09Z</time>
      </trkpt>
      <trkpt lat="43.50509" lon="6.51986">
        <ele>210.9</ele>
        <time>2014-03-16T08:39:10Z</time>
      </trkpt>
      <trkpt lat="43.50499" lon="6.52004">
        <ele>212.9</ele>
        <time>2014-03-16T08:39:29Z</time>
      </trkpt>
      <trkpt lat="43.50496" lon="6.52015">
        <ele>214</ele>
        <time>2014-03-16T08:39:38Z</time>
      </trkpt>
      <trkpt lat="43.50493" lon="6.52025">
        <ele>215.3</ele>
        <time>2014-03-16T08:39:47Z</time>
      </trkpt>
      <trkpt lat="43.50489" lon="6.52036">
        <ele>216</ele>
        <time>2014-03-16T08:39:57Z</time>
      </trkpt>
      <trkpt lat="43.50487" lon="6.52047">
        <ele>217.3</ele>
        <time>2014-03-16T08:40:05Z</time>
      </trkpt>
      <trkpt lat="43.50483" lon="6.52057">
        <ele>217.9</ele>
        <time>2014-03-16T08:40:14Z</time>
      </trkpt>
      <trkpt lat="43.50483" lon="6.52058">
        <ele>217.9</ele>
        <time>2014-03-16T08:40:15Z</time>
      </trkpt>
      <trkpt lat="43.50476" lon="6.5208">
        <ele>220.2</ele>
        <time>2014-03-16T08:40:33Z</time>
      </trkpt>
      <trkpt lat="43.50471" lon="6.5209">
        <ele>221.4</ele>
        <time>2014-03-16T08:40:44Z</time>
      </trkpt>
      <trkpt lat="43.50467" lon="6.52101">
        <ele>221.8</ele>
        <time>2014-03-16T08:40:55Z</time>
      </trkpt>
      <trkpt lat="43.50464" lon="6.52111">
        <ele>222.8</ele>
        <time>2014-03-16T08:41:04Z</time>
      </trkpt>
      <trkpt lat="43.50462" lon="6.52122">
        <ele>223.4</ele>
        <time>2014-03-16T08:41:12Z</time>
      </trkpt>
      <trkpt lat="43.50461" lon="6.52134">
        <ele>224.1</ele>
        <time>2014-03-16T08:41:21Z</time>
      </trkpt>
      <trkpt lat="43.50461" lon="6.52136">
        <ele>224.3</ele>
        <time>2014-03-16T08:41:22Z</time>
      </trkpt>
      <trkpt lat="43.5046" lon="6.52158">
        <ele>224.9</ele>
        <time>2014-03-16T08:41:40Z</time>
      </trkpt>
      <trkpt lat="43.50453" lon="6.52166">
        <ele>224.6</ele>
        <time>2014-03-16T08:42:27Z</time>
      </trkpt>
      <trkpt lat="43.50453" lon="6.52166">
        <ele>224.7</ele>
        <time>2014-03-16T08:42:28Z</time>
      </trkpt>
      <trkpt lat="43.50464" lon="6.52174">
        <ele>224.8</ele>
        <time>2014-03-16T08:44:07Z</time>
      </trkpt>
      <trkpt lat="43.50465" lon="6.52174">
        <ele>224.8</ele>
        <time>2014-03-16T08:44:08Z</time>
      </trkpt>
      <trkpt lat="43.50465" lon="6.52186">
        <ele>225.7</ele>
        <time>2014-03-16T08:45:34Z</time>
      </trkpt>
      <trkpt lat="43.50465" lon="6.52209">
        <ele>224.4</ele>
        <time>2014-03-16T08:45:54Z</time>
      </trkpt>
      <trkpt lat="43.50466" lon="6.52221">
        <ele>224.6</ele>
        <time>2014-03-16T08:46:04Z</time>
      </trkpt>
      <trkpt lat="43.50466" lon="6.52232">
        <ele>223.2</ele>
        <time>2014-03-16T08:46:12Z</time>
      </trkpt>
      <trkpt lat="43.50459" lon="6.5224">
        <ele>221.9</ele>
        <time>2014-03-16T08:46:20Z</time>
      </trkpt>
      <trkpt lat="43.50453" lon="6.52248">
        <ele>221.4</ele>
        <time>2014-03-16T08:46:29Z</time>
      </trkpt>
      <trkpt lat="43.50447" lon="6.52256">
        <ele>221.3</ele>
        <time>2014-03-16T08:46:38Z</time>
      </trkpt>
      <trkpt lat="43.50446" lon="6.52256">
        <ele>221.4</ele>
        <time>2014-03-16T08:46:39Z</time>
      </trkpt>
      <trkpt lat="43.50436" lon="6.52273">
        <ele>219.5</ele>
        <time>2014-03-16T08:46:56Z</time>
      </trkpt>
      <trkpt lat="43.50435" lon="6.52285">
        <ele>217.9</ele>
        <time>2014-03-16T08:47:04Z</time>
      </trkpt>
      <trkpt lat="43.50433" lon="6.52296">
        <ele>217.3</ele>
        <time>2014-03-16T08:47:12Z</time>
      </trkpt>
      <trkpt lat="43.50433" lon="6.52307">
        <ele>215.6</ele>
        <time>2014-03-16T08:47:20Z</time>
      </trkpt>
      <trkpt lat="43.50428" lon="6.52317">
        <ele>214.8</ele>
        <time>2014-03-16T08:47:28Z</time>
      </trkpt>
      <trkpt lat="43.50425" lon="6.52328">
        <ele>213.9</ele>
        <time>2014-03-16T08:47:37Z</time>
      </trkpt>
      <trkpt lat="43.50424" lon="6.5234">
        <ele>211.8</ele>
        <time>2014-03-16T08:47:46Z</time>
      </trkpt>
      <trkpt lat="43.50423" lon="6.52341">
        <ele>211.8</ele>
        <time>2014-03-16T08:47:47Z</time>
      </trkpt>
      <trkpt lat="43.50416" lon="6.5236">
        <ele>210.4</ele>
        <time>2014-03-16T08:48:02Z</time>
      </trkpt>
      <trkpt lat="43.50412" lon="6.52371">
        <ele>208.7</ele>
        <time>2014-03-16T08:48:13Z</time>
      </trkpt>
      <trkpt lat="43.5041" lon="6.52383">
        <ele>208.3</ele>
        <time>2014-03-16T08:48:20Z</time>
      </trkpt>
      <trkpt lat="43.50408" lon="6.52395">
        <ele>205.2</ele>
        <time>2014-03-16T08:48:31Z</time>
      </trkpt>
      <trkpt lat="43.50409" lon="6.52406">
        <ele>204.9</ele>
        <time>2014-03-16T08:48:42Z</time>
      </trkpt>
      <trkpt lat="43.50414" lon="6.52416">
        <ele>204</ele>
        <time>2014-03-16T08:48:52Z</time>
      </trkpt>
      <trkpt lat="43.50415" lon="6.52418">
        <ele>203.9</ele>
        <time>2014-03-16T08:48:53Z</time>
      </trkpt>
      <trkpt lat="43.50419" lon="6.52437">
        <ele>202.7</ele>
        <time>2014-03-16T08:49:09Z</time>
      </trkpt>
      <trkpt lat="43.50423" lon="6.52447">
        <ele>202.4</ele>
        <time>2014-03-16T08:49:14Z</time>
      </trkpt>
      <trkpt lat="43.50428" lon="6.52457">
        <ele>202</ele>
        <time>2014-03-16T08:49:24Z</time>
      </trkpt>
      <trkpt lat="43.50433" lon="6.52466">
        <ele>201.6</ele>
        <time>2014-03-16T08:49:47Z</time>
      </trkpt>
      <trkpt lat="43.50438" lon="6.52474">
        <ele>201.7</ele>
        <time>2014-03-16T08:49:53Z</time>
      </trkpt>
      <trkpt lat="43.5044" lon="6.52475">
        <ele>202</ele>
        <time>2014-03-16T08:49:54Z</time>
      </trkpt>
      <trkpt lat="43.50424" lon="6.52488">
        <ele>196.5</ele>
        <time>2014-03-16T08:50:25Z</time>
      </trkpt>
      <trkpt lat="43.50418" lon="6.52497">
        <ele>195</ele>
        <time>2014-03-16T08:50:37Z</time>
      </trkpt>
      <trkpt lat="43.50412" lon="6.52489">
        <ele>192.2</ele>
        <time>2014-03-16T08:50:51Z</time>
      </trkpt>
      <trkpt lat="43.50405" lon="6.52482">
        <ele>191.6</ele>
        <time>2014-03-16T08:51:01Z</time>
      </trkpt>
      <trkpt lat="43.50404" lon="6.52481">
        <ele>191.4</ele>
        <time>2014-03-16T08:51:02Z</time>
      </trkpt>
      <trkpt lat="43.5039" lon="6.52476">
        <ele>189.9</ele>
        <time>2014-03-16T08:51:15Z</time>
      </trkpt>
      <trkpt lat="43.50381" lon="6.52475">
        <ele>189.2</ele>
        <time>2014-03-16T08:51:23Z</time>
      </trkpt>
      <trkpt lat="43.50372" lon="6.52474">
        <ele>188</ele>
        <time>2014-03-16T08:51:31Z</time>
      </trkpt>
      <trkpt lat="43.50363" lon="6.52474">
        <ele>186.5</ele>
        <time>2014-03-16T08:51:38Z</time>
      </trkpt>
      <trkpt lat="43.50356" lon="6.5248">
        <ele>185.2</ele>
        <time>2014-03-16T08:51:47Z</time>
      </trkpt>
      <trkpt lat="43.5035" lon="6.52488">
        <ele>184.6</ele>
        <time>2014-03-16T08:52:00Z</time>
      </trkpt>
      <trkpt lat="43.50341" lon="6.52489">
        <ele>183.2</ele>
        <time>2014-03-16T08:52:08Z</time>
      </trkpt>
      <trkpt lat="43.5034" lon="6.5249">
        <ele>183.3</ele>
        <time>2014-03-16T08:52:08Z</time>
      </trkpt>
      <trkpt lat="43.50335" lon="6.52512">
        <ele>180.5</ele>
        <time>2014-03-16T08:52:36Z</time>
      </trkpt>
      <trkpt lat="43.50329" lon="6.5252">
        <ele>179.7</ele>
        <time>2014-03-16T08:52:44Z</time>
      </trkpt>
      <trkpt lat="43.50329" lon="6.52532">
        <ele>178.9</ele>
        <time>2014-03-16T08:52:51Z</time>
      </trkpt>
      <trkpt lat="43.50329" lon="6.52545">
        <ele>177.4</ele>
        <time>2014-03-16T08:53:02Z</time>
      </trkpt>
      <trkpt lat="43.50326" lon="6.52555">
        <ele>177.9</ele>
        <time>2014-03-16T08:53:09Z</time>
      </trkpt>
      <trkpt lat="43.50325" lon="6.52557">
        <ele>177.9</ele>
        <time>2014-03-16T08:53:10Z</time>
      </trkpt>
      <trkpt lat="43.50323" lon="6.52578">
        <ele>177.3</ele>
        <time>2014-03-16T08:53:36Z</time>
      </trkpt>
      <trkpt lat="43.50324" lon="6.5259">
        <ele>178</ele>
        <time>2014-03-16T08:53:43Z</time>
      </trkpt>
      <trkpt lat="43.50325" lon="6.52601">
        <ele>178.3</ele>
        <time>2014-03-16T08:53:49Z</time>
      </trkpt>
      <trkpt lat="43.50326" lon="6.52612">
        <ele>177.7</ele>
        <time>2014-03-16T08:53:55Z</time>
      </trkpt>
      <trkpt lat="43.50324" lon="6.52623">
        <ele>178.8</ele>
        <time>2014-03-16T08:54:01Z</time>
      </trkpt>
      <trkpt lat="43.50325" lon="6.52635">
        <ele>179</ele>
        <time>2014-03-16T08:54:08Z</time>
      </trkpt>
      <trkpt lat="43.50324" lon="6.52645">
        <ele>179.8</ele>
        <time>2014-03-16T08:54:15Z</time>
      </trkpt>
      <trkpt lat="43.50325" lon="6.52648">
        <ele>179.9</ele>
        <time>2014-03-16T08:54:16Z</time>
      </trkpt>
      <trkpt lat="43.50333" lon="6.52665">
        <ele>180.1</ele>
        <time>2014-03-16T08:54:26Z</time>
      </trkpt>
      <trkpt lat="43.50335" lon="6.52676">
        <ele>179.6</ele>
        <time>2014-03-16T08:54:34Z</time>
      </trkpt>
      <trkpt lat="43.50335" lon="6.52687">
        <ele>179.9</ele>
        <time>2014-03-16T08:54:40Z</time>
      </trkpt>
      <trkpt lat="43.50332" lon="6.52698">
        <ele>180</ele>
        <time>2014-03-16T08:54:46Z</time>
      </trkpt>
      <trkpt lat="43.50332" lon="6.52709">
        <ele>180.1</ele>
        <time>2014-03-16T08:54:54Z</time>
      </trkpt>
      <trkpt lat="43.50336" lon="6.52719">
        <ele>180.8</ele>
        <time>2014-03-16T08:55:00Z</time>
      </trkpt>
      <trkpt lat="43.50338" lon="6.5273">
        <ele>181.7</ele>
        <time>2014-03-16T08:55:06Z</time>
      </trkpt>
      <trkpt lat="43.50344" lon="6.52737">
        <ele>181.4</ele>
        <time>2014-03-16T08:55:11Z</time>
      </trkpt>
      <trkpt lat="43.5035" lon="6.52745">
        <ele>182.9</ele>
        <time>2014-03-16T08:55:17Z</time>
      </trkpt>
      <trkpt lat="43.50351" lon="6.52747">
        <ele>182.9</ele>
        <time>2014-03-16T08:55:18Z</time>
      </trkpt>
      <trkpt lat="43.50357" lon="6.52764">
        <ele>183.2</ele>
        <time>2014-03-16T08:55:38Z</time>
      </trkpt>
      <trkpt lat="43.50354" lon="6.52775">
        <ele>183.1</ele>
        <time>2014-03-16T08:55:57Z</time>
      </trkpt>
      <trkpt lat="43.50361" lon="6.52782">
        <ele>188</ele>
        <time>2014-03-16T08:56:32Z</time>
      </trkpt>
      <trkpt lat="43.50361" lon="6.52783">
        <ele>188</ele>
        <time>2014-03-16T08:56:33Z</time>
      </trkpt>
      <trkpt lat="43.50371" lon="6.52802">
        <ele>186.1</ele>
        <time>2014-03-16T08:57:08Z</time>
      </trkpt>
      <trkpt lat="43.50378" lon="6.52808">
        <ele>186.9</ele>
        <time>2014-03-16T08:57:14Z</time>
      </trkpt>
      <trkpt lat="43.50386" lon="6.52812">
        <ele>187.4</ele>
        <time>2014-03-16T08:57:22Z</time>
      </trkpt>
      <trkpt lat="43.50395" lon="6.52813">
        <ele>187.8</ele>
        <time>2014-03-16T08:57:28Z</time>
      </trkpt>
      <trkpt lat="43.50402" lon="6.52814">
        <ele>187.9</ele>
        <time>2014-03-16T08:57:33Z</time>
      </trkpt>
      <trkpt lat="43.50404" lon="6.52813">
        <ele>187.8</ele>
        <time>2014-03-16T08:57:34Z</time>
      </trkpt>
      <trkpt lat="43.50417" lon="6.52818">
        <ele>188.7</ele>
        <time>2014-03-16T08:57:49Z</time>
      </trkpt>
      <trkpt lat="43.50425" lon="6.52822">
        <ele>189.2</ele>
        <time>2014-03-16T08:57:55Z</time>
      </trkpt>
      <trkpt lat="43.50432" lon="6.52828">
        <ele>190.2</ele>
        <time>2014-03-16T08:58:02Z</time>
      </trkpt>
      <trkpt lat="43.50439" lon="6.52833">
        <ele>190.3</ele>
        <time>2014-03-16T08:58:08Z</time>
      </trkpt>
      <trkpt lat="43.50447" lon="6.52838">
        <ele>190.1</ele>
        <time>2014-03-16T08:58:14Z</time>
      </trkpt>
      <trkpt lat="43.50453" lon="6.52846">
        <ele>190.6</ele>
        <time>2014-03-16T08:58:22Z</time>
      </trkpt>
      <trkpt lat="43.5046" lon="6.52854">
        <ele>191.1</ele>
        <time>2014-03-16T08:58:31Z</time>
      </trkpt>
      <trkpt lat="43.50466" lon="6.52863">
        <ele>191.4</ele>
        <time>2014-03-16T08:58:39Z</time>
      </trkpt>
      <trkpt lat="43.50467" lon="6.52864">
        <ele>191.2</ele>
        <time>2014-03-16T08:58:40Z</time>
      </trkpt>
      <trkpt lat="43.50482" lon="6.52871">
        <ele>191.3</ele>
        <time>2014-03-16T08:58:54Z</time>
      </trkpt>
      <trkpt lat="43.5049" lon="6.52869">
        <ele>191.5</ele>
        <time>2014-03-16T08:59:00Z</time>
      </trkpt>
      <trkpt lat="43.50499" lon="6.52868">
        <ele>192.2</ele>
        <time>2014-03-16T08:59:07Z</time>
      </trkpt>
      <trkpt lat="43.50505" lon="6.52875">
        <ele>192.9</ele>
        <time>2014-03-16T08:59:15Z</time>
      </trkpt>
      <trkpt lat="43.50503" lon="6.52886">
        <ele>192.4</ele>
        <time>2014-03-16T08:59:23Z</time>
      </trkpt>
      <trkpt lat="43.50502" lon="6.52897">
        <ele>194.2</ele>
        <time>2014-03-16T08:59:32Z</time>
      </trkpt>
      <trkpt lat="43.50495" lon="6.52904">
        <ele>195</ele>
        <time>2014-03-16T08:59:40Z</time>
      </trkpt>
      <trkpt lat="43.50494" lon="6.52905">
        <ele>194.9</ele>
        <time>2014-03-16T08:59:41Z</time>
      </trkpt>
      <trkpt lat="43.50479" lon="6.52905">
        <ele>196.3</ele>
        <time>2014-03-16T08:59:54Z</time>
      </trkpt>
      <trkpt lat="43.50471" lon="6.52902">
        <ele>196</ele>
        <time>2014-03-16T09:00:01Z</time>
      </trkpt>
      <trkpt lat="43.50463" lon="6.529">
        <ele>196.4</ele>
        <time>2014-03-16T09:00:10Z</time>
      </trkpt>
      <trkpt lat="43.50455" lon="6.52897">
        <ele>197.5</ele>
        <time>2014-03-16T09:00:19Z</time>
      </trkpt>
      <trkpt lat="43.50447" lon="6.52892">
        <ele>198</ele>
        <time>2014-03-16T09:00:28Z</time>
      </trkpt>
      <trkpt lat="43.50439" lon="6.52887">
        <ele>199.6</ele>
        <time>2014-03-16T09:00:37Z</time>
      </trkpt>
      <trkpt lat="43.50431" lon="6.52882">
        <ele>200.9</ele>
        <time>2014-03-16T09:00:45Z</time>
      </trkpt>
      <trkpt lat="43.5043" lon="6.52881">
        <ele>201</ele>
        <time>2014-03-16T09:00:46Z</time>
      </trkpt>
      <trkpt lat="43.50414" lon="6.52877">
        <ele>201.8</ele>
        <time>2014-03-16T09:01:02Z</time>
      </trkpt>
      <trkpt lat="43.50406" lon="6.52877">
        <ele>202.8</ele>
        <time>2014-03-16T09:01:08Z</time>
      </trkpt>
      <trkpt lat="43.50398" lon="6.52878">
        <ele>203.3</ele>
        <time>2014-03-16T09:01:14Z</time>
      </trkpt>
      <trkpt lat="43.5039" lon="6.5288">
        <ele>204.1</ele>
        <time>2014-03-16T09:01:24Z</time>
      </trkpt>
      <trkpt lat="43.50382" lon="6.52882">
        <ele>205.2</ele>
        <time>2014-03-16T09:01:32Z</time>
      </trkpt>
      <trkpt lat="43.50373" lon="6.52883">
        <ele>205.6</ele>
        <time>2014-03-16T09:01:39Z</time>
      </trkpt>
      <trkpt lat="43.50364" lon="6.52887">
        <ele>206.4</ele>
        <time>2014-03-16T09:01:49Z</time>
      </trkpt>
      <trkpt lat="43.50364" lon="6.52888">
        <ele>206.7</ele>
        <time>2014-03-16T09:01:50Z</time>
      </trkpt>
      <trkpt lat="43.50368" lon="6.52906">
        <ele>207.8</ele>
        <time>2014-03-16T09:02:05Z</time>
      </trkpt>
      <trkpt lat="43.50374" lon="6.52915">
        <ele>208</ele>
        <time>2014-03-16T09:02:11Z</time>
      </trkpt>
      <trkpt lat="43.5038" lon="6.52924">
        <ele>208.9</ele>
        <time>2014-03-16T09:02:19Z</time>
      </trkpt>
      <trkpt lat="43.50386" lon="6.52933">
        <ele>208.8</ele>
        <time>2014-03-16T09:02:27Z</time>
      </trkpt>
      <trkpt lat="43.50392" lon="6.52941">
        <ele>210.3</ele>
        <time>2014-03-16T09:02:35Z</time>
      </trkpt>
      <trkpt lat="43.50398" lon="6.52948">
        <ele>210.2</ele>
        <time>2014-03-16T09:02:42Z</time>
      </trkpt>
      <trkpt lat="43.50403" lon="6.52959">
        <ele>210.1</ele>
        <time>2014-03-16T09:02:49Z</time>
      </trkpt>
      <trkpt lat="43.50407" lon="6.52969">
        <ele>210.4</ele>
        <time>2014-03-16T09:02:59Z</time>
      </trkpt>
      <trkpt lat="43.50407" lon="6.52971">
        <ele>210.8</ele>
        <time>2014-03-16T09:03:00Z</time>
      </trkpt>
      <trkpt lat="43.50409" lon="6.5299">
        <ele>211.5</ele>
        <time>2014-03-16T09:03:13Z</time>
      </trkpt>
      <trkpt lat="43.50411" lon="6.53">
        <ele>212</ele>
        <time>2014-03-16T09:03:19Z</time>
      </trkpt>
      <trkpt lat="43.50414" lon="6.53011">
        <ele>211</ele>
        <time>2014-03-16T09:03:25Z</time>
      </trkpt>
      <trkpt lat="43.50415" lon="6.53022">
        <ele>210.6</ele>
        <time>2014-03-16T09:03:32Z</time>
      </trkpt>
      <trkpt lat="43.50418" lon="6.53031">
        <ele>210.7</ele>
        <time>2014-03-16T09:03:39Z</time>
      </trkpt>
      <trkpt lat="43.50423" lon="6.5304">
        <ele>210.8</ele>
        <time>2014-03-16T09:03:45Z</time>
      </trkpt>
      <trkpt lat="43.5043" lon="6.53048">
        <ele>210.4</ele>
        <time>2014-03-16T09:03:52Z</time>
      </trkpt>
      <trkpt lat="43.50435" lon="6.53058">
        <ele>210</ele>
        <time>2014-03-16T09:04:00Z</time>
      </trkpt>
      <trkpt lat="43.50435" lon="6.53059">
        <ele>210.3</ele>
        <time>2014-03-16T09:04:01Z</time>
      </trkpt>
      <trkpt lat="43.50434" lon="6.53079">
        <ele>209.6</ele>
        <time>2014-03-16T09:04:27Z</time>
      </trkpt>
      <trkpt lat="43.50426" lon="6.53081">
        <ele>208.3</ele>
        <time>2014-03-16T09:04:40Z</time>
      </trkpt>
      <trkpt lat="43.50418" lon="6.53077">
        <ele>207.6</ele>
        <time>2014-03-16T09:04:51Z</time>
      </trkpt>
      <trkpt lat="43.5041" lon="6.53082">
        <ele>207.5</ele>
        <time>2014-03-16T09:05:02Z</time>
      </trkpt>
      <trkpt lat="43.5041" lon="6.53082">
        <ele>207.3</ele>
        <time>2014-03-16T09:05:03Z</time>
      </trkpt>
      <trkpt lat="43.50394" lon="6.53075">
        <ele>204.6</ele>
        <time>2014-03-16T09:05:22Z</time>
      </trkpt>
      <trkpt lat="43.50386" lon="6.53072">
        <ele>202.7</ele>
        <time>2014-03-16T09:05:34Z</time>
      </trkpt>
      <trkpt lat="43.50378" lon="6.53069">
        <ele>202.3</ele>
        <time>2014-03-16T09:05:43Z</time>
      </trkpt>
      <trkpt lat="43.5037" lon="6.53065">
        <ele>201</ele>
        <time>2014-03-16T09:05:55Z</time>
      </trkpt>
      <trkpt lat="43.50367" lon="6.53077">
        <ele>199.7</ele>
        <time>2014-03-16T09:06:56Z</time>
      </trkpt>
      <trkpt lat="43.50367" lon="6.53077">
        <ele>199.4</ele>
        <time>2014-03-16T09:06:57Z</time>
      </trkpt>
      <trkpt lat="43.50356" lon="6.53087">
        <ele>193.5</ele>
        <time>2014-03-16T09:10:04Z</time>
      </trkpt>
      <trkpt lat="43.50355" lon="6.53087">
        <ele>193.2</ele>
        <time>2014-03-16T09:10:05Z</time>
      </trkpt>
      <trkpt lat="43.5034" lon="6.53084">
        <ele>190</ele>
        <time>2014-03-16T09:10:25Z</time>
      </trkpt>
      <trkpt lat="43.50331" lon="6.53082">
        <ele>188.5</ele>
        <time>2014-03-16T09:10:32Z</time>
      </trkpt>
      <trkpt lat="43.50323" lon="6.5308">
        <ele>187.1</ele>
        <time>2014-03-16T09:10:41Z</time>
      </trkpt>
      <trkpt lat="43.50315" lon="6.53078">
        <ele>186.2</ele>
        <time>2014-03-16T09:10:52Z</time>
      </trkpt>
      <trkpt lat="43.50307" lon="6.53078">
        <ele>184.8</ele>
        <time>2014-03-16T09:11:00Z</time>
      </trkpt>
      <trkpt lat="43.50299" lon="6.53075">
        <ele>184.9</ele>
        <time>2014-03-16T09:11:12Z</time>
      </trkpt>
      <trkpt lat="43.50298" lon="6.53074">
        <ele>185.1</ele>
        <time>2014-03-16T09:11:13Z</time>
      </trkpt>
      <trkpt lat="43.50281" lon="6.53075">
        <ele>181.9</ele>
        <time>2014-03-16T09:11:40Z</time>
      </trkpt>
      <trkpt lat="43.50273" lon="6.53076">
        <ele>180.4</ele>
        <time>2014-03-16T09:11:49Z</time>
      </trkpt>
      <trkpt lat="43.50264" lon="6.53076">
        <ele>178.9</ele>
        <time>2014-03-16T09:12:06Z</time>
      </trkpt>
      <trkpt lat="43.50265" lon="6.53087">
        <ele>177.6</ele>
        <time>2014-03-16T09:12:24Z</time>
      </trkpt>
      <trkpt lat="43.50265" lon="6.53088">
        <ele>177.5</ele>
        <time>2014-03-16T09:12:25Z</time>
      </trkpt>
      <trkpt lat="43.50278" lon="6.53109">
        <ele>175</ele>
        <time>2014-03-16T09:12:49Z</time>
      </trkpt>
      <trkpt lat="43.50286" lon="6.53116">
        <ele>175.9</ele>
        <time>2014-03-16T09:12:58Z</time>
      </trkpt>
      <trkpt lat="43.50293" lon="6.53122">
        <ele>175.9</ele>
        <time>2014-03-16T09:13:06Z</time>
      </trkpt>
      <trkpt lat="43.503" lon="6.53129">
        <ele>175.9</ele>
        <time>2014-03-16T09:13:14Z</time>
      </trkpt>
      <trkpt lat="43.50307" lon="6.53136">
        <ele>174.7</ele>
        <time>2014-03-16T09:13:22Z</time>
      </trkpt>
      <trkpt lat="43.50314" lon="6.53143">
        <ele>174.7</ele>
        <time>2014-03-16T09:13:30Z</time>
      </trkpt>
      <trkpt lat="43.50315" lon="6.53144">
        <ele>174.7</ele>
        <time>2014-03-16T09:13:31Z</time>
      </trkpt>
      <trkpt lat="43.50321" lon="6.53164">
        <ele>173.3</ele>
        <time>2014-03-16T09:13:47Z</time>
      </trkpt>
      <trkpt lat="43.50323" lon="6.53176">
        <ele>172.4</ele>
        <time>2014-03-16T09:13:59Z</time>
      </trkpt>
      <trkpt lat="43.50317" lon="6.53185">
        <ele>170.8</ele>
        <time>2014-03-16T09:14:17Z</time>
      </trkpt>
      <trkpt lat="43.5031" lon="6.53192">
        <ele>169</ele>
        <time>2014-03-16T09:14:32Z</time>
      </trkpt>
      <trkpt lat="43.5031" lon="6.53193">
        <ele>168.9</ele>
        <time>2014-03-16T09:14:33Z</time>
      </trkpt>
      <trkpt lat="43.50301" lon="6.5321">
        <ele>165.7</ele>
        <time>2014-03-16T09:15:02Z</time>
      </trkpt>
      <trkpt lat="43.50294" lon="6.53218">
        <ele>163.5</ele>
        <time>2014-03-16T09:15:14Z</time>
      </trkpt>
      <trkpt lat="43.50289" lon="6.53227">
        <ele>162.9</ele>
        <time>2014-03-16T09:15:25Z</time>
      </trkpt>
      <trkpt lat="43.50284" lon="6.53235">
        <ele>161.5</ele>
        <time>2014-03-16T09:15:33Z</time>
      </trkpt>
      <trkpt lat="43.50283" lon="6.53235">
        <ele>161.1</ele>
        <time>2014-03-16T09:15:34Z</time>
      </trkpt>
      <trkpt lat="43.50268" lon="6.53246">
        <ele>160.4</ele>
        <time>2014-03-16T09:15:50Z</time>
      </trkpt>
      <trkpt lat="43.50261" lon="6.53252">
        <ele>160.2</ele>
        <time>2014-03-16T09:15:58Z</time>
      </trkpt>
      <trkpt lat="43.50254" lon="6.5326">
        <ele>159.8</ele>
        <time>2014-03-16T09:16:08Z</time>
      </trkpt>
      <trkpt lat="43.50253" lon="6.53272">
        <ele>160.1</ele>
        <time>2014-03-16T09:16:32Z</time>
      </trkpt>
      <trkpt lat="43.50245" lon="6.53277">
        <ele>160.2</ele>
        <time>2014-03-16T09:16:40Z</time>
      </trkpt>
      <trkpt lat="43.50244" lon="6.53278">
        <ele>159.9</ele>
        <time>2014-03-16T09:16:41Z</time>
      </trkpt>
      <trkpt lat="43.50231" lon="6.53289">
        <ele>158.9</ele>
        <time>2014-03-16T09:16:54Z</time>
      </trkpt>
      <trkpt lat="43.50226" lon="6.53299">
        <ele>159.5</ele>
        <time>2014-03-16T09:17:05Z</time>
      </trkpt>
      <trkpt lat="43.5023" lon="6.53308">
        <ele>160.4</ele>
        <time>2014-03-16T09:17:17Z</time>
      </trkpt>
      <trkpt lat="43.50235" lon="6.53318">
        <ele>161.7</ele>
        <time>2014-03-16T09:17:27Z</time>
      </trkpt>
      <trkpt lat="43.50242" lon="6.53326">
        <ele>161.8</ele>
        <time>2014-03-16T09:17:36Z</time>
      </trkpt>
      <trkpt lat="43.50246" lon="6.53335">
        <ele>163.5</ele>
        <time>2014-03-16T09:17:44Z</time>
      </trkpt>
      <trkpt lat="43.50247" lon="6.53337">
        <ele>163.7</ele>
        <time>2014-03-16T09:17:45Z</time>
      </trkpt>
      <trkpt lat="43.50251" lon="6.53358">
        <ele>164.9</ele>
        <time>2014-03-16T09:17:56Z</time>
      </trkpt>
      <trkpt lat="43.50255" lon="6.53367">
        <ele>165.2</ele>
        <time>2014-03-16T09:18:03Z</time>
      </trkpt>
      <trkpt lat="43.50258" lon="6.53378">
        <ele>166.2</ele>
        <time>2014-03-16T09:18:13Z</time>
      </trkpt>
      <trkpt lat="43.50263" lon="6.53386">
        <ele>167.7</ele>
        <time>2014-03-16T09:18:20Z</time>
      </trkpt>
      <trkpt lat="43.50264" lon="6.53398">
        <ele>169.2</ele>
        <time>2014-03-16T09:18:29Z</time>
      </trkpt>
      <trkpt lat="43.50267" lon="6.53408">
        <ele>171.7</ele>
        <time>2014-03-16T09:18:41Z</time>
      </trkpt>
      <trkpt lat="43.5027" lon="6.5342">
        <ele>172.1</ele>
        <time>2014-03-16T09:18:54Z</time>
      </trkpt>
      <trkpt lat="43.5027" lon="6.53421">
        <ele>172.2</ele>
        <time>2014-03-16T09:18:55Z</time>
      </trkpt>
      <trkpt lat="43.50274" lon="6.53441">
        <ele>174.9</ele>
        <time>2014-03-16T09:19:15Z</time>
      </trkpt>
      <trkpt lat="43.50281" lon="6.53448">
        <ele>174.8</ele>
        <time>2014-03-16T09:19:26Z</time>
      </trkpt>
      <trkpt lat="43.50287" lon="6.53455">
        <ele>176.1</ele>
        <time>2014-03-16T09:19:37Z</time>
      </trkpt>
      <trkpt lat="43.50295" lon="6.53458">
        <ele>176.7</ele>
        <time>2014-03-16T09:19:46Z</time>
      </trkpt>
      <trkpt lat="43.50303" lon="6.53462">
        <ele>177.7</ele>
        <time>2014-03-16T09:19:54Z</time>
      </trkpt>
      <trkpt lat="43.50295" lon="6.53457">
        <ele>179.5</ele>
        <time>2014-03-16T09:20:24Z</time>
      </trkpt>
      <trkpt lat="43.50295" lon="6.53456">
        <ele>179.8</ele>
        <time>2014-03-16T09:20:25Z</time>
      </trkpt>
      <trkpt lat="43.50279" lon="6.53461">
        <ele>182.5</ele>
        <time>2014-03-16T09:20:52Z</time>
      </trkpt>
      <trkpt lat="43.50273" lon="6.53469">
        <ele>184.6</ele>
        <time>2014-03-16T09:21:02Z</time>
      </trkpt>
      <trkpt lat="43.50268" lon="6.53478">
        <ele>186</ele>
        <time>2014-03-16T09:21:12Z</time>
      </trkpt>
      <trkpt lat="43.5026" lon="6.53484">
        <ele>185.7</ele>
        <time>2014-03-16T09:21:31Z</time>
      </trkpt>
      <trkpt lat="43.5026" lon="6.53485">
        <ele>185.7</ele>
        <time>2014-03-16T09:21:32Z</time>
      </trkpt>
      <trkpt lat="43.50245" lon="6.53496">
        <ele>187.9</ele>
        <time>2014-03-16T09:22:25Z</time>
      </trkpt>
      <trkpt lat="43.5024" lon="6.53505">
        <ele>189.5</ele>
        <time>2014-03-16T09:23:05Z</time>
      </trkpt>
      <trkpt lat="43.50239" lon="6.53506">
        <ele>189.9</ele>
        <time>2014-03-16T09:23:06Z</time>
      </trkpt>
      <trkpt lat="43.50233" lon="6.53527">
        <ele>194.7</ele>
        <time>2014-03-16T09:23:46Z</time>
      </trkpt>
      <trkpt lat="43.5023" lon="6.53537">
        <ele>194.9</ele>
        <time>2014-03-16T09:23:53Z</time>
      </trkpt>
      <trkpt lat="43.50223" lon="6.53544">
        <ele>196.7</ele>
        <time>2014-03-16T09:24:02Z</time>
      </trkpt>
      <trkpt lat="43.50216" lon="6.5355">
        <ele>198.4</ele>
        <time>2014-03-16T09:24:14Z</time>
      </trkpt>
      <trkpt lat="43.50215" lon="6.5355">
        <ele>198.6</ele>
        <time>2014-03-16T09:24:15Z</time>
      </trkpt>
      <trkpt lat="43.50207" lon="6.5357">
        <ele>203.8</ele>
        <time>2014-03-16T09:24:45Z</time>
      </trkpt>
      <trkpt lat="43.50202" lon="6.53578">
        <ele>204.2</ele>
        <time>2014-03-16T09:24:53Z</time>
      </trkpt>
      <trkpt lat="43.50194" lon="6.53585">
        <ele>205.9</ele>
        <time>2014-03-16T09:25:03Z</time>
      </trkpt>
      <trkpt lat="43.50189" lon="6.53594">
        <ele>206.9</ele>
        <time>2014-03-16T09:25:13Z</time>
      </trkpt>
      <trkpt lat="43.50186" lon="6.53605">
        <ele>208.4</ele>
        <time>2014-03-16T09:25:24Z</time>
      </trkpt>
      <trkpt lat="43.50185" lon="6.53606">
        <ele>208.2</ele>
        <time>2014-03-16T09:25:25Z</time>
      </trkpt>
      <trkpt lat="43.50173" lon="6.53621">
        <ele>210.2</ele>
        <time>2014-03-16T09:25:45Z</time>
      </trkpt>
      <trkpt lat="43.50167" lon="6.53629">
        <ele>211.8</ele>
        <time>2014-03-16T09:25:54Z</time>
      </trkpt>
      <trkpt lat="43.50161" lon="6.53638">
        <ele>213.4</ele>
        <time>2014-03-16T09:26:07Z</time>
      </trkpt>
      <trkpt lat="43.50157" lon="6.53648">
        <ele>214</ele>
        <time>2014-03-16T09:26:18Z</time>
      </trkpt>
      <trkpt lat="43.50153" lon="6.53658">
        <ele>216.1</ele>
        <time>2014-03-16T09:26:26Z</time>
      </trkpt>
      <trkpt lat="43.50152" lon="6.53659">
        <ele>215.9</ele>
        <time>2014-03-16T09:26:27Z</time>
      </trkpt>
      <trkpt lat="43.50145" lon="6.53678">
        <ele>216.7</ele>
        <time>2014-03-16T09:26:41Z</time>
      </trkpt>
      <trkpt lat="43.50141" lon="6.53688">
        <ele>217.1</ele>
        <time>2014-03-16T09:26:47Z</time>
      </trkpt>
      <trkpt lat="43.50139" lon="6.53698">
        <ele>217.2</ele>
        <time>2014-03-16T09:26:54Z</time>
      </trkpt>
      <trkpt lat="43.50137" lon="6.5371">
        <ele>218</ele>
        <time>2014-03-16T09:27:01Z</time>
      </trkpt>
      <trkpt lat="43.50134" lon="6.53722">
        <ele>218.5</ele>
        <time>2014-03-16T09:27:10Z</time>
      </trkpt>
      <trkpt lat="43.50131" lon="6.53732">
        <ele>219.1</ele>
        <time>2014-03-16T09:27:17Z</time>
      </trkpt>
      <trkpt lat="43.50129" lon="6.53743">
        <ele>219.3</ele>
        <time>2014-03-16T09:27:24Z</time>
      </trkpt>
      <trkpt lat="43.50125" lon="6.53753">
        <ele>220.1</ele>
        <time>2014-03-16T09:27:33Z</time>
      </trkpt>
      <trkpt lat="43.50124" lon="6.53755">
        <ele>220.1</ele>
        <time>2014-03-16T09:27:34Z</time>
      </trkpt>
      <trkpt lat="43.50119" lon="6.53776">
        <ele>220.7</ele>
        <time>2014-03-16T09:27:47Z</time>
      </trkpt>
      <trkpt lat="43.50115" lon="6.53786">
        <ele>220.9</ele>
        <time>2014-03-16T09:27:54Z</time>
      </trkpt>
      <trkpt lat="43.50113" lon="6.53797">
        <ele>221.5</ele>
        <time>2014-03-16T09:28:08Z</time>
      </trkpt>
      <trkpt lat="43.50111" lon="6.53809">
        <ele>222.7</ele>
        <time>2014-03-16T09:28:16Z</time>
      </trkpt>
      <trkpt lat="43.50108" lon="6.53821">
        <ele>223.6</ele>
        <time>2014-03-16T09:28:25Z</time>
      </trkpt>
      <trkpt lat="43.50103" lon="6.53831">
        <ele>223.6</ele>
        <time>2014-03-16T09:28:34Z</time>
      </trkpt>
      <trkpt lat="43.50103" lon="6.53832">
        <ele>223.8</ele>
        <time>2014-03-16T09:28:35Z</time>
      </trkpt>
      <trkpt lat="43.50101" lon="6.53853">
        <ele>224.9</ele>
        <time>2014-03-16T09:28:51Z</time>
      </trkpt>
      <trkpt lat="43.501" lon="6.53865">
        <ele>226.1</ele>
        <time>2014-03-16T09:29:00Z</time>
      </trkpt>
      <trkpt lat="43.50095" lon="6.53875">
        <ele>226.6</ele>
        <time>2014-03-16T09:29:09Z</time>
      </trkpt>
      <trkpt lat="43.50093" lon="6.53886">
        <ele>227.5</ele>
        <time>2014-03-16T09:29:16Z</time>
      </trkpt>
      <trkpt lat="43.50092" lon="6.53897">
        <ele>227.9</ele>
        <time>2014-03-16T09:29:22Z</time>
      </trkpt>
      <trkpt lat="43.50097" lon="6.53906">
        <ele>228.1</ele>
        <time>2014-03-16T09:29:47Z</time>
      </trkpt>
      <trkpt lat="43.50098" lon="6.53906">
        <ele>228.1</ele>
        <time>2014-03-16T09:29:48Z</time>
      </trkpt>
      <trkpt lat="43.50088" lon="6.53903">
        <ele>227.2</ele>
        <time>2014-03-16T09:31:27Z</time>
      </trkpt>
      <trkpt lat="43.50093" lon="6.53915">
        <ele>226.4</ele>
        <time>2014-03-16T09:33:50Z</time>
      </trkpt>
      <trkpt lat="43.50079" lon="6.53925">
        <ele>229.1</ele>
        <time>2014-03-16T09:34:18Z</time>
      </trkpt>
      <trkpt lat="43.5007" lon="6.53926">
        <ele>231.4</ele>
        <time>2014-03-16T09:34:42Z</time>
      </trkpt>
      <trkpt lat="43.50063" lon="6.5392">
        <ele>233.4</ele>
        <time>2014-03-16T09:34:59Z</time>
      </trkpt>
      <trkpt lat="43.50062" lon="6.5392">
        <ele>233.7</ele>
        <time>2014-03-16T09:35:00Z</time>
      </trkpt>
      <trkpt lat="43.50047" lon="6.53909">
        <ele>236.1</ele>
        <time>2014-03-16T09:35:17Z</time>
      </trkpt>
      <trkpt lat="43.50039" lon="6.53908">
        <ele>237.4</ele>
        <time>2014-03-16T09:35:27Z</time>
      </trkpt>
      <trkpt lat="43.50031" lon="6.53906">
        <ele>238.3</ele>
        <time>2014-03-16T09:35:34Z</time>
      </trkpt>
      <trkpt lat="43.50023" lon="6.5391">
        <ele>238.9</ele>
        <time>2014-03-16T09:35:40Z</time>
      </trkpt>
      <trkpt lat="43.50016" lon="6.53916">
        <ele>239.5</ele>
        <time>2014-03-16T09:35:48Z</time>
      </trkpt>
      <trkpt lat="43.50008" lon="6.5392">
        <ele>241.1</ele>
        <time>2014-03-16T09:35:58Z</time>
      </trkpt>
      <trkpt lat="43.49999" lon="6.53923">
        <ele>241.4</ele>
        <time>2014-03-16T09:36:07Z</time>
      </trkpt>
      <trkpt lat="43.49998" lon="6.53923">
        <ele>241.3</ele>
        <time>2014-03-16T09:36:08Z</time>
      </trkpt>
      <trkpt lat="43.49984" lon="6.53928">
        <ele>241.4</ele>
        <time>2014-03-16T09:36:22Z</time>
      </trkpt>
      <trkpt lat="43.49978" lon="6.53935">
        <ele>241.6</ele>
        <time>2014-03-16T09:36:28Z</time>
      </trkpt>
      <trkpt lat="43.49971" lon="6.53941">
        <ele>241.7</ele>
        <time>2014-03-16T09:36:33Z</time>
      </trkpt>
      <trkpt lat="43.49964" lon="6.53948">
        <ele>241.2</ele>
        <time>2014-03-16T09:36:41Z</time>
      </trkpt>
      <trkpt lat="43.4996" lon="6.53959">
        <ele>241.3</ele>
        <time>2014-03-16T09:36:48Z</time>
      </trkpt>
      <trkpt lat="43.49961" lon="6.5397">
        <ele>241.4</ele>
        <time>2014-03-16T09:36:54Z</time>
      </trkpt>
      <trkpt lat="43.49955" lon="6.5398">
        <ele>240.8</ele>
        <time>2014-03-16T09:37:05Z</time>
      </trkpt>
      <trkpt lat="43.49952" lon="6.5399">
        <ele>240.4</ele>
        <time>2014-03-16T09:37:44Z</time>
      </trkpt>
      <trkpt lat="43.4995" lon="6.53991">
        <ele>240.5</ele>
        <time>2014-03-16T09:37:45Z</time>
      </trkpt>
      <trkpt lat="43.49965" lon="6.54004">
        <ele>241.2</ele>
        <time>2014-03-16T09:39:23Z</time>
      </trkpt>
      <trkpt lat="43.49965" lon="6.54005">
        <ele>241.1</ele>
        <time>2014-03-16T09:39:24Z</time>
      </trkpt>
      <trkpt lat="43.49956" lon="6.54001">
        <ele>241.4</ele>
        <time>2014-03-16T09:44:56Z</time>
      </trkpt>
      <trkpt lat="43.49959" lon="6.53988">
        <ele>241.3</ele>
        <time>2014-03-16T09:50:28Z</time>
      </trkpt>
      <trkpt lat="43.49957" lon="6.5399">
        <ele>241.2</ele>
        <time>2014-03-16T09:51:09Z</time>
      </trkpt>
      <trkpt lat="43.49965" lon="6.5399">
        <ele>242.9</ele>
        <time>2014-03-16T09:52:20Z</time>
      </trkpt>
      <trkpt lat="43.49966" lon="6.53989">
        <ele>242.8</ele>
        <time>2014-03-16T09:52:21Z</time>
      </trkpt>
      <trkpt lat="43.4997" lon="6.53983">
        <ele>241.2</ele>
        <time>2014-03-16T09:54:43Z</time>
      </trkpt>
      <trkpt lat="43.4997" lon="6.53985">
        <ele>241.5</ele>
        <time>2014-03-16T09:54:44Z</time>
      </trkpt>
      <trkpt lat="43.49984" lon="6.53994">
        <ele>241</ele>
        <time>2014-03-16T09:55:14Z</time>
      </trkpt>
      <trkpt lat="43.49991" lon="6.54">
        <ele>240.7</ele>
        <time>2014-03-16T09:55:22Z</time>
      </trkpt>
      <trkpt lat="43.49999" lon="6.54003">
        <ele>240.1</ele>
        <time>2014-03-16T09:55:29Z</time>
      </trkpt>
      <trkpt lat="43.50007" lon="6.54008">
        <ele>240</ele>
        <time>2014-03-16T09:55:35Z</time>
      </trkpt>
      <trkpt lat="43.50015" lon="6.54012">
        <ele>238.9</ele>
        <time>2014-03-16T09:55:46Z</time>
      </trkpt>
      <trkpt lat="43.50016" lon="6.54012">
        <ele>238.7</ele>
        <time>2014-03-16T09:55:47Z</time>
      </trkpt>
      <trkpt lat="43.50029" lon="6.54022">
        <ele>237.9</ele>
        <time>2014-03-16T09:56:01Z</time>
      </trkpt>
      <trkpt lat="43.50037" lon="6.54027">
        <ele>237.1</ele>
        <time>2014-03-16T09:56:08Z</time>
      </trkpt>
      <trkpt lat="43.50044" lon="6.54033">
        <ele>236.2</ele>
        <time>2014-03-16T09:56:15Z</time>
      </trkpt>
      <trkpt lat="43.50052" lon="6.54039">
        <ele>235.3</ele>
        <time>2014-03-16T09:56:24Z</time>
      </trkpt>
      <trkpt lat="43.5006" lon="6.5404">
        <ele>233.3</ele>
        <time>2014-03-16T09:56:42Z</time>
      </trkpt>
      <trkpt lat="43.50065" lon="6.54049">
        <ele>233.1</ele>
        <time>2014-03-16T09:56:49Z</time>
      </trkpt>
      <trkpt lat="43.50066" lon="6.5405">
        <ele>233.1</ele>
        <time>2014-03-16T09:56:50Z</time>
      </trkpt>
      <trkpt lat="43.50081" lon="6.54055">
        <ele>231.8</ele>
        <time>2014-03-16T09:57:04Z</time>
      </trkpt>
      <trkpt lat="43.5009" lon="6.54057">
        <ele>231.6</ele>
        <time>2014-03-16T09:57:10Z</time>
      </trkpt>
      <trkpt lat="43.50098" lon="6.54054">
        <ele>230.6</ele>
        <time>2014-03-16T09:57:16Z</time>
      </trkpt>
      <trkpt lat="43.50101" lon="6.54042">
        <ele>230.5</ele>
        <time>2014-03-16T09:57:25Z</time>
      </trkpt>
      <trkpt lat="43.50105" lon="6.54033">
        <ele>229.3</ele>
        <time>2014-03-16T09:57:30Z</time>
      </trkpt>
      <trkpt lat="43.50107" lon="6.54021">
        <ele>229.3</ele>
        <time>2014-03-16T09:57:34Z</time>
      </trkpt>
      <trkpt lat="43.5011" lon="6.5401">
        <ele>229.4</ele>
        <time>2014-03-16T09:57:41Z</time>
      </trkpt>
      <trkpt lat="43.50114" lon="6.53999">
        <ele>229.2</ele>
        <time>2014-03-16T09:57:46Z</time>
      </trkpt>
      <trkpt lat="43.50118" lon="6.53988">
        <ele>228.5</ele>
        <time>2014-03-16T09:57:55Z</time>
      </trkpt>
      <trkpt lat="43.50118" lon="6.53987">
        <ele>228.8</ele>
        <time>2014-03-16T09:57:56Z</time>
      </trkpt>
      <trkpt lat="43.50115" lon="6.53966">
        <ele>227.7</ele>
        <time>2014-03-16T09:58:10Z</time>
      </trkpt>
      <trkpt lat="43.50113" lon="6.53954">
        <ele>226.3</ele>
        <time>2014-03-16T09:58:23Z</time>
      </trkpt>
      <trkpt lat="43.50113" lon="6.53965">
        <ele>227.4</ele>
        <time>2014-03-16T09:58:51Z</time>
      </trkpt>
      <trkpt lat="43.5012" lon="6.53958">
        <ele>226</ele>
        <time>2014-03-16T09:59:07Z</time>
      </trkpt>
      <trkpt lat="43.5012" lon="6.53957">
        <ele>225.1</ele>
        <time>2014-03-16T09:59:08Z</time>
      </trkpt>
      <trkpt lat="43.50127" lon="6.53937">
        <ele>225</ele>
        <time>2014-03-16T09:59:18Z</time>
      </trkpt>
      <trkpt lat="43.50132" lon="6.53928">
        <ele>223.6</ele>
        <time>2014-03-16T09:59:26Z</time>
      </trkpt>
      <trkpt lat="43.50136" lon="6.53918">
        <ele>224.3</ele>
        <time>2014-03-16T09:59:32Z</time>
      </trkpt>
      <trkpt lat="43.50139" lon="6.53907">
        <ele>222.9</ele>
        <time>2014-03-16T09:59:39Z</time>
      </trkpt>
      <trkpt lat="43.50146" lon="6.53901">
        <ele>222.6</ele>
        <time>2014-03-16T10:00:17Z</time>
      </trkpt>
      <trkpt lat="43.50147" lon="6.539">
        <ele>222.3</ele>
        <time>2014-03-16T10:00:18Z</time>
      </trkpt>
      <trkpt lat="43.50155" lon="6.53883">
        <ele>222.5</ele>
        <time>2014-03-16T10:01:16Z</time>
      </trkpt>
      <trkpt lat="43.50159" lon="6.53872">
        <ele>221.7</ele>
        <time>2014-03-16T10:01:26Z</time>
      </trkpt>
      <trkpt lat="43.50159" lon="6.53871">
        <ele>221.9</ele>
        <time>2014-03-16T10:01:27Z</time>
      </trkpt>
      <trkpt lat="43.50167" lon="6.53852">
        <ele>220.6</ele>
        <time>2014-03-16T10:01:43Z</time>
      </trkpt>
      <trkpt lat="43.50172" lon="6.53844">
        <ele>219</ele>
        <time>2014-03-16T10:01:53Z</time>
      </trkpt>
      <trkpt lat="43.50181" lon="6.53841">
        <ele>220.9</ele>
        <time>2014-03-16T10:02:03Z</time>
      </trkpt>
      <trkpt lat="43.50189" lon="6.53847">
        <ele>222.5</ele>
        <time>2014-03-16T10:02:18Z</time>
      </trkpt>
      <trkpt lat="43.50195" lon="6.5384">
        <ele>224</ele>
        <time>2014-03-16T10:02:30Z</time>
      </trkpt>
      <trkpt lat="43.50195" lon="6.53838">
        <ele>223.9</ele>
        <time>2014-03-16T10:02:31Z</time>
      </trkpt>
      <trkpt lat="43.50203" lon="6.53821">
        <ele>222.9</ele>
        <time>2014-03-16T10:02:45Z</time>
      </trkpt>
      <trkpt lat="43.50209" lon="6.53812">
        <ele>222.7</ele>
        <time>2014-03-16T10:02:52Z</time>
      </trkpt>
      <trkpt lat="43.50211" lon="6.53801">
        <ele>223.5</ele>
        <time>2014-03-16T10:03:04Z</time>
      </trkpt>
      <trkpt lat="43.50218" lon="6.53793">
        <ele>222.2</ele>
        <time>2014-03-16T10:03:17Z</time>
      </trkpt>
      <trkpt lat="43.5022" lon="6.53783">
        <ele>221.1</ele>
        <time>2014-03-16T10:03:25Z</time>
      </trkpt>
      <trkpt lat="43.50224" lon="6.53773">
        <ele>221.5</ele>
        <time>2014-03-16T10:03:34Z</time>
      </trkpt>
      <trkpt lat="43.50224" lon="6.53772">
        <ele>221.7</ele>
        <time>2014-03-16T10:03:35Z</time>
      </trkpt>
      <trkpt lat="43.50229" lon="6.53752">
        <ele>221.1</ele>
        <time>2014-03-16T10:03:56Z</time>
      </trkpt>
      <trkpt lat="43.50232" lon="6.53741">
        <ele>222.1</ele>
        <time>2014-03-16T10:04:04Z</time>
      </trkpt>
      <trkpt lat="43.50235" lon="6.53731">
        <ele>220.2</ele>
        <time>2014-03-16T10:04:11Z</time>
      </trkpt>
      <trkpt lat="43.5024" lon="6.53722">
        <ele>219.6</ele>
        <time>2014-03-16T10:04:18Z</time>
      </trkpt>
      <trkpt lat="43.50242" lon="6.5371">
        <ele>219.6</ele>
        <time>2014-03-16T10:04:40Z</time>
      </trkpt>
      <trkpt lat="43.50243" lon="6.53709">
        <ele>219.7</ele>
        <time>2014-03-16T10:04:41Z</time>
      </trkpt>
      <trkpt lat="43.50247" lon="6.53688">
        <ele>217.9</ele>
        <time>2014-03-16T10:05:01Z</time>
      </trkpt>
      <trkpt lat="43.50247" lon="6.53678">
        <ele>217</ele>
        <time>2014-03-16T10:05:11Z</time>
      </trkpt>
      <trkpt lat="43.50243" lon="6.53667">
        <ele>216</ele>
        <time>2014-03-16T10:05:29Z</time>
      </trkpt>
      <trkpt lat="43.5024" lon="6.53655">
        <ele>213.3</ele>
        <time>2014-03-16T10:05:43Z</time>
      </trkpt>
      <trkpt lat="43.5024" lon="6.53654">
        <ele>213.3</ele>
        <time>2014-03-16T10:05:44Z</time>
      </trkpt>
      <trkpt lat="43.50229" lon="6.53641">
        <ele>210.2</ele>
        <time>2014-03-16T10:06:08Z</time>
      </trkpt>
      <trkpt lat="43.50221" lon="6.53642">
        <ele>210.2</ele>
        <time>2014-03-16T10:06:15Z</time>
      </trkpt>
      <trkpt lat="43.50212" lon="6.53643">
        <ele>208.5</ele>
        <time>2014-03-16T10:06:25Z</time>
      </trkpt>
      <trkpt lat="43.50204" lon="6.53645">
        <ele>206.8</ele>
        <time>2014-03-16T10:06:33Z</time>
      </trkpt>
      <trkpt lat="43.50196" lon="6.5364">
        <ele>205.9</ele>
        <time>2014-03-16T10:06:42Z</time>
      </trkpt>
      <trkpt lat="43.5019" lon="6.53631">
        <ele>207</ele>
        <time>2014-03-16T10:06:47Z</time>
      </trkpt>
      <trkpt lat="43.50189" lon="6.5363">
        <ele>206.9</ele>
        <time>2014-03-16T10:06:48Z</time>
      </trkpt>
      <trkpt lat="43.50192" lon="6.53607">
        <ele>207.3</ele>
        <time>2014-03-16T10:07:08Z</time>
      </trkpt>
      <trkpt lat="43.50197" lon="6.53597">
        <ele>205.1</ele>
        <time>2014-03-16T10:07:18Z</time>
      </trkpt>
      <trkpt lat="43.50204" lon="6.53591">
        <ele>203</ele>
        <time>2014-03-16T10:07:31Z</time>
      </trkpt>
      <trkpt lat="43.50208" lon="6.5358">
        <ele>201.4</ele>
        <time>2014-03-16T10:07:45Z</time>
      </trkpt>
      <trkpt lat="43.50214" lon="6.5357">
        <ele>200</ele>
        <time>2014-03-16T10:07:55Z</time>
      </trkpt>
      <trkpt lat="43.50214" lon="6.53569">
        <ele>199.9</ele>
        <time>2014-03-16T10:07:56Z</time>
      </trkpt>
      <trkpt lat="43.50226" lon="6.53552">
        <ele>197.3</ele>
        <time>2014-03-16T10:08:11Z</time>
      </trkpt>
      <trkpt lat="43.50233" lon="6.53546">
        <ele>194.8</ele>
        <time>2014-03-16T10:08:21Z</time>
      </trkpt>
      <trkpt lat="43.50237" lon="6.53538">
        <ele>193.8</ele>
        <time>2014-03-16T10:08:31Z</time>
      </trkpt>
      <trkpt lat="43.50243" lon="6.5353">
        <ele>192.6</ele>
        <time>2014-03-16T10:08:37Z</time>
      </trkpt>
      <trkpt lat="43.50248" lon="6.53521">
        <ele>191.2</ele>
        <time>2014-03-16T10:08:46Z</time>
      </trkpt>
      <trkpt lat="43.50248" lon="6.53509">
        <ele>191.3</ele>
        <time>2014-03-16T10:08:56Z</time>
      </trkpt>
      <trkpt lat="43.50249" lon="6.53509">
        <ele>190.8</ele>
        <time>2014-03-16T10:08:57Z</time>
      </trkpt>
      <trkpt lat="43.50263" lon="6.53498">
        <ele>185.5</ele>
        <time>2014-03-16T10:10:38Z</time>
      </trkpt>
      <trkpt lat="43.50265" lon="6.53497">
        <ele>185.9</ele>
        <time>2014-03-16T10:10:39Z</time>
      </trkpt>
      <trkpt lat="43.50279" lon="6.53489">
        <ele>184</ele>
        <time>2014-03-16T10:11:06Z</time>
      </trkpt>
      <trkpt lat="43.50284" lon="6.5348">
        <ele>183.2</ele>
        <time>2014-03-16T10:11:13Z</time>
      </trkpt>
      <trkpt lat="43.50292" lon="6.53474">
        <ele>181.4</ele>
        <time>2014-03-16T10:11:22Z</time>
      </trkpt>
      <trkpt lat="43.50299" lon="6.53468">
        <ele>179.5</ele>
        <time>2014-03-16T10:11:32Z</time>
      </trkpt>
      <trkpt lat="43.50307" lon="6.53469">
        <ele>179.3</ele>
        <time>2014-03-16T10:11:42Z</time>
      </trkpt>
      <trkpt lat="43.50308" lon="6.53469">
        <ele>179.1</ele>
        <time>2014-03-16T10:11:43Z</time>
      </trkpt>
      <trkpt lat="43.50298" lon="6.53453">
        <ele>176.7</ele>
        <time>2014-03-16T10:12:06Z</time>
      </trkpt>
      <trkpt lat="43.50292" lon="6.53449">
        <ele>175.8</ele>
        <time>2014-03-16T10:12:12Z</time>
      </trkpt>
      <trkpt lat="43.50283" lon="6.53445">
        <ele>176.5</ele>
        <time>2014-03-16T10:12:18Z</time>
      </trkpt>
      <trkpt lat="43.50275" lon="6.53441">
        <ele>174</ele>
        <time>2014-03-16T10:12:32Z</time>
      </trkpt>
      <trkpt lat="43.50276" lon="6.53429">
        <ele>170.5</ele>
        <time>2014-03-16T10:12:58Z</time>
      </trkpt>
      <trkpt lat="43.50277" lon="6.53428">
        <ele>170.6</ele>
        <time>2014-03-16T10:12:59Z</time>
      </trkpt>
      <trkpt lat="43.50272" lon="6.53406">
        <ele>167.8</ele>
        <time>2014-03-16T10:13:17Z</time>
      </trkpt>
      <trkpt lat="43.50272" lon="6.53394">
        <ele>165.5</ele>
        <time>2014-03-16T10:13:31Z</time>
      </trkpt>
      <trkpt lat="43.5027" lon="6.53383">
        <ele>164.4</ele>
        <time>2014-03-16T10:13:39Z</time>
      </trkpt>
      <trkpt lat="43.50266" lon="6.53374">
        <ele>162.4</ele>
        <time>2014-03-16T10:13:49Z</time>
      </trkpt>
      <trkpt lat="43.50261" lon="6.53365">
        <ele>161.5</ele>
        <time>2014-03-16T10:13:56Z</time>
      </trkpt>
      <trkpt lat="43.50254" lon="6.53358">
        <ele>161.6</ele>
        <time>2014-03-16T10:14:04Z</time>
      </trkpt>
      <trkpt lat="43.50253" lon="6.53357">
        <ele>161.3</ele>
        <time>2014-03-16T10:14:05Z</time>
      </trkpt>
      <trkpt lat="43.5025" lon="6.53335">
        <ele>159.7</ele>
        <time>2014-03-16T10:14:32Z</time>
      </trkpt>
      <trkpt lat="43.50249" lon="6.53324">
        <ele>158.2</ele>
        <time>2014-03-16T10:14:42Z</time>
      </trkpt>
      <trkpt lat="43.50243" lon="6.53317">
        <ele>157.5</ele>
        <time>2014-03-16T10:14:49Z</time>
      </trkpt>
      <trkpt lat="43.50236" lon="6.5331">
        <ele>158</ele>
        <time>2014-03-16T10:14:56Z</time>
      </trkpt>
      <trkpt lat="43.50234" lon="6.53299">
        <ele>156.6</ele>
        <time>2014-03-16T10:15:05Z</time>
      </trkpt>
      <trkpt lat="43.50234" lon="6.53298">
        <ele>156.2</ele>
        <time>2014-03-16T10:15:06Z</time>
      </trkpt>
      <trkpt lat="43.50245" lon="6.53282">
        <ele>157.3</ele>
        <time>2014-03-16T10:15:46Z</time>
      </trkpt>
      <trkpt lat="43.50251" lon="6.53274">
        <ele>157.5</ele>
        <time>2014-03-16T10:15:54Z</time>
      </trkpt>
      <trkpt lat="43.50259" lon="6.53267">
        <ele>157.8</ele>
        <time>2014-03-16T10:16:32Z</time>
      </trkpt>
      <trkpt lat="43.5026" lon="6.53267">
        <ele>157.8</ele>
        <time>2014-03-16T10:16:33Z</time>
      </trkpt>
      <trkpt lat="43.50272" lon="6.53255">
        <ele>157.8</ele>
        <time>2014-03-16T10:16:46Z</time>
      </trkpt>
      <trkpt lat="43.50279" lon="6.53247">
        <ele>157.7</ele>
        <time>2014-03-16T10:16:55Z</time>
      </trkpt>
      <trkpt lat="43.50286" lon="6.5324">
        <ele>159</ele>
        <time>2014-03-16T10:17:04Z</time>
      </trkpt>
      <trkpt lat="43.5029" lon="6.53232">
        <ele>158.9</ele>
        <time>2014-03-16T10:17:10Z</time>
      </trkpt>
      <trkpt lat="43.50295" lon="6.53221">
        <ele>160</ele>
        <time>2014-03-16T10:17:17Z</time>
      </trkpt>
      <trkpt lat="43.503" lon="6.53211">
        <ele>160.8</ele>
        <time>2014-03-16T10:17:25Z</time>
      </trkpt>
      <trkpt lat="43.50306" lon="6.53203">
        <ele>163.1</ele>
        <time>2014-03-16T10:17:39Z</time>
      </trkpt>
      <trkpt lat="43.50307" lon="6.53203">
        <ele>163.2</ele>
        <time>2014-03-16T10:17:40Z</time>
      </trkpt>
      <trkpt lat="43.50321" lon="6.5319">
        <ele>166.3</ele>
        <time>2014-03-16T10:18:20Z</time>
      </trkpt>
      <trkpt lat="43.50326" lon="6.53181">
        <ele>169.5</ele>
        <time>2014-03-16T10:18:38Z</time>
      </trkpt>
      <trkpt lat="43.50329" lon="6.53169">
        <ele>171.8</ele>
        <time>2014-03-16T10:18:55Z</time>
      </trkpt>
      <trkpt lat="43.50329" lon="6.53167">
        <ele>171.6</ele>
        <time>2014-03-16T10:18:56Z</time>
      </trkpt>
      <trkpt lat="43.50322" lon="6.53149">
        <ele>172.8</ele>
        <time>2014-03-16T10:19:14Z</time>
      </trkpt>
      <trkpt lat="43.50316" lon="6.53141">
        <ele>173.1</ele>
        <time>2014-03-16T10:19:21Z</time>
      </trkpt>
      <trkpt lat="43.5031" lon="6.53134">
        <ele>172.9</ele>
        <time>2014-03-16T10:19:27Z</time>
      </trkpt>
      <trkpt lat="43.50303" lon="6.53126">
        <ele>173</ele>
        <time>2014-03-16T10:19:34Z</time>
      </trkpt>
      <trkpt lat="43.50295" lon="6.5312">
        <ele>173.8</ele>
        <time>2014-03-16T10:19:43Z</time>
      </trkpt>
      <trkpt lat="43.50289" lon="6.53113">
        <ele>173.4</ele>
        <time>2014-03-16T10:19:53Z</time>
      </trkpt>
      <trkpt lat="43.50283" lon="6.53105">
        <ele>174.5</ele>
        <time>2014-03-16T10:20:01Z</time>
      </trkpt>
      <trkpt lat="43.50282" lon="6.53103">
        <ele>174.4</ele>
        <time>2014-03-16T10:20:02Z</time>
      </trkpt>
      <trkpt lat="43.50271" lon="6.53088">
        <ele>175.5</ele>
        <time>2014-03-16T10:20:18Z</time>
      </trkpt>
      <trkpt lat="43.50264" lon="6.5308">
        <ele>177</ele>
        <time>2014-03-16T10:20:28Z</time>
      </trkpt>
      <trkpt lat="43.50256" lon="6.53075">
        <ele>177.4</ele>
        <time>2014-03-16T10:20:40Z</time>
      </trkpt>
      <trkpt lat="43.5025" lon="6.53067">
        <ele>178.8</ele>
        <time>2014-03-16T10:20:49Z</time>
      </trkpt>
      <trkpt lat="43.50242" lon="6.53063">
        <ele>179.1</ele>
        <time>2014-03-16T10:20:58Z</time>
      </trkpt>
      <trkpt lat="43.50234" lon="6.53059">
        <ele>179.1</ele>
        <time>2014-03-16T10:21:05Z</time>
      </trkpt>
      <trkpt lat="43.50233" lon="6.53058">
        <ele>179.2</ele>
        <time>2014-03-16T10:21:06Z</time>
      </trkpt>
      <trkpt lat="43.50217" lon="6.53052">
        <ele>179.9</ele>
        <time>2014-03-16T10:21:22Z</time>
      </trkpt>
      <trkpt lat="43.5021" lon="6.53045">
        <ele>180.8</ele>
        <time>2014-03-16T10:21:31Z</time>
      </trkpt>
      <trkpt lat="43.50203" lon="6.53041">
        <ele>180.8</ele>
        <time>2014-03-16T10:21:37Z</time>
      </trkpt>
      <trkpt lat="43.50196" lon="6.53033">
        <ele>181.8</ele>
        <time>2014-03-16T10:21:45Z</time>
      </trkpt>
      <trkpt lat="43.50191" lon="6.53023">
        <ele>182.7</ele>
        <time>2014-03-16T10:21:53Z</time>
      </trkpt>
      <trkpt lat="43.50186" lon="6.53015">
        <ele>183.5</ele>
        <time>2014-03-16T10:22:05Z</time>
      </trkpt>
      <trkpt lat="43.5018" lon="6.53006">
        <ele>184.2</ele>
        <time>2014-03-16T10:22:15Z</time>
      </trkpt>
      <trkpt lat="43.50179" lon="6.53005">
        <ele>184.8</ele>
        <time>2014-03-16T10:22:16Z</time>
      </trkpt>
      <trkpt lat="43.50164" lon="6.52999">
        <ele>186.6</ele>
        <time>2014-03-16T10:22:30Z</time>
      </trkpt>
      <trkpt lat="43.50157" lon="6.52993">
        <ele>186.8</ele>
        <time>2014-03-16T10:22:39Z</time>
      </trkpt>
      <trkpt lat="43.50149" lon="6.5299">
        <ele>186.4</ele>
        <time>2014-03-16T10:22:48Z</time>
      </trkpt>
      <trkpt lat="43.50142" lon="6.52983">
        <ele>186.6</ele>
        <time>2014-03-16T10:22:55Z</time>
      </trkpt>
      <trkpt lat="43.50134" lon="6.52977">
        <ele>187.6</ele>
        <time>2014-03-16T10:23:00Z</time>
      </trkpt>
      <trkpt lat="43.50129" lon="6.52971">
        <ele>187.7</ele>
        <time>2014-03-16T10:23:07Z</time>
      </trkpt>
      <trkpt lat="43.50123" lon="6.52962">
        <ele>189.5</ele>
        <time>2014-03-16T10:23:16Z</time>
      </trkpt>
      <trkpt lat="43.50122" lon="6.52961">
        <ele>189.8</ele>
        <time>2014-03-16T10:23:17Z</time>
      </trkpt>
      <trkpt lat="43.50112" lon="6.52943">
        <ele>192.1</ele>
        <time>2014-03-16T10:23:33Z</time>
      </trkpt>
      <trkpt lat="43.50106" lon="6.52934">
        <ele>193.3</ele>
        <time>2014-03-16T10:23:42Z</time>
      </trkpt>
      <trkpt lat="43.501" lon="6.52926">
        <ele>193.7</ele>
        <time>2014-03-16T10:23:51Z</time>
      </trkpt>
      <trkpt lat="43.50095" lon="6.52916">
        <ele>194</ele>
        <time>2014-03-16T10:24:00Z</time>
      </trkpt>
      <trkpt lat="43.5009" lon="6.52906">
        <ele>195.3</ele>
        <time>2014-03-16T10:24:08Z</time>
      </trkpt>
      <trkpt lat="43.50086" lon="6.52897">
        <ele>196.7</ele>
        <time>2014-03-16T10:24:16Z</time>
      </trkpt>
      <trkpt lat="43.50082" lon="6.52886">
        <ele>197.7</ele>
        <time>2014-03-16T10:24:24Z</time>
      </trkpt>
      <trkpt lat="43.50082" lon="6.52885">
        <ele>197.7</ele>
        <time>2014-03-16T10:24:25Z</time>
      </trkpt>
      <trkpt lat="43.50071" lon="6.5287">
        <ele>199.2</ele>
        <time>2014-03-16T10:24:39Z</time>
      </trkpt>
      <trkpt lat="43.50068" lon="6.52859">
        <ele>198.9</ele>
        <time>2014-03-16T10:24:47Z</time>
      </trkpt>
      <trkpt lat="43.50063" lon="6.52849">
        <ele>199.7</ele>
        <time>2014-03-16T10:24:56Z</time>
      </trkpt>
      <trkpt lat="43.50057" lon="6.5284">
        <ele>201</ele>
        <time>2014-03-16T10:25:05Z</time>
      </trkpt>
      <trkpt lat="43.50053" lon="6.5283">
        <ele>201.5</ele>
        <time>2014-03-16T10:25:13Z</time>
      </trkpt>
      <trkpt lat="43.50048" lon="6.52821">
        <ele>202.6</ele>
        <time>2014-03-16T10:25:20Z</time>
      </trkpt>
      <trkpt lat="43.50043" lon="6.52812">
        <ele>203</ele>
        <time>2014-03-16T10:25:30Z</time>
      </trkpt>
      <trkpt lat="43.50043" lon="6.52811">
        <ele>203.2</ele>
        <time>2014-03-16T10:25:31Z</time>
      </trkpt>
      <trkpt lat="43.50038" lon="6.5281">
        <ele>202.4</ele>
        <time>2014-03-16T10:27:34Z</time>
      </trkpt>
      <trkpt lat="43.50037" lon="6.5281">
        <ele>202.5</ele>
        <time>2014-03-16T10:27:35Z</time>
      </trkpt>
      <trkpt lat="43.50038" lon="6.52797">
        <ele>201.1</ele>
        <time>2014-03-16T10:29:15Z</time>
      </trkpt>
      <trkpt lat="43.50042" lon="6.52809">
        <ele>201.2</ele>
        <time>2014-03-16T10:30:39Z</time>
      </trkpt>
      <trkpt lat="43.50038" lon="6.52806">
        <ele>201</ele>
        <time>2014-03-16T10:31:16Z</time>
      </trkpt>
      <trkpt lat="43.50045" lon="6.52799">
        <ele>200.5</ele>
        <time>2014-03-16T10:38:26Z</time>
      </trkpt>
      <trkpt lat="43.50045" lon="6.52798">
        <ele>200.3</ele>
        <time>2014-03-16T10:38:27Z</time>
      </trkpt>
      <trkpt lat="43.50039" lon="6.52812">
        <ele>200.4</ele>
        <time>2014-03-16T10:40:00Z</time>
      </trkpt>
      <trkpt lat="43.50039" lon="6.52812">
        <ele>200.4</ele>
        <time>2014-03-16T10:40:01Z</time>
      </trkpt>
      <trkpt lat="43.50044" lon="6.52801">
        <ele>199.7</ele>
        <time>2014-03-16T10:41:55Z</time>
      </trkpt>
      <trkpt lat="43.50039" lon="6.52813">
        <ele>201.2</ele>
        <time>2014-03-16T10:43:39Z</time>
      </trkpt>
      <trkpt lat="43.5004" lon="6.52813">
        <ele>201.3</ele>
        <time>2014-03-16T10:44:11Z</time>
      </trkpt>
      <trkpt lat="43.50034" lon="6.52804">
        <ele>201.6</ele>
        <time>2014-03-16T10:44:49Z</time>
      </trkpt>
      <trkpt lat="43.50034" lon="6.52804">
        <ele>201.5</ele>
        <time>2014-03-16T10:44:50Z</time>
      </trkpt>
      <trkpt lat="43.5005" lon="6.52792">
        <ele>204.3</ele>
        <time>2014-03-16T10:47:07Z</time>
      </trkpt>
      <trkpt lat="43.5005" lon="6.52792">
        <ele>203.9</ele>
        <time>2014-03-16T10:47:08Z</time>
      </trkpt>
      <trkpt lat="43.5004" lon="6.5281">
        <ele>205.3</ele>
        <time>2014-03-16T10:48:32Z</time>
      </trkpt>
      <trkpt lat="43.50038" lon="6.52813">
        <ele>205.4</ele>
        <time>2014-03-16T10:48:33Z</time>
      </trkpt>
      <trkpt lat="43.50039" lon="6.52809">
        <ele>205.2</ele>
        <time>2014-03-16T10:49:01Z</time>
      </trkpt>
      <trkpt lat="43.50047" lon="6.52802">
        <ele>206.4</ele>
        <time>2014-03-16T10:49:54Z</time>
      </trkpt>
      <trkpt lat="43.50047" lon="6.52801">
        <ele>206.4</ele>
        <time>2014-03-16T10:49:55Z</time>
      </trkpt>
      <trkpt lat="43.50033" lon="6.52817">
        <ele>207.3</ele>
        <time>2014-03-16T10:51:17Z</time>
      </trkpt>
      <trkpt lat="43.50033" lon="6.52817">
        <ele>207.2</ele>
        <time>2014-03-16T10:51:18Z</time>
      </trkpt>
      <trkpt lat="43.50032" lon="6.52817">
        <ele>207.2</ele>
        <time>2014-03-16T10:52:19Z</time>
      </trkpt>
      <trkpt lat="43.50032" lon="6.52819">
        <ele>207.3</ele>
        <time>2014-03-16T10:52:20Z</time>
      </trkpt>
      <trkpt lat="43.50044" lon="6.528">
        <ele>208.4</ele>
        <time>2014-03-16T10:53:36Z</time>
      </trkpt>
      <trkpt lat="43.50045" lon="6.528">
        <ele>208.4</ele>
        <time>2014-03-16T10:53:37Z</time>
      </trkpt>
      <trkpt lat="43.50033" lon="6.52819">
        <ele>209.3</ele>
        <time>2014-03-16T10:55:42Z</time>
      </trkpt>
      <trkpt lat="43.50033" lon="6.5282">
        <ele>209.3</ele>
        <time>2014-03-16T10:55:43Z</time>
      </trkpt>
      <trkpt lat="43.50032" lon="6.52817">
        <ele>209.8</ele>
        <time>2014-03-16T10:56:38Z</time>
      </trkpt>
      <trkpt lat="43.5004" lon="6.52813">
        <ele>211.5</ele>
        <time>2014-03-16T10:57:14Z</time>
      </trkpt>
      <trkpt lat="43.5004" lon="6.52813">
        <ele>211.3</ele>
        <time>2014-03-16T10:57:15Z</time>
      </trkpt>
      <trkpt lat="43.50039" lon="6.52814">
        <ele>210.8</ele>
        <time>2014-03-16T10:58:12Z</time>
      </trkpt>
      <trkpt lat="43.50042" lon="6.52803">
        <ele>210.7</ele>
        <time>2014-03-16T10:58:18Z</time>
      </trkpt>
      <trkpt lat="43.50042" lon="6.52802">
        <ele>210.7</ele>
        <time>2014-03-16T10:58:19Z</time>
      </trkpt>
      <trkpt lat="43.50034" lon="6.52811">
        <ele>211.9</ele>
        <time>2014-03-16T11:00:32Z</time>
      </trkpt>
      <trkpt lat="43.50037" lon="6.52811">
        <ele>212.1</ele>
        <time>2014-03-16T11:01:26Z</time>
      </trkpt>
      <trkpt lat="43.50031" lon="6.52819">
        <ele>212.4</ele>
        <time>2014-03-16T11:01:32Z</time>
      </trkpt>
      <trkpt lat="43.50035" lon="6.52809">
        <ele>213.1</ele>
        <time>2014-03-16T11:02:21Z</time>
      </trkpt>
      <trkpt lat="43.50036" lon="6.52807">
        <ele>213.5</ele>
        <time>2014-03-16T11:02:22Z</time>
      </trkpt>
      <trkpt lat="43.50033" lon="6.52807">
        <ele>214.9</ele>
        <time>2014-03-16T11:04:10Z</time>
      </trkpt>
      <trkpt lat="43.50033" lon="6.52808">
        <ele>214.9</ele>
        <time>2014-03-16T11:04:11Z</time>
      </trkpt>
      <trkpt lat="43.50048" lon="6.52797">
        <ele>215.2</ele>
        <time>2014-03-16T11:06:38Z</time>
      </trkpt>
      <trkpt lat="43.50048" lon="6.52797">
        <ele>215</ele>
        <time>2014-03-16T11:06:39Z</time>
      </trkpt>
      <trkpt lat="43.50034" lon="6.52812">
        <ele>216.4</ele>
        <time>2014-03-16T11:07:29Z</time>
      </trkpt>
      <trkpt lat="43.50028" lon="6.52819">
        <ele>215</ele>
        <time>2014-03-16T11:07:38Z</time>
      </trkpt>
      <trkpt lat="43.50033" lon="6.52813">
        <ele>215.5</ele>
        <time>2014-03-16T11:08:04Z</time>
      </trkpt>
      <trkpt lat="43.50035" lon="6.5281">
        <ele>215.5</ele>
        <time>2014-03-16T11:08:05Z</time>
      </trkpt>
      <trkpt lat="43.50046" lon="6.52797">
        <ele>216.2</ele>
        <time>2014-03-16T11:09:07Z</time>
      </trkpt>
      <trkpt lat="43.50046" lon="6.52796">
        <ele>216.4</ele>
        <time>2014-03-16T11:09:08Z</time>
      </trkpt>
      <trkpt lat="43.50044" lon="6.52797">
        <ele>217.8</ele>
        <time>2014-03-16T11:10:08Z</time>
      </trkpt>
      <trkpt lat="43.50048" lon="6.52791">
        <ele>217.9</ele>
        <time>2014-03-16T11:10:09Z</time>
      </trkpt>
      <trkpt lat="43.50055" lon="6.5278">
        <ele>218</ele>
        <time>2014-03-16T11:10:19Z</time>
      </trkpt>
      <trkpt lat="43.50051" lon="6.5279">
        <ele>218.2</ele>
        <time>2014-03-16T11:10:28Z</time>
      </trkpt>
      <trkpt lat="43.50045" lon="6.52799">
        <ele>218.3</ele>
        <time>2014-03-16T11:10:43Z</time>
      </trkpt>
      <trkpt lat="43.50037" lon="6.52805">
        <ele>216.9</ele>
        <time>2014-03-16T11:11:34Z</time>
      </trkpt>
      <trkpt lat="43.50037" lon="6.52806">
        <ele>217.2</ele>
        <time>2014-03-16T11:11:35Z</time>
      </trkpt>
      <trkpt lat="43.50026" lon="6.52818">
        <ele>216.1</ele>
        <time>2014-03-16T11:12:04Z</time>
      </trkpt>
      <trkpt lat="43.50034" lon="6.52813">
        <ele>216.9</ele>
        <time>2014-03-16T11:12:24Z</time>
      </trkpt>
      <trkpt lat="43.50037" lon="6.52804">
        <ele>215.9</ele>
        <time>2014-03-16T11:13:09Z</time>
      </trkpt>
      <trkpt lat="43.50038" lon="6.52801">
        <ele>215.8</ele>
        <time>2014-03-16T11:13:10Z</time>
      </trkpt>
      <trkpt lat="43.50031" lon="6.52813">
        <ele>216.5</ele>
        <time>2014-03-16T11:14:59Z</time>
      </trkpt>
      <trkpt lat="43.50032" lon="6.52811">
        <ele>216.3</ele>
        <time>2014-03-16T11:17:52Z</time>
      </trkpt>
      <trkpt lat="43.50031" lon="6.5281">
        <ele>216.3</ele>
        <time>2014-03-16T11:17:53Z</time>
      </trkpt>
      <trkpt lat="43.50035" lon="6.52799">
        <ele>217.1</ele>
        <time>2014-03-16T11:19:17Z</time>
      </trkpt>
      <trkpt lat="43.5003" lon="6.52789">
        <ele>217.6</ele>
        <time>2014-03-16T11:23:14Z</time>
      </trkpt>
      <trkpt lat="43.50035" lon="6.52801">
        <ele>217.5</ele>
        <time>2014-03-16T11:24:27Z</time>
      </trkpt>
      <trkpt lat="43.50041" lon="6.52793">
        <ele>219.6</ele>
        <time>2014-03-16T11:25:34Z</time>
      </trkpt>
      <trkpt lat="43.50025" lon="6.52804">
        <ele>219.4</ele>
        <time>2014-03-16T11:27:03Z</time>
      </trkpt>
      <trkpt lat="43.50025" lon="6.52803">
        <ele>219.2</ele>
        <time>2014-03-16T11:27:04Z</time>
      </trkpt>
      <trkpt lat="43.50035" lon="6.52804">
        <ele>219.7</ele>
        <time>2014-03-16T11:27:52Z</time>
      </trkpt>
      <trkpt lat="43.50043" lon="6.52799">
        <ele>219.8</ele>
        <time>2014-03-16T11:30:03Z</time>
      </trkpt>
      <trkpt lat="43.50043" lon="6.52799">
        <ele>219.7</ele>
        <time>2014-03-16T11:30:04Z</time>
      </trkpt>
      <trkpt lat="43.50034" lon="6.52803">
        <ele>219.5</ele>
        <time>2014-03-16T11:31:37Z</time>
      </trkpt>
      <trkpt lat="43.5003" lon="6.52782">
        <ele>218.6</ele>
        <time>2014-03-16T11:32:40Z</time>
      </trkpt>
      <trkpt lat="43.50029" lon="6.52781">
        <ele>218.6</ele>
        <time>2014-03-16T11:32:41Z</time>
      </trkpt>
      <trkpt lat="43.50019" lon="6.52765">
        <ele>217.5</ele>
        <time>2014-03-16T11:32:57Z</time>
      </trkpt>
      <trkpt lat="43.50014" lon="6.52756">
        <ele>216.9</ele>
        <time>2014-03-16T11:33:04Z</time>
      </trkpt>
      <trkpt lat="43.50007" lon="6.52748">
        <ele>216.8</ele>
        <time>2014-03-16T11:33:12Z</time>
      </trkpt>
      <trkpt lat="43.5" lon="6.52743">
        <ele>215.4</ele>
        <time>2014-03-16T11:33:20Z</time>
      </trkpt>
      <trkpt lat="43.49993" lon="6.52736">
        <ele>214.7</ele>
        <time>2014-03-16T11:33:27Z</time>
      </trkpt>
      <trkpt lat="43.49987" lon="6.52728">
        <ele>214.6</ele>
        <time>2014-03-16T11:33:37Z</time>
      </trkpt>
      <trkpt lat="43.49981" lon="6.5272">
        <ele>213.8</ele>
        <time>2014-03-16T11:33:46Z</time>
      </trkpt>
      <trkpt lat="43.4998" lon="6.52718">
        <ele>213.8</ele>
        <time>2014-03-16T11:33:47Z</time>
      </trkpt>
      <trkpt lat="43.49969" lon="6.52702">
        <ele>210.3</ele>
        <time>2014-03-16T11:34:12Z</time>
      </trkpt>
      <trkpt lat="43.49964" lon="6.52692">
        <ele>209</ele>
        <time>2014-03-16T11:34:24Z</time>
      </trkpt>
      <trkpt lat="43.49957" lon="6.52687">
        <ele>207.3</ele>
        <time>2014-03-16T11:34:34Z</time>
      </trkpt>
      <trkpt lat="43.49951" lon="6.52679">
        <ele>205.3</ele>
        <time>2014-03-16T11:34:48Z</time>
      </trkpt>
      <trkpt lat="43.4995" lon="6.52678">
        <ele>205.3</ele>
        <time>2014-03-16T11:34:49Z</time>
      </trkpt>
      <trkpt lat="43.49942" lon="6.52659">
        <ele>202.7</ele>
        <time>2014-03-16T11:35:30Z</time>
      </trkpt>
      <trkpt lat="43.49933" lon="6.52656">
        <ele>200</ele>
        <time>2014-03-16T11:35:46Z</time>
      </trkpt>
      <trkpt lat="43.49926" lon="6.52649">
        <ele>199.2</ele>
        <time>2014-03-16T11:35:55Z</time>
      </trkpt>
      <trkpt lat="43.49926" lon="6.52648">
        <ele>199.2</ele>
        <time>2014-03-16T11:35:56Z</time>
      </trkpt>
      <trkpt lat="43.49913" lon="6.52635">
        <ele>197.2</ele>
        <time>2014-03-16T11:36:12Z</time>
      </trkpt>
      <trkpt lat="43.49906" lon="6.52627">
        <ele>196</ele>
        <time>2014-03-16T11:36:20Z</time>
      </trkpt>
      <trkpt lat="43.49899" lon="6.52624">
        <ele>195</ele>
        <time>2014-03-16T11:36:28Z</time>
      </trkpt>
      <trkpt lat="43.49891" lon="6.52619">
        <ele>192.6</ele>
        <time>2014-03-16T11:36:37Z</time>
      </trkpt>
      <trkpt lat="43.49884" lon="6.52611">
        <ele>190.5</ele>
        <time>2014-03-16T11:36:46Z</time>
      </trkpt>
      <trkpt lat="43.49875" lon="6.52609">
        <ele>187.9</ele>
        <time>2014-03-16T11:37:04Z</time>
      </trkpt>
      <trkpt lat="43.49875" lon="6.52609">
        <ele>187.6</ele>
        <time>2014-03-16T11:37:05Z</time>
      </trkpt>
      <trkpt lat="43.49861" lon="6.52597">
        <ele>182.1</ele>
        <time>2014-03-16T11:37:29Z</time>
      </trkpt>
      <trkpt lat="43.49854" lon="6.52591">
        <ele>179.8</ele>
        <time>2014-03-16T11:37:41Z</time>
      </trkpt>
      <trkpt lat="43.49847" lon="6.52584">
        <ele>178.2</ele>
        <time>2014-03-16T11:37:51Z</time>
      </trkpt>
      <trkpt lat="43.49839" lon="6.52578">
        <ele>176</ele>
        <time>2014-03-16T11:38:11Z</time>
      </trkpt>
      <trkpt lat="43.49839" lon="6.52578">
        <ele>175.9</ele>
        <time>2014-03-16T11:38:12Z</time>
      </trkpt>
      <trkpt lat="43.49824" lon="6.52583">
        <ele>172.8</ele>
        <time>2014-03-16T11:39:10Z</time>
      </trkpt>
      <trkpt lat="43.49817" lon="6.52592">
        <ele>172.3</ele>
        <time>2014-03-16T11:39:21Z</time>
      </trkpt>
      <trkpt lat="43.49817" lon="6.52593">
        <ele>172.2</ele>
        <time>2014-03-16T11:39:22Z</time>
      </trkpt>
      <trkpt lat="43.49817" lon="6.52615">
        <ele>169.3</ele>
        <time>2014-03-16T11:39:53Z</time>
      </trkpt>
      <trkpt lat="43.49818" lon="6.52625">
        <ele>168.5</ele>
        <time>2014-03-16T11:40:00Z</time>
      </trkpt>
      <trkpt lat="43.49817" lon="6.52637">
        <ele>168.6</ele>
        <time>2014-03-16T11:40:05Z</time>
      </trkpt>
      <trkpt lat="43.4982" lon="6.52648">
        <ele>168.3</ele>
        <time>2014-03-16T11:40:12Z</time>
      </trkpt>
      <trkpt lat="43.49825" lon="6.52658">
        <ele>167.1</ele>
        <time>2014-03-16T11:40:20Z</time>
      </trkpt>
      <trkpt lat="43.49831" lon="6.52665">
        <ele>166.1</ele>
        <time>2014-03-16T11:40:32Z</time>
      </trkpt>
      <trkpt lat="43.49832" lon="6.52665">
        <ele>166</ele>
        <time>2014-03-16T11:40:33Z</time>
      </trkpt>
      <trkpt lat="43.49838" lon="6.52678">
        <ele>164</ele>
        <time>2014-03-16T11:41:00Z</time>
      </trkpt>
      <trkpt lat="43.49834" lon="6.52688">
        <ele>162.4</ele>
        <time>2014-03-16T11:41:22Z</time>
      </trkpt>
      <trkpt lat="43.49839" lon="6.52698">
        <ele>162</ele>
        <time>2014-03-16T11:41:31Z</time>
      </trkpt>
      <trkpt lat="43.49845" lon="6.52706">
        <ele>160.6</ele>
        <time>2014-03-16T11:41:42Z</time>
      </trkpt>
      <trkpt lat="43.49846" lon="6.52706">
        <ele>160.4</ele>
        <time>2014-03-16T11:41:43Z</time>
      </trkpt>
      <trkpt lat="43.49855" lon="6.52721">
        <ele>159</ele>
        <time>2014-03-16T11:41:53Z</time>
      </trkpt>
      <trkpt lat="43.49858" lon="6.52731">
        <ele>158.4</ele>
        <time>2014-03-16T11:42:00Z</time>
      </trkpt>
      <trkpt lat="43.49863" lon="6.52741">
        <ele>158.3</ele>
        <time>2014-03-16T11:42:07Z</time>
      </trkpt>
      <trkpt lat="43.49867" lon="6.52752">
        <ele>157.5</ele>
        <time>2014-03-16T11:42:15Z</time>
      </trkpt>
      <trkpt lat="43.49865" lon="6.52764">
        <ele>157.3</ele>
        <time>2014-03-16T11:42:22Z</time>
      </trkpt>
      <trkpt lat="43.49868" lon="6.52773">
        <ele>156.8</ele>
        <time>2014-03-16T11:42:27Z</time>
      </trkpt>
      <trkpt lat="43.49867" lon="6.52784">
        <ele>156.8</ele>
        <time>2014-03-16T11:42:35Z</time>
      </trkpt>
      <trkpt lat="43.49869" lon="6.52796">
        <ele>156.4</ele>
        <time>2014-03-16T11:42:40Z</time>
      </trkpt>
      <trkpt lat="43.49873" lon="6.52805">
        <ele>156.2</ele>
        <time>2014-03-16T11:42:47Z</time>
      </trkpt>
      <trkpt lat="43.49873" lon="6.52808">
        <ele>156.2</ele>
        <time>2014-03-16T11:42:48Z</time>
      </trkpt>
      <trkpt lat="43.4988" lon="6.52827">
        <ele>154.6</ele>
        <time>2014-03-16T11:43:07Z</time>
      </trkpt>
      <trkpt lat="43.49875" lon="6.52817">
        <ele>150.7</ele>
        <time>2014-03-16T11:43:42Z</time>
      </trkpt>
      <trkpt lat="43.4987" lon="6.52808">
        <ele>148.6</ele>
        <time>2014-03-16T11:43:52Z</time>
      </trkpt>
      <trkpt lat="43.49869" lon="6.52807">
        <ele>148.3</ele>
        <time>2014-03-16T11:43:53Z</time>
      </trkpt>
      <trkpt lat="43.49858" lon="6.52791">
        <ele>146.3</ele>
        <time>2014-03-16T11:44:08Z</time>
      </trkpt>
      <trkpt lat="43.49853" lon="6.52784">
        <ele>145.8</ele>
        <time>2014-03-16T11:44:14Z</time>
      </trkpt>
      <trkpt lat="43.49847" lon="6.52775">
        <ele>144.2</ele>
        <time>2014-03-16T11:44:21Z</time>
      </trkpt>
      <trkpt lat="43.49844" lon="6.52764">
        <ele>142.5</ele>
        <time>2014-03-16T11:44:30Z</time>
      </trkpt>
      <trkpt lat="43.49836" lon="6.5276">
        <ele>142.1</ele>
        <time>2014-03-16T11:44:36Z</time>
      </trkpt>
      <trkpt lat="43.49829" lon="6.52756">
        <ele>141.1</ele>
        <time>2014-03-16T11:44:41Z</time>
      </trkpt>
      <trkpt lat="43.49821" lon="6.52751">
        <ele>138.6</ele>
        <time>2014-03-16T11:44:53Z</time>
      </trkpt>
      <trkpt lat="43.49821" lon="6.5275">
        <ele>138.4</ele>
        <time>2014-03-16T11:44:54Z</time>
      </trkpt>
      <trkpt lat="43.49809" lon="6.52734">
        <ele>136.9</ele>
        <time>2014-03-16T11:45:14Z</time>
      </trkpt>
      <trkpt lat="43.49803" lon="6.52725">
        <ele>136.2</ele>
        <time>2014-03-16T11:45:29Z</time>
      </trkpt>
      <trkpt lat="43.49796" lon="6.52724">
        <ele>135.9</ele>
        <time>2014-03-16T11:45:33Z</time>
      </trkpt>
      <trkpt lat="43.49788" lon="6.52721">
        <ele>135.5</ele>
        <time>2014-03-16T11:45:38Z</time>
      </trkpt>
      <trkpt lat="43.49788" lon="6.52709">
        <ele>135.5</ele>
        <time>2014-03-16T11:45:46Z</time>
      </trkpt>
      <trkpt lat="43.49784" lon="6.52699">
        <ele>134.2</ele>
        <time>2014-03-16T11:45:54Z</time>
      </trkpt>
      <trkpt lat="43.49784" lon="6.52698">
        <ele>134.6</ele>
        <time>2014-03-16T11:45:55Z</time>
      </trkpt>
      <trkpt lat="43.49772" lon="6.52686">
        <ele>134.2</ele>
        <time>2014-03-16T11:47:35Z</time>
      </trkpt>
      <trkpt lat="43.49772" lon="6.52684">
        <ele>134.2</ele>
        <time>2014-03-16T11:47:36Z</time>
      </trkpt>
      <trkpt lat="43.49767" lon="6.52665">
        <ele>133.2</ele>
        <time>2014-03-16T11:47:48Z</time>
      </trkpt>
      <trkpt lat="43.49762" lon="6.52657">
        <ele>133.6</ele>
        <time>2014-03-16T11:47:53Z</time>
      </trkpt>
      <trkpt lat="43.49761" lon="6.52647">
        <ele>132.9</ele>
        <time>2014-03-16T11:47:58Z</time>
      </trkpt>
      <trkpt lat="43.49758" lon="6.52637">
        <ele>131.7</ele>
        <time>2014-03-16T11:48:10Z</time>
      </trkpt>
      <trkpt lat="43.49754" lon="6.52626">
        <ele>130.4</ele>
        <time>2014-03-16T11:48:16Z</time>
      </trkpt>
      <trkpt lat="43.49752" lon="6.52615">
        <ele>129.6</ele>
        <time>2014-03-16T11:48:23Z</time>
      </trkpt>
      <trkpt lat="43.4975" lon="6.52604">
        <ele>128.8</ele>
        <time>2014-03-16T11:48:33Z</time>
      </trkpt>
      <trkpt lat="43.49749" lon="6.52592">
        <ele>127.7</ele>
        <time>2014-03-16T11:48:42Z</time>
      </trkpt>
      <trkpt lat="43.49748" lon="6.52591">
        <ele>127.8</ele>
        <time>2014-03-16T11:48:43Z</time>
      </trkpt>
      <trkpt lat="43.4974" lon="6.52573">
        <ele>125.7</ele>
        <time>2014-03-16T11:48:59Z</time>
      </trkpt>
      <trkpt lat="43.49738" lon="6.52561">
        <ele>124.3</ele>
        <time>2014-03-16T11:49:10Z</time>
      </trkpt>
      <trkpt lat="43.4974" lon="6.52549">
        <ele>124.2</ele>
        <time>2014-03-16T11:49:18Z</time>
      </trkpt>
      <trkpt lat="43.49742" lon="6.52537">
        <ele>123.6</ele>
        <time>2014-03-16T11:49:35Z</time>
      </trkpt>
      <trkpt lat="43.49742" lon="6.52526">
        <ele>123.4</ele>
        <time>2014-03-16T11:49:43Z</time>
      </trkpt>
      <trkpt lat="43.49742" lon="6.52525">
        <ele>123.3</ele>
        <time>2014-03-16T11:49:44Z</time>
      </trkpt>
      <trkpt lat="43.49735" lon="6.52505">
        <ele>123</ele>
        <time>2014-03-16T11:49:59Z</time>
      </trkpt>
      <trkpt lat="43.49733" lon="6.52494">
        <ele>121.6</ele>
        <time>2014-03-16T11:50:08Z</time>
      </trkpt>
      <trkpt lat="43.49724" lon="6.52492">
        <ele>121.5</ele>
        <time>2014-03-16T11:50:36Z</time>
      </trkpt>
      <trkpt lat="43.49722" lon="6.52481">
        <ele>120.9</ele>
        <time>2014-03-16T11:50:44Z</time>
      </trkpt>
      <trkpt lat="43.49721" lon="6.52479">
        <ele>120.8</ele>
        <time>2014-03-16T11:50:45Z</time>
      </trkpt>
      <trkpt lat="43.49715" lon="6.52461">
        <ele>119.8</ele>
        <time>2014-03-16T11:50:57Z</time>
      </trkpt>
      <trkpt lat="43.49712" lon="6.5245">
        <ele>119.6</ele>
        <time>2014-03-16T11:51:05Z</time>
      </trkpt>
      <trkpt lat="43.4971" lon="6.5244">
        <ele>119.4</ele>
        <time>2014-03-16T11:51:11Z</time>
      </trkpt>
      <trkpt lat="43.49705" lon="6.5243">
        <ele>118.2</ele>
        <time>2014-03-16T11:51:19Z</time>
      </trkpt>
      <trkpt lat="43.49699" lon="6.52421">
        <ele>117.9</ele>
        <time>2014-03-16T11:51:27Z</time>
      </trkpt>
      <trkpt lat="43.49697" lon="6.5241">
        <ele>116.8</ele>
        <time>2014-03-16T11:51:35Z</time>
      </trkpt>
      <trkpt lat="43.49696" lon="6.52399">
        <ele>116.3</ele>
        <time>2014-03-16T11:51:41Z</time>
      </trkpt>
      <trkpt lat="43.49692" lon="6.52388">
        <ele>115.6</ele>
        <time>2014-03-16T11:51:50Z</time>
      </trkpt>
      <trkpt lat="43.49692" lon="6.52387">
        <ele>115.4</ele>
        <time>2014-03-16T11:51:51Z</time>
      </trkpt>
      <trkpt lat="43.49688" lon="6.52367">
        <ele>111.8</ele>
        <time>2014-03-16T11:52:08Z</time>
      </trkpt>
      <trkpt lat="43.49686" lon="6.52355">
        <ele>110.3</ele>
        <time>2014-03-16T11:52:17Z</time>
      </trkpt>
      <trkpt lat="43.49682" lon="6.52344">
        <ele>109.6</ele>
        <time>2014-03-16T11:52:25Z</time>
      </trkpt>
      <trkpt lat="43.49678" lon="6.52334">
        <ele>109.2</ele>
        <time>2014-03-16T11:52:35Z</time>
      </trkpt>
      <trkpt lat="43.49672" lon="6.52327">
        <ele>108.5</ele>
        <time>2014-03-16T11:52:44Z</time>
      </trkpt>
      <trkpt lat="43.49667" lon="6.52317">
        <ele>107.2</ele>
        <time>2014-03-16T11:52:53Z</time>
      </trkpt>
      <trkpt lat="43.49667" lon="6.52316">
        <ele>107.1</ele>
        <time>2014-03-16T11:52:54Z</time>
      </trkpt>
      <trkpt lat="43.49661" lon="6.52294">
        <ele>106.2</ele>
        <time>2014-03-16T11:53:13Z</time>
      </trkpt>
      <trkpt lat="43.49657" lon="6.52286">
        <ele>105.6</ele>
        <time>2014-03-16T11:53:19Z</time>
      </trkpt>
      <trkpt lat="43.49654" lon="6.52276">
        <ele>105.2</ele>
        <time>2014-03-16T11:53:26Z</time>
      </trkpt>
      <trkpt lat="43.49651" lon="6.52265">
        <ele>104.8</ele>
        <time>2014-03-16T11:53:33Z</time>
      </trkpt>
      <trkpt lat="43.49646" lon="6.52255">
        <ele>105.1</ele>
        <time>2014-03-16T11:53:40Z</time>
      </trkpt>
      <trkpt lat="43.49643" lon="6.52244">
        <ele>103.8</ele>
        <time>2014-03-16T11:53:49Z</time>
      </trkpt>
      <trkpt lat="43.49638" lon="6.52234">
        <ele>103.5</ele>
        <time>2014-03-16T11:53:59Z</time>
      </trkpt>
      <trkpt lat="43.49638" lon="6.52232">
        <ele>103.9</ele>
        <time>2014-03-16T11:54:00Z</time>
      </trkpt>
      <trkpt lat="43.49631" lon="6.52213">
        <ele>102.9</ele>
        <time>2014-03-16T11:54:15Z</time>
      </trkpt>
      <trkpt lat="43.49627" lon="6.52203">
        <ele>102.3</ele>
        <time>2014-03-16T11:54:23Z</time>
      </trkpt>
      <trkpt lat="43.49625" lon="6.52191">
        <ele>101.8</ele>
        <time>2014-03-16T11:54:31Z</time>
      </trkpt>
      <trkpt lat="43.49618" lon="6.52185">
        <ele>101.7</ele>
        <time>2014-03-16T11:54:37Z</time>
      </trkpt>
      <trkpt lat="43.49615" lon="6.52174">
        <ele>101.6</ele>
        <time>2014-03-16T11:54:51Z</time>
      </trkpt>
      <trkpt lat="43.49608" lon="6.52167">
        <ele>100.6</ele>
        <time>2014-03-16T11:55:01Z</time>
      </trkpt>
      <trkpt lat="43.49607" lon="6.52166">
        <ele>100.4</ele>
        <time>2014-03-16T11:55:02Z</time>
      </trkpt>
      <trkpt lat="43.49592" lon="6.52167">
        <ele>100.7</ele>
        <time>2014-03-16T11:55:28Z</time>
      </trkpt>
      <trkpt lat="43.49585" lon="6.52173">
        <ele>101.2</ele>
        <time>2014-03-16T11:55:36Z</time>
      </trkpt>
      <trkpt lat="43.4958" lon="6.52183">
        <ele>100.8</ele>
        <time>2014-03-16T11:55:46Z</time>
      </trkpt>
      <trkpt lat="43.49572" lon="6.52187">
        <ele>99.6</ele>
        <time>2014-03-16T11:55:54Z</time>
      </trkpt>
      <trkpt lat="43.49565" lon="6.52192">
        <ele>98.6</ele>
        <time>2014-03-16T11:56:03Z</time>
      </trkpt>
      <trkpt lat="43.49564" lon="6.52192">
        <ele>98.7</ele>
        <time>2014-03-16T11:56:04Z</time>
      </trkpt>
      <trkpt lat="43.49549" lon="6.52197">
        <ele>97.8</ele>
        <time>2014-03-16T11:56:20Z</time>
      </trkpt>
      <trkpt lat="43.49543" lon="6.52205">
        <ele>97.9</ele>
        <time>2014-03-16T11:56:26Z</time>
      </trkpt>
      <trkpt lat="43.49537" lon="6.52212">
        <ele>97.1</ele>
        <time>2014-03-16T11:56:34Z</time>
      </trkpt>
      <trkpt lat="43.4953" lon="6.52219">
        <ele>96.6</ele>
        <time>2014-03-16T11:56:42Z</time>
      </trkpt>
      <trkpt lat="43.49526" lon="6.52227">
        <ele>96.5</ele>
        <time>2014-03-16T11:56:49Z</time>
      </trkpt>
      <trkpt lat="43.49522" lon="6.52238">
        <ele>96.4</ele>
        <time>2014-03-16T11:56:54Z</time>
      </trkpt>
      <trkpt lat="43.49517" lon="6.52249">
        <ele>95.7</ele>
        <time>2014-03-16T11:57:00Z</time>
      </trkpt>
      <trkpt lat="43.49515" lon="6.5226">
        <ele>94.7</ele>
        <time>2014-03-16T11:57:07Z</time>
      </trkpt>
      <trkpt lat="43.49515" lon="6.52263">
        <ele>94.7</ele>
        <time>2014-03-16T11:57:08Z</time>
      </trkpt>
      <trkpt lat="43.49513" lon="6.52283">
        <ele>94.7</ele>
        <time>2014-03-16T11:57:19Z</time>
      </trkpt>
      <trkpt lat="43.49509" lon="6.52293">
        <ele>94.3</ele>
        <time>2014-03-16T11:57:24Z</time>
      </trkpt>
      <trkpt lat="43.49512" lon="6.52283">
        <ele>92.9</ele>
        <time>2014-03-16T11:57:41Z</time>
      </trkpt>
      <trkpt lat="43.49513" lon="6.52271">
        <ele>92.1</ele>
        <time>2014-03-16T11:57:48Z</time>
      </trkpt>
      <trkpt lat="43.49511" lon="6.5226">
        <ele>92.3</ele>
        <time>2014-03-16T11:57:59Z</time>
      </trkpt>
      <trkpt lat="43.49515" lon="6.52251">
        <ele>92</ele>
        <time>2014-03-16T11:58:03Z</time>
      </trkpt>
      <trkpt lat="43.49513" lon="6.5224">
        <ele>91.6</ele>
        <time>2014-03-16T11:58:12Z</time>
      </trkpt>
      <trkpt lat="43.49512" lon="6.52239">
        <ele>91.6</ele>
        <time>2014-03-16T11:58:13Z</time>
      </trkpt>
      <trkpt lat="43.49509" lon="6.52219">
        <ele>91.3</ele>
        <time>2014-03-16T11:58:26Z</time>
      </trkpt>
      <trkpt lat="43.49504" lon="6.52209">
        <ele>91.9</ele>
        <time>2014-03-16T11:58:35Z</time>
      </trkpt>
      <trkpt lat="43.49502" lon="6.52197">
        <ele>91.6</ele>
        <time>2014-03-16T11:58:44Z</time>
      </trkpt>
      <trkpt lat="43.49501" lon="6.52185">
        <ele>92</ele>
        <time>2014-03-16T11:58:50Z</time>
      </trkpt>
      <trkpt lat="43.49497" lon="6.52174">
        <ele>92.2</ele>
        <time>2014-03-16T11:58:59Z</time>
      </trkpt>
      <trkpt lat="43.49496" lon="6.52163">
        <ele>92.1</ele>
        <time>2014-03-16T11:59:09Z</time>
      </trkpt>
      <trkpt lat="43.49492" lon="6.52153">
        <ele>91.8</ele>
        <time>2014-03-16T11:59:15Z</time>
      </trkpt>
      <trkpt lat="43.49491" lon="6.52151">
        <ele>92</ele>
        <time>2014-03-16T11:59:16Z</time>
      </trkpt>
      <trkpt lat="43.49484" lon="6.52132">
        <ele>92.9</ele>
        <time>2014-03-16T11:59:32Z</time>
      </trkpt>
      <trkpt lat="43.49483" lon="6.52121">
        <ele>93.3</ele>
        <time>2014-03-16T11:59:41Z</time>
      </trkpt>
      <trkpt lat="43.49482" lon="6.52109">
        <ele>93.7</ele>
        <time>2014-03-16T11:59:48Z</time>
      </trkpt>
      <trkpt lat="43.49482" lon="6.52098">
        <ele>94.6</ele>
        <time>2014-03-16T11:59:54Z</time>
      </trkpt>
      <trkpt lat="43.49478" lon="6.52087">
        <ele>94.5</ele>
        <time>2014-03-16T12:00:03Z</time>
      </trkpt>
      <trkpt lat="43.49478" lon="6.52075">
        <ele>95.4</ele>
        <time>2014-03-16T12:00:12Z</time>
      </trkpt>
      <trkpt lat="43.49475" lon="6.52064">
        <ele>95.6</ele>
        <time>2014-03-16T12:00:20Z</time>
      </trkpt>
      <trkpt lat="43.49474" lon="6.52063">
        <ele>95.8</ele>
        <time>2014-03-16T12:00:21Z</time>
      </trkpt>
      <trkpt lat="43.49466" lon="6.52045">
        <ele>97.7</ele>
        <time>2014-03-16T12:00:52Z</time>
      </trkpt>
      <trkpt lat="43.49457" lon="6.52045">
        <ele>98.2</ele>
        <time>2014-03-16T12:01:05Z</time>
      </trkpt>
      <trkpt lat="43.49448" lon="6.52047">
        <ele>98.5</ele>
        <time>2014-03-16T12:01:15Z</time>
      </trkpt>
      <trkpt lat="43.49441" lon="6.52052">
        <ele>99.1</ele>
        <time>2014-03-16T12:01:26Z</time>
      </trkpt>
      <trkpt lat="43.4944" lon="6.52053">
        <ele>99.1</ele>
        <time>2014-03-16T12:01:27Z</time>
      </trkpt>
      <trkpt lat="43.49426" lon="6.52062">
        <ele>99.6</ele>
        <time>2014-03-16T12:01:44Z</time>
      </trkpt>
      <trkpt lat="43.49419" lon="6.52066">
        <ele>99.5</ele>
        <time>2014-03-16T12:01:48Z</time>
      </trkpt>
      <trkpt lat="43.49414" lon="6.52075">
        <ele>99.3</ele>
        <time>2014-03-16T12:01:54Z</time>
      </trkpt>
      <trkpt lat="43.49407" lon="6.52082">
        <ele>99.7</ele>
        <time>2014-03-16T12:02:03Z</time>
      </trkpt>
      <trkpt lat="43.49399" lon="6.52086">
        <ele>99.7</ele>
        <time>2014-03-16T12:02:09Z</time>
      </trkpt>
      <trkpt lat="43.49395" lon="6.52095">
        <ele>100.7</ele>
        <time>2014-03-16T12:02:19Z</time>
      </trkpt>
      <trkpt lat="43.49387" lon="6.521">
        <ele>101.8</ele>
        <time>2014-03-16T12:02:33Z</time>
      </trkpt>
      <trkpt lat="43.49386" lon="6.521">
        <ele>101.4</ele>
        <time>2014-03-16T12:02:34Z</time>
      </trkpt>
      <trkpt lat="43.49371" lon="6.52103">
        <ele>102.5</ele>
        <time>2014-03-16T12:02:57Z</time>
      </trkpt>
      <trkpt lat="43.49362" lon="6.52102">
        <ele>103.3</ele>
        <time>2014-03-16T12:03:33Z</time>
      </trkpt>
      <trkpt lat="43.49354" lon="6.521">
        <ele>102.9</ele>
        <time>2014-03-16T12:03:49Z</time>
      </trkpt>
      <trkpt lat="43.49353" lon="6.52099">
        <ele>103.1</ele>
        <time>2014-03-16T12:03:50Z</time>
      </trkpt>
      <trkpt lat="43.4934" lon="6.52105">
        <ele>104.1</ele>
        <time>2014-03-16T12:04:24Z</time>
      </trkpt>
      <trkpt lat="43.49333" lon="6.5211">
        <ele>105.6</ele>
        <time>2014-03-16T12:04:33Z</time>
      </trkpt>
      <trkpt lat="43.49327" lon="6.5212">
        <ele>105.6</ele>
        <time>2014-03-16T12:04:44Z</time>
      </trkpt>
      <trkpt lat="43.49327" lon="6.52131">
        <ele>107.1</ele>
        <time>2014-03-16T12:04:57Z</time>
      </trkpt>
      <trkpt lat="43.49326" lon="6.52132">
        <ele>107</ele>
        <time>2014-03-16T12:04:58Z</time>
      </trkpt>
      <trkpt lat="43.49316" lon="6.52145">
        <ele>107.6</ele>
        <time>2014-03-16T12:05:18Z</time>
      </trkpt>
      <trkpt lat="43.49319" lon="6.52155">
        <ele>107.4</ele>
        <time>2014-03-16T12:05:24Z</time>
      </trkpt>
      <trkpt lat="43.49319" lon="6.52167">
        <ele>108.8</ele>
        <time>2014-03-16T12:05:40Z</time>
      </trkpt>
      <trkpt lat="43.49313" lon="6.52175">
        <ele>109</ele>
        <time>2014-03-16T12:05:51Z</time>
      </trkpt>
      <trkpt lat="43.4931" lon="6.52186">
        <ele>109.4</ele>
        <time>2014-03-16T12:06:01Z</time>
      </trkpt>
      <trkpt lat="43.4931" lon="6.52188">
        <ele>109.7</ele>
        <time>2014-03-16T12:06:02Z</time>
      </trkpt>
      <trkpt lat="43.49296" lon="6.52196">
        <ele>110</ele>
        <time>2014-03-16T12:06:11Z</time>
      </trkpt>
      <trkpt lat="43.49292" lon="6.52206">
        <ele>110</ele>
        <time>2014-03-16T12:06:20Z</time>
      </trkpt>
      <trkpt lat="43.49285" lon="6.52213">
        <ele>110.3</ele>
        <time>2014-03-16T12:06:27Z</time>
      </trkpt>
      <trkpt lat="43.49279" lon="6.52221">
        <ele>110.6</ele>
        <time>2014-03-16T12:06:37Z</time>
      </trkpt>
      <trkpt lat="43.49275" lon="6.52232">
        <ele>111.2</ele>
        <time>2014-03-16T12:06:49Z</time>
      </trkpt>
      <trkpt lat="43.49267" lon="6.52236">
        <ele>111.8</ele>
        <time>2014-03-16T12:06:57Z</time>
      </trkpt>
      <trkpt lat="43.4926" lon="6.52244">
        <ele>113.2</ele>
        <time>2014-03-16T12:07:10Z</time>
      </trkpt>
      <trkpt lat="43.4926" lon="6.52245">
        <ele>112.8</ele>
        <time>2014-03-16T12:07:11Z</time>
      </trkpt>
      <trkpt lat="43.49255" lon="6.52264">
        <ele>114.7</ele>
        <time>2014-03-16T12:07:28Z</time>
      </trkpt>
      <trkpt lat="43.49253" lon="6.52275">
        <ele>115.2</ele>
        <time>2014-03-16T12:07:37Z</time>
      </trkpt>
      <trkpt lat="43.49248" lon="6.52284">
        <ele>116.1</ele>
        <time>2014-03-16T12:07:45Z</time>
      </trkpt>
      <trkpt lat="43.49241" lon="6.52293">
        <ele>117.8</ele>
        <time>2014-03-16T12:07:53Z</time>
      </trkpt>
      <trkpt lat="43.49242" lon="6.52303">
        <ele>117.2</ele>
        <time>2014-03-16T12:07:59Z</time>
      </trkpt>
      <trkpt lat="43.49236" lon="6.52312">
        <ele>117.2</ele>
        <time>2014-03-16T12:08:06Z</time>
      </trkpt>
      <trkpt lat="43.49236" lon="6.52324">
        <ele>117.3</ele>
        <time>2014-03-16T12:08:30Z</time>
      </trkpt>
      <trkpt lat="43.49237" lon="6.52326">
        <ele>117</ele>
        <time>2014-03-16T12:08:31Z</time>
      </trkpt>
      <trkpt lat="43.49237" lon="6.5235">
        <ele>117.9</ele>
        <time>2014-03-16T12:09:05Z</time>
      </trkpt>
      <trkpt lat="43.49234" lon="6.52359">
        <ele>117.2</ele>
        <time>2014-03-16T12:09:12Z</time>
      </trkpt>
      <trkpt lat="43.4923" lon="6.52368">
        <ele>117.3</ele>
        <time>2014-03-16T12:09:17Z</time>
      </trkpt>
      <trkpt lat="43.49224" lon="6.52377">
        <ele>117.3</ele>
        <time>2014-03-16T12:09:28Z</time>
      </trkpt>
      <trkpt lat="43.49223" lon="6.52388">
        <ele>115.7</ele>
        <time>2014-03-16T12:09:37Z</time>
      </trkpt>
      <trkpt lat="43.49223" lon="6.5239">
        <ele>116.2</ele>
        <time>2014-03-16T12:09:38Z</time>
      </trkpt>
      <trkpt lat="43.49222" lon="6.52407">
        <ele>116.5</ele>
        <time>2014-03-16T12:09:51Z</time>
      </trkpt>
      <trkpt lat="43.49222" lon="6.5242">
        <ele>116.5</ele>
        <time>2014-03-16T12:10:03Z</time>
      </trkpt>
      <trkpt lat="43.49216" lon="6.52429">
        <ele>115.4</ele>
        <time>2014-03-16T12:10:14Z</time>
      </trkpt>
      <trkpt lat="43.49213" lon="6.5244">
        <ele>115.7</ele>
        <time>2014-03-16T12:10:25Z</time>
      </trkpt>
      <trkpt lat="43.49206" lon="6.52446">
        <ele>116.1</ele>
        <time>2014-03-16T12:10:30Z</time>
      </trkpt>
      <trkpt lat="43.49201" lon="6.52453">
        <ele>114.9</ele>
        <time>2014-03-16T12:10:38Z</time>
      </trkpt>
      <trkpt lat="43.492" lon="6.52455">
        <ele>115.3</ele>
        <time>2014-03-16T12:10:39Z</time>
      </trkpt>
      <trkpt lat="43.49196" lon="6.52475">
        <ele>115.9</ele>
        <time>2014-03-16T12:10:55Z</time>
      </trkpt>
      <trkpt lat="43.49196" lon="6.52486">
        <ele>115.1</ele>
        <time>2014-03-16T12:11:01Z</time>
      </trkpt>
      <trkpt lat="43.49194" lon="6.52498">
        <ele>115.1</ele>
        <time>2014-03-16T12:11:08Z</time>
      </trkpt>
      <trkpt lat="43.49186" lon="6.52504">
        <ele>114.7</ele>
        <time>2014-03-16T12:11:17Z</time>
      </trkpt>
      <trkpt lat="43.49178" lon="6.52503">
        <ele>115.2</ele>
        <time>2014-03-16T12:11:25Z</time>
      </trkpt>
      <trkpt lat="43.4917" lon="6.525">
        <ele>114.8</ele>
        <time>2014-03-16T12:11:34Z</time>
      </trkpt>
      <trkpt lat="43.49162" lon="6.525">
        <ele>115</ele>
        <time>2014-03-16T12:11:40Z</time>
      </trkpt>
      <trkpt lat="43.49161" lon="6.52501">
        <ele>114.9</ele>
        <time>2014-03-16T12:11:41Z</time>
      </trkpt>
      <trkpt lat="43.49146" lon="6.52508">
        <ele>114.4</ele>
        <time>2014-03-16T12:11:52Z</time>
      </trkpt>
      <trkpt lat="43.49141" lon="6.52518">
        <ele>115.1</ele>
        <time>2014-03-16T12:12:01Z</time>
      </trkpt>
      <trkpt lat="43.49132" lon="6.52519">
        <ele>114.5</ele>
        <time>2014-03-16T12:12:15Z</time>
      </trkpt>
      <trkpt lat="43.49124" lon="6.52514">
        <ele>113.2</ele>
        <time>2014-03-16T12:12:28Z</time>
      </trkpt>
      <trkpt lat="43.49116" lon="6.52515">
        <ele>113.6</ele>
        <time>2014-03-16T12:12:34Z</time>
      </trkpt>
      <trkpt lat="43.49108" lon="6.52519">
        <ele>112.9</ele>
        <time>2014-03-16T12:12:42Z</time>
      </trkpt>
      <trkpt lat="43.49107" lon="6.5252">
        <ele>113</ele>
        <time>2014-03-16T12:12:43Z</time>
      </trkpt>
      <trkpt lat="43.49094" lon="6.52528">
        <ele>112.6</ele>
        <time>2014-03-16T12:12:54Z</time>
      </trkpt>
      <trkpt lat="43.49087" lon="6.52531">
        <ele>112.3</ele>
        <time>2014-03-16T12:13:03Z</time>
      </trkpt>
      <trkpt lat="43.4908" lon="6.52538">
        <ele>111.7</ele>
        <time>2014-03-16T12:13:10Z</time>
      </trkpt>
      <trkpt lat="43.49074" lon="6.52545">
        <ele>111.7</ele>
        <time>2014-03-16T12:13:16Z</time>
      </trkpt>
      <trkpt lat="43.49068" lon="6.52554">
        <ele>111.7</ele>
        <time>2014-03-16T12:13:26Z</time>
      </trkpt>
      <trkpt lat="43.49067" lon="6.52566">
        <ele>110.8</ele>
        <time>2014-03-16T12:13:34Z</time>
      </trkpt>
      <trkpt lat="43.49064" lon="6.52577">
        <ele>111.1</ele>
        <time>2014-03-16T12:13:44Z</time>
      </trkpt>
      <trkpt lat="43.49063" lon="6.52578">
        <ele>111.3</ele>
        <time>2014-03-16T12:13:45Z</time>
      </trkpt>
      <trkpt lat="43.49074" lon="6.52595">
        <ele>110.7</ele>
        <time>2014-03-16T12:15:07Z</time>
      </trkpt>
      <trkpt lat="43.49074" lon="6.52595">
        <ele>110.7</ele>
        <time>2014-03-16T12:15:08Z</time>
      </trkpt>
      <trkpt lat="43.49082" lon="6.52615">
        <ele>110.2</ele>
        <time>2014-03-16T12:15:59Z</time>
      </trkpt>
      <trkpt lat="43.49088" lon="6.52624">
        <ele>110.1</ele>
        <time>2014-03-16T12:16:30Z</time>
      </trkpt>
      <trkpt lat="43.49088" lon="6.52625">
        <ele>110.5</ele>
        <time>2014-03-16T12:16:31Z</time>
      </trkpt>
      <trkpt lat="43.49097" lon="6.52641">
        <ele>111</ele>
        <time>2014-03-16T12:17:05Z</time>
      </trkpt>
      <trkpt lat="43.49095" lon="6.52653">
        <ele>109.4</ele>
        <time>2014-03-16T12:17:50Z</time>
      </trkpt>
      <trkpt lat="43.49094" lon="6.52654">
        <ele>109.7</ele>
        <time>2014-03-16T12:17:51Z</time>
      </trkpt>
      <trkpt lat="43.49093" lon="6.52676">
        <ele>107.6</ele>
        <time>2014-03-16T12:18:31Z</time>
      </trkpt>
      <trkpt lat="43.49088" lon="6.52686">
        <ele>106.4</ele>
        <time>2014-03-16T12:18:40Z</time>
      </trkpt>
      <trkpt lat="43.49095" lon="6.52679">
        <ele>108.6</ele>
        <time>2014-03-16T12:19:20Z</time>
      </trkpt>
      <trkpt lat="43.49095" lon="6.52677">
        <ele>108.8</ele>
        <time>2014-03-16T12:19:21Z</time>
      </trkpt>
      <trkpt lat="43.49102" lon="6.52658">
        <ele>110.4</ele>
        <time>2014-03-16T12:19:48Z</time>
      </trkpt>
      <trkpt lat="43.49103" lon="6.52646">
        <ele>111.4</ele>
        <time>2014-03-16T12:19:59Z</time>
      </trkpt>
      <trkpt lat="43.49102" lon="6.52634">
        <ele>111.4</ele>
        <time>2014-03-16T12:20:18Z</time>
      </trkpt>
      <trkpt lat="43.49097" lon="6.52623">
        <ele>111.1</ele>
        <time>2014-03-16T12:20:40Z</time>
      </trkpt>
      <trkpt lat="43.49097" lon="6.52623">
        <ele>111</ele>
        <time>2014-03-16T12:20:41Z</time>
      </trkpt>
      <trkpt lat="43.49088" lon="6.52604">
        <ele>110.9</ele>
        <time>2014-03-16T12:23:43Z</time>
      </trkpt>
      <trkpt lat="43.49087" lon="6.52603">
        <ele>110.9</ele>
        <time>2014-03-16T12:23:44Z</time>
      </trkpt>
      <trkpt lat="43.49072" lon="6.52593">
        <ele>111.1</ele>
        <time>2014-03-16T12:24:06Z</time>
      </trkpt>
      <trkpt lat="43.49065" lon="6.52587">
        <ele>111.4</ele>
        <time>2014-03-16T12:25:22Z</time>
      </trkpt>
      <trkpt lat="43.49064" lon="6.52587">
        <ele>111.4</ele>
        <time>2014-03-16T12:25:23Z</time>
      </trkpt>
      <trkpt lat="43.4905" lon="6.52574">
        <ele>111.1</ele>
        <time>2014-03-16T12:25:42Z</time>
      </trkpt>
      <trkpt lat="43.49042" lon="6.52569">
        <ele>111</ele>
        <time>2014-03-16T12:26:09Z</time>
      </trkpt>
      <trkpt lat="43.49034" lon="6.52567">
        <ele>111.6</ele>
        <time>2014-03-16T12:26:23Z</time>
      </trkpt>
      <trkpt lat="43.49033" lon="6.52566">
        <ele>111.6</ele>
        <time>2014-03-16T12:26:24Z</time>
      </trkpt>
      <trkpt lat="43.4903" lon="6.52544">
        <ele>111</ele>
        <time>2014-03-16T12:27:25Z</time>
      </trkpt>
      <trkpt lat="43.49029" lon="6.52542">
        <ele>111.2</ele>
        <time>2014-03-16T12:27:26Z</time>
      </trkpt>
      <trkpt lat="43.49018" lon="6.52528">
        <ele>112.2</ele>
        <time>2014-03-16T12:27:42Z</time>
      </trkpt>
      <trkpt lat="43.49009" lon="6.52524">
        <ele>112.2</ele>
        <time>2014-03-16T12:27:49Z</time>
      </trkpt>
      <trkpt lat="43.49001" lon="6.52522">
        <ele>111.9</ele>
        <time>2014-03-16T12:27:57Z</time>
      </trkpt>
      <trkpt lat="43.48994" lon="6.52515">
        <ele>112.6</ele>
        <time>2014-03-16T12:28:10Z</time>
      </trkpt>
      <trkpt lat="43.48986" lon="6.52512">
        <ele>112.3</ele>
        <time>2014-03-16T12:28:24Z</time>
      </trkpt>
      <trkpt lat="43.48978" lon="6.52513">
        <ele>111.9</ele>
        <time>2014-03-16T12:28:30Z</time>
      </trkpt>
      <trkpt lat="43.48977" lon="6.52513">
        <ele>112.1</ele>
        <time>2014-03-16T12:28:31Z</time>
      </trkpt>
      <trkpt lat="43.48961" lon="6.52512">
        <ele>112.5</ele>
        <time>2014-03-16T12:28:45Z</time>
      </trkpt>
      <trkpt lat="43.48952" lon="6.5251">
        <ele>112.5</ele>
        <time>2014-03-16T12:28:53Z</time>
      </trkpt>
      <trkpt lat="43.48943" lon="6.52512">
        <ele>113</ele>
        <time>2014-03-16T12:29:04Z</time>
      </trkpt>
      <trkpt lat="43.48934" lon="6.52511">
        <ele>113.5</ele>
        <time>2014-03-16T12:29:13Z</time>
      </trkpt>
      <trkpt lat="43.48927" lon="6.5251">
        <ele>113.4</ele>
        <time>2014-03-16T12:29:19Z</time>
      </trkpt>
      <trkpt lat="43.48919" lon="6.5251">
        <ele>113.6</ele>
        <time>2014-03-16T12:29:24Z</time>
      </trkpt>
      <trkpt lat="43.48911" lon="6.52508">
        <ele>113.2</ele>
        <time>2014-03-16T12:29:30Z</time>
      </trkpt>
      <trkpt lat="43.48903" lon="6.52508">
        <ele>113.2</ele>
        <time>2014-03-16T12:29:36Z</time>
      </trkpt>
      <trkpt lat="43.48901" lon="6.52508">
        <ele>113.2</ele>
        <time>2014-03-16T12:29:37Z</time>
      </trkpt>
      <trkpt lat="43.48885" lon="6.52508">
        <ele>114.4</ele>
        <time>2014-03-16T12:29:58Z</time>
      </trkpt>
      <trkpt lat="43.48878" lon="6.52503">
        <ele>114.2</ele>
        <time>2014-03-16T12:30:09Z</time>
      </trkpt>
      <trkpt lat="43.48871" lon="6.52499">
        <ele>114.6</ele>
        <time>2014-03-16T12:30:16Z</time>
      </trkpt>
      <trkpt lat="43.48863" lon="6.52497">
        <ele>114.4</ele>
        <time>2014-03-16T12:30:23Z</time>
      </trkpt>
      <trkpt lat="43.48854" lon="6.52494">
        <ele>114.9</ele>
        <time>2014-03-16T12:30:30Z</time>
      </trkpt>
      <trkpt lat="43.48846" lon="6.5249">
        <ele>114.3</ele>
        <time>2014-03-16T12:30:38Z</time>
      </trkpt>
      <trkpt lat="43.48845" lon="6.5249">
        <ele>114.2</ele>
        <time>2014-03-16T12:30:39Z</time>
      </trkpt>
      <trkpt lat="43.48829" lon="6.52489">
        <ele>114.5</ele>
        <time>2014-03-16T12:30:51Z</time>
      </trkpt>
      <trkpt lat="43.48821" lon="6.5249">
        <ele>114.1</ele>
        <time>2014-03-16T12:30:57Z</time>
      </trkpt>
      <trkpt lat="43.48813" lon="6.52489">
        <ele>114.3</ele>
        <time>2014-03-16T12:31:06Z</time>
      </trkpt>
      <trkpt lat="43.48804" lon="6.52486">
        <ele>114.3</ele>
        <time>2014-03-16T12:31:15Z</time>
      </trkpt>
      <trkpt lat="43.48796" lon="6.52481">
        <ele>114.3</ele>
        <time>2014-03-16T12:31:24Z</time>
      </trkpt>
      <trkpt lat="43.48788" lon="6.52483">
        <ele>114.3</ele>
        <time>2014-03-16T12:31:33Z</time>
      </trkpt>
      <trkpt lat="43.48783" lon="6.52473">
        <ele>113.7</ele>
        <time>2014-03-16T12:31:59Z</time>
      </trkpt>
      <trkpt lat="43.48783" lon="6.52472">
        <ele>113.6</ele>
        <time>2014-03-16T12:32:00Z</time>
      </trkpt>
      <trkpt lat="43.48787" lon="6.52452">
        <ele>113.4</ele>
        <time>2014-03-16T12:32:34Z</time>
      </trkpt>
      <trkpt lat="43.48787" lon="6.52441">
        <ele>113.5</ele>
        <time>2014-03-16T12:32:49Z</time>
      </trkpt>
      <trkpt lat="43.48785" lon="6.52429">
        <ele>113.1</ele>
        <time>2014-03-16T12:32:56Z</time>
      </trkpt>
      <trkpt lat="43.48778" lon="6.52422">
        <ele>112.8</ele>
        <time>2014-03-16T12:33:38Z</time>
      </trkpt>
      <trkpt lat="43.48777" lon="6.52422">
        <ele>112.9</ele>
        <time>2014-03-16T12:33:39Z</time>
      </trkpt>
      <trkpt lat="43.48766" lon="6.52413">
        <ele>112.7</ele>
        <time>2014-03-16T12:34:12Z</time>
      </trkpt>
      <trkpt lat="43.48758" lon="6.52413">
        <ele>112.4</ele>
        <time>2014-03-16T12:35:08Z</time>
      </trkpt>
      <trkpt lat="43.48757" lon="6.52413">
        <ele>112.3</ele>
        <time>2014-03-16T12:35:09Z</time>
      </trkpt>
      <trkpt lat="43.48748" lon="6.52414">
        <ele>112.2</ele>
        <time>2014-03-16T12:36:45Z</time>
      </trkpt>
      <trkpt lat="43.48743" lon="6.52403">
        <ele>111.3</ele>
        <time>2014-03-16T12:38:17Z</time>
      </trkpt>
      <trkpt lat="43.48737" lon="6.52397">
        <ele>111.8</ele>
        <time>2014-03-16T12:39:46Z</time>
      </trkpt>
      <trkpt lat="43.48723" lon="6.52388">
        <ele>111.1</ele>
        <time>2014-03-16T12:40:10Z</time>
      </trkpt>
      <trkpt lat="43.48717" lon="6.52378">
        <ele>110.3</ele>
        <time>2014-03-16T12:40:19Z</time>
      </trkpt>
      <trkpt lat="43.48712" lon="6.52369">
        <ele>111.2</ele>
        <time>2014-03-16T12:40:25Z</time>
      </trkpt>
      <trkpt lat="43.48709" lon="6.52359">
        <ele>111.6</ele>
        <time>2014-03-16T12:40:31Z</time>
      </trkpt>
      <trkpt lat="43.48704" lon="6.5235">
        <ele>111</ele>
        <time>2014-03-16T12:40:38Z</time>
      </trkpt>
      <trkpt lat="43.48701" lon="6.52339">
        <ele>111.5</ele>
        <time>2014-03-16T12:40:46Z</time>
      </trkpt>
      <trkpt lat="43.487" lon="6.52338">
        <ele>111.6</ele>
        <time>2014-03-16T12:40:47Z</time>
      </trkpt>
      <trkpt lat="43.48692" lon="6.52319">
        <ele>111.8</ele>
        <time>2014-03-16T12:41:05Z</time>
      </trkpt>
      <trkpt lat="43.48683" lon="6.5232">
        <ele>112</ele>
        <time>2014-03-16T12:41:41Z</time>
      </trkpt>
      <trkpt lat="43.48691" lon="6.52314">
        <ele>111</ele>
        <time>2014-03-16T12:43:04Z</time>
      </trkpt>
      <trkpt lat="43.48692" lon="6.52314">
        <ele>111.1</ele>
        <time>2014-03-16T12:43:05Z</time>
      </trkpt>
      <trkpt lat="43.48698" lon="6.52293">
        <ele>110.7</ele>
        <time>2014-03-16T12:44:11Z</time>
      </trkpt>
      <trkpt lat="43.48698" lon="6.52292">
        <ele>110.8</ele>
        <time>2014-03-16T12:44:12Z</time>
      </trkpt>
      <trkpt lat="43.48709" lon="6.52278">
        <ele>110.2</ele>
        <time>2014-03-16T12:44:56Z</time>
      </trkpt>
      <trkpt lat="43.48709" lon="6.52266">
        <ele>110.6</ele>
        <time>2014-03-16T12:45:06Z</time>
      </trkpt>
      <trkpt lat="43.48712" lon="6.52255">
        <ele>110.4</ele>
        <time>2014-03-16T12:45:15Z</time>
      </trkpt>
      <trkpt lat="43.48713" lon="6.52254">
        <ele>110.4</ele>
        <time>2014-03-16T12:45:16Z</time>
      </trkpt>
      <trkpt lat="43.48724" lon="6.52237">
        <ele>109.6</ele>
        <time>2014-03-16T12:45:37Z</time>
      </trkpt>
      <trkpt lat="43.4873" lon="6.52228">
        <ele>109.7</ele>
        <time>2014-03-16T12:45:45Z</time>
      </trkpt>
      <trkpt lat="43.48737" lon="6.52222">
        <ele>109.4</ele>
        <time>2014-03-16T12:45:53Z</time>
      </trkpt>
      <trkpt lat="43.48744" lon="6.52216">
        <ele>109.8</ele>
        <time>2014-03-16T12:46:00Z</time>
      </trkpt>
      <trkpt lat="43.48751" lon="6.52211">
        <ele>110.1</ele>
        <time>2014-03-16T12:46:08Z</time>
      </trkpt>
      <trkpt lat="43.48758" lon="6.52205">
        <ele>109.7</ele>
        <time>2014-03-16T12:46:15Z</time>
      </trkpt>
      <trkpt lat="43.48766" lon="6.522">
        <ele>110.6</ele>
        <time>2014-03-16T12:46:24Z</time>
      </trkpt>
      <trkpt lat="43.48767" lon="6.52199">
        <ele>110.4</ele>
        <time>2014-03-16T12:46:25Z</time>
      </trkpt>
      <trkpt lat="43.48782" lon="6.52189">
        <ele>110.1</ele>
        <time>2014-03-16T12:46:40Z</time>
      </trkpt>
      <trkpt lat="43.4879" lon="6.52184">
        <ele>110.9</ele>
        <time>2014-03-16T12:46:48Z</time>
      </trkpt>
      <trkpt lat="43.48798" lon="6.5218">
        <ele>110.6</ele>
        <time>2014-03-16T12:46:56Z</time>
      </trkpt>
      <trkpt lat="43.48805" lon="6.52175">
        <ele>111.1</ele>
        <time>2014-03-16T12:47:04Z</time>
      </trkpt>
      <trkpt lat="43.48809" lon="6.52165">
        <ele>111.1</ele>
        <time>2014-03-16T12:47:12Z</time>
      </trkpt>
      <trkpt lat="43.48804" lon="6.52155">
        <ele>110.8</ele>
        <time>2014-03-16T12:47:21Z</time>
      </trkpt>
      <trkpt lat="43.48798" lon="6.52147">
        <ele>111.1</ele>
        <time>2014-03-16T12:47:28Z</time>
      </trkpt>
      <trkpt lat="43.48797" lon="6.52146">
        <ele>111.2</ele>
        <time>2014-03-16T12:47:29Z</time>
      </trkpt>
      <trkpt lat="43.48785" lon="6.52131">
        <ele>111.1</ele>
        <time>2014-03-16T12:47:44Z</time>
      </trkpt>
      <trkpt lat="43.48779" lon="6.52122">
        <ele>111.2</ele>
        <time>2014-03-16T12:47:52Z</time>
      </trkpt>
      <trkpt lat="43.48773" lon="6.52114">
        <ele>110.8</ele>
        <time>2014-03-16T12:47:59Z</time>
      </trkpt>
      <trkpt lat="43.48768" lon="6.52105">
        <ele>110.6</ele>
        <time>2014-03-16T12:48:06Z</time>
      </trkpt>
      <trkpt lat="43.4877" lon="6.52094">
        <ele>110.2</ele>
        <time>2014-03-16T12:48:17Z</time>
      </trkpt>
      <trkpt lat="43.48775" lon="6.52084">
        <ele>110.6</ele>
        <time>2014-03-16T12:48:26Z</time>
      </trkpt>
      <trkpt lat="43.48777" lon="6.52073">
        <ele>110.6</ele>
        <time>2014-03-16T12:48:35Z</time>
      </trkpt>
      <trkpt lat="43.48777" lon="6.52072">
        <ele>110.5</ele>
        <time>2014-03-16T12:48:36Z</time>
      </trkpt>
      <trkpt lat="43.48785" lon="6.52054">
        <ele>110.5</ele>
        <time>2014-03-16T12:48:50Z</time>
      </trkpt>
      <trkpt lat="43.48789" lon="6.52044">
        <ele>110.6</ele>
        <time>2014-03-16T12:49:03Z</time>
      </trkpt>
      <trkpt lat="43.48789" lon="6.52032">
        <ele>110.8</ele>
        <time>2014-03-16T12:49:11Z</time>
      </trkpt>
      <trkpt lat="43.4879" lon="6.52021">
        <ele>110.7</ele>
        <time>2014-03-16T12:49:18Z</time>
      </trkpt>
      <trkpt lat="43.48794" lon="6.52011">
        <ele>109.7</ele>
        <time>2014-03-16T12:49:24Z</time>
      </trkpt>
      <trkpt lat="43.48798" lon="6.52">
        <ele>109.7</ele>
        <time>2014-03-16T12:49:31Z</time>
      </trkpt>
      <trkpt lat="43.488" lon="6.51988">
        <ele>108.8</ele>
        <time>2014-03-16T12:49:39Z</time>
      </trkpt>
      <trkpt lat="43.488" lon="6.51987">
        <ele>108.8</ele>
        <time>2014-03-16T12:49:40Z</time>
      </trkpt>
      <trkpt lat="43.48794" lon="6.51966">
        <ele>108</ele>
        <time>2014-03-16T12:49:55Z</time>
      </trkpt>
      <trkpt lat="43.48789" lon="6.51956">
        <ele>107.6</ele>
        <time>2014-03-16T12:50:52Z</time>
      </trkpt>
      <trkpt lat="43.48788" lon="6.51955">
        <ele>107.7</ele>
        <time>2014-03-16T12:50:53Z</time>
      </trkpt>
      <trkpt lat="43.48789" lon="6.51957">
        <ele>108.2</ele>
        <time>2014-03-16T12:51:16Z</time>
      </trkpt>
      <trkpt lat="43.48796" lon="6.51965">
        <ele>107</ele>
        <time>2014-03-16T12:51:53Z</time>
      </trkpt>
      <trkpt lat="43.48797" lon="6.51966">
        <ele>106.7</ele>
        <time>2014-03-16T12:51:54Z</time>
      </trkpt>
      <trkpt lat="43.48804" lon="6.51971">
        <ele>107.8</ele>
        <time>2014-03-16T12:52:20Z</time>
      </trkpt>
      <trkpt lat="43.48807" lon="6.5196">
        <ele>108.1</ele>
        <time>2014-03-16T12:52:27Z</time>
      </trkpt>
      <trkpt lat="43.48812" lon="6.5195">
        <ele>107.2</ele>
        <time>2014-03-16T12:52:35Z</time>
      </trkpt>
      <trkpt lat="43.48812" lon="6.51938">
        <ele>107.3</ele>
        <time>2014-03-16T12:52:47Z</time>
      </trkpt>
      <trkpt lat="43.48816" lon="6.51927">
        <ele>106.6</ele>
        <time>2014-03-16T12:53:05Z</time>
      </trkpt>
      <trkpt lat="43.48817" lon="6.51926">
        <ele>106.3</ele>
        <time>2014-03-16T12:53:06Z</time>
      </trkpt>
      <trkpt lat="43.48822" lon="6.51905">
        <ele>104.1</ele>
        <time>2014-03-16T12:53:28Z</time>
      </trkpt>
      <trkpt lat="43.48827" lon="6.51896">
        <ele>104.1</ele>
        <time>2014-03-16T12:53:39Z</time>
      </trkpt>
      <trkpt lat="43.48829" lon="6.51885">
        <ele>104.5</ele>
        <time>2014-03-16T12:53:48Z</time>
      </trkpt>
      <trkpt lat="43.48833" lon="6.51875">
        <ele>104.3</ele>
        <time>2014-03-16T12:53:56Z</time>
      </trkpt>
      <trkpt lat="43.48834" lon="6.51863">
        <ele>104.5</ele>
        <time>2014-03-16T12:54:09Z</time>
      </trkpt>
      <trkpt lat="43.48834" lon="6.51861">
        <ele>104.5</ele>
        <time>2014-03-16T12:54:10Z</time>
      </trkpt>
      <trkpt lat="43.48841" lon="6.51842">
        <ele>104.2</ele>
        <time>2014-03-16T12:54:24Z</time>
      </trkpt>
      <trkpt lat="43.48844" lon="6.51832">
        <ele>104.3</ele>
        <time>2014-03-16T12:54:37Z</time>
      </trkpt>
      <trkpt lat="43.4885" lon="6.51823">
        <ele>104.3</ele>
        <time>2014-03-16T12:55:09Z</time>
      </trkpt>
      <trkpt lat="43.48855" lon="6.51813">
        <ele>103.7</ele>
        <time>2014-03-16T12:55:21Z</time>
      </trkpt>
      <trkpt lat="43.48855" lon="6.51812">
        <ele>103.4</ele>
        <time>2014-03-16T12:55:22Z</time>
      </trkpt>
      <trkpt lat="43.48858" lon="6.5179">
        <ele>99.9</ele>
        <time>2014-03-16T12:56:09Z</time>
      </trkpt>
      <trkpt lat="43.48849" lon="6.51788">
        <ele>100.3</ele>
        <time>2014-03-16T12:56:38Z</time>
      </trkpt>
      <trkpt lat="43.48849" lon="6.51789">
        <ele>100.1</ele>
        <time>2014-03-16T12:56:39Z</time>
      </trkpt>
      <trkpt lat="43.4885" lon="6.51811">
        <ele>102.3</ele>
        <time>2014-03-16T12:57:39Z</time>
      </trkpt>
      <trkpt lat="43.4885" lon="6.51812">
        <ele>102.2</ele>
        <time>2014-03-16T12:57:40Z</time>
      </trkpt>
      <trkpt lat="43.48858" lon="6.51831">
        <ele>102.6</ele>
        <time>2014-03-16T12:58:00Z</time>
      </trkpt>
      <trkpt lat="43.4885" lon="6.51836">
        <ele>103</ele>
        <time>2014-03-16T12:58:17Z</time>
      </trkpt>
      <trkpt lat="43.48846" lon="6.51847">
        <ele>103.9</ele>
        <time>2014-03-16T12:58:31Z</time>
      </trkpt>
      <trkpt lat="43.48855" lon="6.51848">
        <ele>103.7</ele>
        <time>2014-03-16T12:58:39Z</time>
      </trkpt>
      <trkpt lat="43.48863" lon="6.51848">
        <ele>103.7</ele>
        <time>2014-03-16T12:58:45Z</time>
      </trkpt>
      <trkpt lat="43.48865" lon="6.51848">
        <ele>103.7</ele>
        <time>2014-03-16T12:58:46Z</time>
      </trkpt>
      <trkpt lat="43.48879" lon="6.51852">
        <ele>104.3</ele>
        <time>2014-03-16T12:58:55Z</time>
      </trkpt>
      <trkpt lat="43.48887" lon="6.5185">
        <ele>103.7</ele>
        <time>2014-03-16T12:59:02Z</time>
      </trkpt>
      <trkpt lat="43.48894" lon="6.51845">
        <ele>103.8</ele>
        <time>2014-03-16T12:59:09Z</time>
      </trkpt>
      <trkpt lat="43.489" lon="6.51838">
        <ele>104.1</ele>
        <time>2014-03-16T12:59:18Z</time>
      </trkpt>
      <trkpt lat="43.48907" lon="6.51831">
        <ele>104.2</ele>
        <time>2014-03-16T12:59:26Z</time>
      </trkpt>
      <trkpt lat="43.48915" lon="6.51826">
        <ele>104.3</ele>
        <time>2014-03-16T12:59:34Z</time>
      </trkpt>
      <trkpt lat="43.4892" lon="6.51816">
        <ele>104</ele>
        <time>2014-03-16T12:59:46Z</time>
      </trkpt>
      <trkpt lat="43.48919" lon="6.51815">
        <ele>104</ele>
        <time>2014-03-16T12:59:47Z</time>
      </trkpt>
      <trkpt lat="43.48935" lon="6.51805">
        <ele>104.7</ele>
        <time>2014-03-16T13:00:10Z</time>
      </trkpt>
      <trkpt lat="43.48944" lon="6.51807">
        <ele>105.6</ele>
        <time>2014-03-16T13:00:21Z</time>
      </trkpt>
      <trkpt lat="43.48952" lon="6.51809">
        <ele>105.5</ele>
        <time>2014-03-16T13:00:31Z</time>
      </trkpt>
      <trkpt lat="43.4896" lon="6.51809">
        <ele>106.2</ele>
        <time>2014-03-16T13:00:39Z</time>
      </trkpt>
      <trkpt lat="43.48969" lon="6.51806">
        <ele>105.7</ele>
        <time>2014-03-16T13:00:46Z</time>
      </trkpt>
      <trkpt lat="43.48976" lon="6.518">
        <ele>105.9</ele>
        <time>2014-03-16T13:00:51Z</time>
      </trkpt>
      <trkpt lat="43.48976" lon="6.51799">
        <ele>105.9</ele>
        <time>2014-03-16T13:00:52Z</time>
      </trkpt>
      <trkpt lat="43.48986" lon="6.51782">
        <ele>104.1</ele>
        <time>2014-03-16T13:01:06Z</time>
      </trkpt>
      <trkpt lat="43.4899" lon="6.51772">
        <ele>103.9</ele>
        <time>2014-03-16T13:01:13Z</time>
      </trkpt>
      <trkpt lat="43.48994" lon="6.51764">
        <ele>103.9</ele>
        <time>2014-03-16T13:01:20Z</time>
      </trkpt>
      <trkpt lat="43.48999" lon="6.51755">
        <ele>103.7</ele>
        <time>2014-03-16T13:01:27Z</time>
      </trkpt>
      <trkpt lat="43.49003" lon="6.51745">
        <ele>104.1</ele>
        <time>2014-03-16T13:01:35Z</time>
      </trkpt>
      <trkpt lat="43.49007" lon="6.51736">
        <ele>103.4</ele>
        <time>2014-03-16T13:01:41Z</time>
      </trkpt>
      <trkpt lat="43.49012" lon="6.51726">
        <ele>103.6</ele>
        <time>2014-03-16T13:01:49Z</time>
      </trkpt>
      <trkpt lat="43.49016" lon="6.51715">
        <ele>103.2</ele>
        <time>2014-03-16T13:01:56Z</time>
      </trkpt>
      <trkpt lat="43.49016" lon="6.51714">
        <ele>103.3</ele>
        <time>2014-03-16T13:01:57Z</time>
      </trkpt>
      <trkpt lat="43.49025" lon="6.51694">
        <ele>103.4</ele>
        <time>2014-03-16T13:02:12Z</time>
      </trkpt>
      <trkpt lat="43.49029" lon="6.51685">
        <ele>103.5</ele>
        <time>2014-03-16T13:02:19Z</time>
      </trkpt>
      <trkpt lat="43.49033" lon="6.51676">
        <ele>103.6</ele>
        <time>2014-03-16T13:02:26Z</time>
      </trkpt>
      <trkpt lat="43.49037" lon="6.51666">
        <ele>103.7</ele>
        <time>2014-03-16T13:02:35Z</time>
      </trkpt>
      <trkpt lat="43.49041" lon="6.51655">
        <ele>103.6</ele>
        <time>2014-03-16T13:02:42Z</time>
      </trkpt>
      <trkpt lat="43.49045" lon="6.51644">
        <ele>103.4</ele>
        <time>2014-03-16T13:02:49Z</time>
      </trkpt>
      <trkpt lat="43.49049" lon="6.51635">
        <ele>103.1</ele>
        <time>2014-03-16T13:02:56Z</time>
      </trkpt>
      <trkpt lat="43.49054" lon="6.51625">
        <ele>103</ele>
        <time>2014-03-16T13:03:03Z</time>
      </trkpt>
      <trkpt lat="43.49054" lon="6.51623">
        <ele>103.1</ele>
        <time>2014-03-16T13:03:04Z</time>
      </trkpt>
      <trkpt lat="43.49062" lon="6.51603">
        <ele>103.2</ele>
        <time>2014-03-16T13:03:20Z</time>
      </trkpt>
      <trkpt lat="43.49065" lon="6.51592">
        <ele>102.8</ele>
        <time>2014-03-16T13:03:27Z</time>
      </trkpt>
      <trkpt lat="43.49069" lon="6.51582">
        <ele>102.8</ele>
        <time>2014-03-16T13:03:35Z</time>
      </trkpt>
      <trkpt lat="43.49074" lon="6.51572">
        <ele>102.4</ele>
        <time>2014-03-16T13:03:44Z</time>
      </trkpt>
      <trkpt lat="43.49079" lon="6.51563">
        <ele>102.9</ele>
        <time>2014-03-16T13:03:53Z</time>
      </trkpt>
      <trkpt lat="43.49083" lon="6.51553">
        <ele>102.7</ele>
        <time>2014-03-16T13:04:01Z</time>
      </trkpt>
      <trkpt lat="43.49086" lon="6.51542">
        <ele>102.6</ele>
        <time>2014-03-16T13:04:09Z</time>
      </trkpt>
      <trkpt lat="43.49086" lon="6.51541">
        <ele>102.7</ele>
        <time>2014-03-16T13:04:10Z</time>
      </trkpt>
      <trkpt lat="43.49093" lon="6.51521">
        <ele>103.6</ele>
        <time>2014-03-16T13:04:59Z</time>
      </trkpt>
      <trkpt lat="43.49097" lon="6.51512">
        <ele>103.1</ele>
        <time>2014-03-16T13:05:06Z</time>
      </trkpt>
      <trkpt lat="43.49101" lon="6.51502">
        <ele>103.9</ele>
        <time>2014-03-16T13:05:15Z</time>
      </trkpt>
      <trkpt lat="43.49102" lon="6.51501">
        <ele>103.9</ele>
        <time>2014-03-16T13:05:16Z</time>
      </trkpt>
      <trkpt lat="43.49115" lon="6.51493">
        <ele>104</ele>
        <time>2014-03-16T13:05:32Z</time>
      </trkpt>
      <trkpt lat="43.49124" lon="6.51494">
        <ele>103.6</ele>
        <time>2014-03-16T13:05:39Z</time>
      </trkpt>
      <trkpt lat="43.49132" lon="6.51494">
        <ele>103</ele>
        <time>2014-03-16T13:05:47Z</time>
      </trkpt>
      <trkpt lat="43.49141" lon="6.51496">
        <ele>104</ele>
        <time>2014-03-16T13:05:56Z</time>
      </trkpt>
      <trkpt lat="43.49149" lon="6.51498">
        <ele>104.2</ele>
        <time>2014-03-16T13:06:06Z</time>
      </trkpt>
      <trkpt lat="43.49157" lon="6.51498">
        <ele>104</ele>
        <time>2014-03-16T13:06:14Z</time>
      </trkpt>
      <trkpt lat="43.49165" lon="6.51494">
        <ele>104.1</ele>
        <time>2014-03-16T13:06:20Z</time>
      </trkpt>
      <trkpt lat="43.49166" lon="6.51493">
        <ele>104.1</ele>
        <time>2014-03-16T13:06:21Z</time>
      </trkpt>
      <trkpt lat="43.49175" lon="6.51476">
        <ele>103.8</ele>
        <time>2014-03-16T13:06:34Z</time>
      </trkpt>
      <trkpt lat="43.49178" lon="6.51466">
        <ele>103.8</ele>
        <time>2014-03-16T13:06:40Z</time>
      </trkpt>
      <trkpt lat="43.49183" lon="6.51457">
        <ele>103.8</ele>
        <time>2014-03-16T13:06:47Z</time>
      </trkpt>
      <trkpt lat="43.49187" lon="6.51448">
        <ele>103.8</ele>
        <time>2014-03-16T13:06:55Z</time>
      </trkpt>
      <trkpt lat="43.49191" lon="6.51437">
        <ele>104.2</ele>
        <time>2014-03-16T13:07:02Z</time>
      </trkpt>
      <trkpt lat="43.49196" lon="6.51428">
        <ele>104.3</ele>
        <time>2014-03-16T13:07:09Z</time>
      </trkpt>
      <trkpt lat="43.49201" lon="6.51419">
        <ele>104</ele>
        <time>2014-03-16T13:07:16Z</time>
      </trkpt>
      <trkpt lat="43.49205" lon="6.51409">
        <ele>105</ele>
        <time>2014-03-16T13:07:41Z</time>
      </trkpt>
      <trkpt lat="43.49206" lon="6.51408">
        <ele>105.1</ele>
        <time>2014-03-16T13:07:42Z</time>
      </trkpt>
      <trkpt lat="43.49201" lon="6.51386">
        <ele>105.3</ele>
        <time>2014-03-16T13:08:01Z</time>
      </trkpt>
      <trkpt lat="43.49196" lon="6.51377">
        <ele>104.7</ele>
        <time>2014-03-16T13:08:09Z</time>
      </trkpt>
      <trkpt lat="43.49192" lon="6.51367">
        <ele>105.1</ele>
        <time>2014-03-16T13:08:17Z</time>
      </trkpt>
      <trkpt lat="43.49187" lon="6.51359">
        <ele>105</ele>
        <time>2014-03-16T13:08:24Z</time>
      </trkpt>
      <trkpt lat="43.49181" lon="6.51349">
        <ele>105.2</ele>
        <time>2014-03-16T13:08:32Z</time>
      </trkpt>
      <trkpt lat="43.49175" lon="6.51341">
        <ele>105.3</ele>
        <time>2014-03-16T13:08:39Z</time>
      </trkpt>
      <trkpt lat="43.4917" lon="6.51332">
        <ele>104.6</ele>
        <time>2014-03-16T13:08:48Z</time>
      </trkpt>
      <trkpt lat="43.49169" lon="6.51331">
        <ele>104.6</ele>
        <time>2014-03-16T13:08:49Z</time>
      </trkpt>
      <trkpt lat="43.49165" lon="6.51309">
        <ele>106</ele>
        <time>2014-03-16T13:09:08Z</time>
      </trkpt>
      <trkpt lat="43.49163" lon="6.51297">
        <ele>107.4</ele>
        <time>2014-03-16T13:09:19Z</time>
      </trkpt>
      <trkpt lat="43.49165" lon="6.51286">
        <ele>108.6</ele>
        <time>2014-03-16T13:09:28Z</time>
      </trkpt>
      <trkpt lat="43.49163" lon="6.51274">
        <ele>110.4</ele>
        <time>2014-03-16T13:09:43Z</time>
      </trkpt>
      <trkpt lat="43.49168" lon="6.51264">
        <ele>112.6</ele>
        <time>2014-03-16T13:10:02Z</time>
      </trkpt>
      <trkpt lat="43.49168" lon="6.51263">
        <ele>112.8</ele>
        <time>2014-03-16T13:10:03Z</time>
      </trkpt>
      <trkpt lat="43.4918" lon="6.51246">
        <ele>116.7</ele>
        <time>2014-03-16T13:10:38Z</time>
      </trkpt>
      <trkpt lat="43.49187" lon="6.5124">
        <ele>117.9</ele>
        <time>2014-03-16T13:10:50Z</time>
      </trkpt>
      <trkpt lat="43.49192" lon="6.51232">
        <ele>119.1</ele>
        <time>2014-03-16T13:11:00Z</time>
      </trkpt>
      <trkpt lat="43.49198" lon="6.51223">
        <ele>119.8</ele>
        <time>2014-03-16T13:11:09Z</time>
      </trkpt>
      <trkpt lat="43.49199" lon="6.51222">
        <ele>120</ele>
        <time>2014-03-16T13:11:10Z</time>
      </trkpt>
      <trkpt lat="43.49214" lon="6.51216">
        <ele>122.9</ele>
        <time>2014-03-16T13:11:36Z</time>
      </trkpt>
      <trkpt lat="43.49223" lon="6.51217">
        <ele>126</ele>
        <time>2014-03-16T13:12:02Z</time>
      </trkpt>
      <trkpt lat="43.49231" lon="6.5122">
        <ele>128.4</ele>
        <time>2014-03-16T13:12:21Z</time>
      </trkpt>
      <trkpt lat="43.49232" lon="6.5122">
        <ele>128.5</ele>
        <time>2014-03-16T13:12:22Z</time>
      </trkpt>
      <trkpt lat="43.49249" lon="6.5122">
        <ele>133.2</ele>
        <time>2014-03-16T13:13:06Z</time>
      </trkpt>
      <trkpt lat="43.49256" lon="6.51224">
        <ele>133.3</ele>
        <time>2014-03-16T13:14:12Z</time>
      </trkpt>
      <trkpt lat="43.49257" lon="6.51226">
        <ele>133.5</ele>
        <time>2014-03-16T13:14:13Z</time>
      </trkpt>
      <trkpt lat="43.49272" lon="6.51223">
        <ele>137</ele>
        <time>2014-03-16T13:14:43Z</time>
      </trkpt>
      <trkpt lat="43.4928" lon="6.51226">
        <ele>138.5</ele>
        <time>2014-03-16T13:15:00Z</time>
      </trkpt>
      <trkpt lat="43.49288" lon="6.5123">
        <ele>140.3</ele>
        <time>2014-03-16T13:15:14Z</time>
      </trkpt>
      <trkpt lat="43.49289" lon="6.5123">
        <ele>140.4</ele>
        <time>2014-03-16T13:15:15Z</time>
      </trkpt>
      <trkpt lat="43.49303" lon="6.51239">
        <ele>143.1</ele>
        <time>2014-03-16T13:15:38Z</time>
      </trkpt>
      <trkpt lat="43.49311" lon="6.51243">
        <ele>143.7</ele>
        <time>2014-03-16T13:15:48Z</time>
      </trkpt>
      <trkpt lat="43.49318" lon="6.51249">
        <ele>145.2</ele>
        <time>2014-03-16T13:16:02Z</time>
      </trkpt>
      <trkpt lat="43.49327" lon="6.51253">
        <ele>145.3</ele>
        <time>2014-03-16T13:16:18Z</time>
      </trkpt>
      <trkpt lat="43.49328" lon="6.51253">
        <ele>145.8</ele>
        <time>2014-03-16T13:16:19Z</time>
      </trkpt>
      <trkpt lat="43.49342" lon="6.51264">
        <ele>150</ele>
        <time>2014-03-16T13:16:53Z</time>
      </trkpt>
      <trkpt lat="43.49351" lon="6.51265">
        <ele>150.5</ele>
        <time>2014-03-16T13:17:00Z</time>
      </trkpt>
      <trkpt lat="43.49359" lon="6.51266">
        <ele>151.2</ele>
        <time>2014-03-16T13:17:08Z</time>
      </trkpt>
      <trkpt lat="43.49367" lon="6.51262">
        <ele>151.4</ele>
        <time>2014-03-16T13:17:15Z</time>
      </trkpt>
      <trkpt lat="43.49373" lon="6.51254">
        <ele>152</ele>
        <time>2014-03-16T13:17:23Z</time>
      </trkpt>
      <trkpt lat="43.49374" lon="6.51254">
        <ele>152</ele>
        <time>2014-03-16T13:17:24Z</time>
      </trkpt>
      <trkpt lat="43.49388" lon="6.51246">
        <ele>151.7</ele>
        <time>2014-03-16T13:17:37Z</time>
      </trkpt>
      <trkpt lat="43.49396" lon="6.51241">
        <ele>152</ele>
        <time>2014-03-16T13:17:45Z</time>
      </trkpt>
      <trkpt lat="43.49402" lon="6.51233">
        <ele>152.1</ele>
        <time>2014-03-16T13:17:51Z</time>
      </trkpt>
      <trkpt lat="43.49409" lon="6.51226">
        <ele>151.2</ele>
        <time>2014-03-16T13:18:01Z</time>
      </trkpt>
      <trkpt lat="43.49415" lon="6.51219">
        <ele>150.8</ele>
        <time>2014-03-16T13:18:08Z</time>
      </trkpt>
      <trkpt lat="43.49423" lon="6.51215">
        <ele>150.1</ele>
        <time>2014-03-16T13:18:16Z</time>
      </trkpt>
      <trkpt lat="43.4943" lon="6.51209">
        <ele>149.8</ele>
        <time>2014-03-16T13:18:22Z</time>
      </trkpt>
      <trkpt lat="43.49436" lon="6.51202">
        <ele>150.3</ele>
        <time>2014-03-16T13:18:29Z</time>
      </trkpt>
      <trkpt lat="43.49438" lon="6.51201">
        <ele>150.2</ele>
        <time>2014-03-16T13:18:30Z</time>
      </trkpt>
      <trkpt lat="43.49448" lon="6.51185">
        <ele>149.7</ele>
        <time>2014-03-16T13:18:44Z</time>
      </trkpt>
      <trkpt lat="43.49455" lon="6.51177">
        <ele>149.4</ele>
        <time>2014-03-16T13:18:54Z</time>
      </trkpt>
      <trkpt lat="43.49461" lon="6.5117">
        <ele>149.4</ele>
        <time>2014-03-16T13:19:00Z</time>
      </trkpt>
      <trkpt lat="43.49468" lon="6.51164">
        <ele>149.1</ele>
        <time>2014-03-16T13:19:05Z</time>
      </trkpt>
      <trkpt lat="43.49476" lon="6.51164">
        <ele>148.9</ele>
        <time>2014-03-16T13:19:12Z</time>
      </trkpt>
      <trkpt lat="43.49483" lon="6.51157">
        <ele>148</ele>
        <time>2014-03-16T13:19:18Z</time>
      </trkpt>
      <trkpt lat="43.4949" lon="6.51153">
        <ele>147.6</ele>
        <time>2014-03-16T13:19:25Z</time>
      </trkpt>
      <trkpt lat="43.49499" lon="6.51151">
        <ele>146.8</ele>
        <time>2014-03-16T13:19:32Z</time>
      </trkpt>
      <trkpt lat="43.495" lon="6.51151">
        <ele>146.8</ele>
        <time>2014-03-16T13:19:33Z</time>
      </trkpt>
      <trkpt lat="43.49514" lon="6.51143">
        <ele>145.1</ele>
        <time>2014-03-16T13:19:45Z</time>
      </trkpt>
      <trkpt lat="43.49521" lon="6.51139">
        <ele>144.2</ele>
        <time>2014-03-16T13:19:51Z</time>
      </trkpt>
      <trkpt lat="43.49523" lon="6.51129">
        <ele>142.6</ele>
        <time>2014-03-16T13:19:58Z</time>
      </trkpt>
      <trkpt lat="43.49529" lon="6.51123">
        <ele>141.8</ele>
        <time>2014-03-16T13:20:03Z</time>
      </trkpt>
      <trkpt lat="43.49537" lon="6.51117">
        <ele>140.5</ele>
        <time>2014-03-16T13:20:10Z</time>
      </trkpt>
      <trkpt lat="43.49544" lon="6.51111">
        <ele>139.6</ele>
        <time>2014-03-16T13:20:18Z</time>
      </trkpt>
      <trkpt lat="43.49553" lon="6.51108">
        <ele>138.5</ele>
        <time>2014-03-16T13:20:26Z</time>
      </trkpt>
      <trkpt lat="43.49561" lon="6.51104">
        <ele>137.7</ele>
        <time>2014-03-16T13:20:36Z</time>
      </trkpt>
      <trkpt lat="43.49562" lon="6.51104">
        <ele>137.7</ele>
        <time>2014-03-16T13:20:37Z</time>
      </trkpt>
      <trkpt lat="43.49577" lon="6.51109">
        <ele>137</ele>
        <time>2014-03-16T13:20:51Z</time>
      </trkpt>
      <trkpt lat="43.49585" lon="6.51108">
        <ele>136.2</ele>
        <time>2014-03-16T13:21:11Z</time>
      </trkpt>
      <trkpt lat="43.49594" lon="6.5111">
        <ele>135.8</ele>
        <time>2014-03-16T13:21:21Z</time>
      </trkpt>
      <trkpt lat="43.49602" lon="6.51111">
        <ele>134.9</ele>
        <time>2014-03-16T13:21:32Z</time>
      </trkpt>
      <trkpt lat="43.4961" lon="6.51111">
        <ele>134.5</ele>
        <time>2014-03-16T13:21:39Z</time>
      </trkpt>
      <trkpt lat="43.49611" lon="6.51111">
        <ele>134.5</ele>
        <time>2014-03-16T13:21:40Z</time>
      </trkpt>
      <trkpt lat="43.49627" lon="6.51106">
        <ele>131.8</ele>
        <time>2014-03-16T13:21:55Z</time>
      </trkpt>
      <trkpt lat="43.49635" lon="6.51104">
        <ele>130.7</ele>
        <time>2014-03-16T13:22:02Z</time>
      </trkpt>
      <trkpt lat="43.49644" lon="6.51103">
        <ele>130.2</ele>
        <time>2014-03-16T13:22:10Z</time>
      </trkpt>
      <trkpt lat="43.49652" lon="6.51098">
        <ele>129.8</ele>
        <time>2014-03-16T13:22:20Z</time>
      </trkpt>
      <trkpt lat="43.4966" lon="6.51098">
        <ele>128.2</ele>
        <time>2014-03-16T13:22:29Z</time>
      </trkpt>
      <trkpt lat="43.49669" lon="6.51097">
        <ele>127</ele>
        <time>2014-03-16T13:22:39Z</time>
      </trkpt>
      <trkpt lat="43.49677" lon="6.51099">
        <ele>126.6</ele>
        <time>2014-03-16T13:22:49Z</time>
      </trkpt>
      <trkpt lat="43.49678" lon="6.51099">
        <ele>126.6</ele>
        <time>2014-03-16T13:22:50Z</time>
      </trkpt>
      <trkpt lat="43.49693" lon="6.51103">
        <ele>126.1</ele>
        <time>2014-03-16T13:23:09Z</time>
      </trkpt>
      <trkpt lat="43.49702" lon="6.51106">
        <ele>126.2</ele>
        <time>2014-03-16T13:23:16Z</time>
      </trkpt>
      <trkpt lat="43.4971" lon="6.51109">
        <ele>126.2</ele>
        <time>2014-03-16T13:23:25Z</time>
      </trkpt>
      <trkpt lat="43.49718" lon="6.51113">
        <ele>125.6</ele>
        <time>2014-03-16T13:23:33Z</time>
      </trkpt>
      <trkpt lat="43.49726" lon="6.51116">
        <ele>125.6</ele>
        <time>2014-03-16T13:23:42Z</time>
      </trkpt>
      <trkpt lat="43.49734" lon="6.51121">
        <ele>124.8</ele>
        <time>2014-03-16T13:23:57Z</time>
      </trkpt>
      <trkpt lat="43.49734" lon="6.51122">
        <ele>124.8</ele>
        <time>2014-03-16T13:23:58Z</time>
      </trkpt>
      <trkpt lat="43.49747" lon="6.51133">
        <ele>125.7</ele>
        <time>2014-03-16T13:24:16Z</time>
      </trkpt>
      <trkpt lat="43.49756" lon="6.51134">
        <ele>125.6</ele>
        <time>2014-03-16T13:28:09Z</time>
      </trkpt>
      <trkpt lat="43.49757" lon="6.51132">
        <ele>125.4</ele>
        <time>2014-03-16T13:28:10Z</time>
      </trkpt>
      <trkpt lat="43.49752" lon="6.51157">
        <ele>130.8</ele>
        <time>2014-03-16T13:28:50Z</time>
      </trkpt>
      <trkpt lat="43.4975" lon="6.51169">
        <ele>132.9</ele>
        <time>2014-03-16T13:29:04Z</time>
      </trkpt>
      <trkpt lat="43.49751" lon="6.51181">
        <ele>134.6</ele>
        <time>2014-03-16T13:29:17Z</time>
      </trkpt>
      <trkpt lat="43.49751" lon="6.51181">
        <ele>134.9</ele>
        <time>2014-03-16T13:29:18Z</time>
      </trkpt>
      <trkpt lat="43.49752" lon="6.51204">
        <ele>138.2</ele>
        <time>2014-03-16T13:29:44Z</time>
      </trkpt>
      <trkpt lat="43.49751" lon="6.51216">
        <ele>140</ele>
        <time>2014-03-16T13:30:02Z</time>
      </trkpt>
      <trkpt lat="43.49755" lon="6.51226">
        <ele>141.4</ele>
        <time>2014-03-16T13:30:14Z</time>
      </trkpt>
      <trkpt lat="43.49754" lon="6.51238">
        <ele>143.4</ele>
        <time>2014-03-16T13:30:28Z</time>
      </trkpt>
      <trkpt lat="43.49754" lon="6.51239">
        <ele>143.5</ele>
        <time>2014-03-16T13:30:29Z</time>
      </trkpt>
      <trkpt lat="43.49757" lon="6.5126">
        <ele>146.8</ele>
        <time>2014-03-16T13:30:53Z</time>
      </trkpt>
      <trkpt lat="43.49758" lon="6.51273">
        <ele>149.7</ele>
        <time>2014-03-16T13:31:17Z</time>
      </trkpt>
      <trkpt lat="43.49761" lon="6.51284">
        <ele>151.1</ele>
        <time>2014-03-16T13:31:29Z</time>
      </trkpt>
      <trkpt lat="43.49761" lon="6.51285">
        <ele>150.9</ele>
        <time>2014-03-16T13:31:30Z</time>
      </trkpt>
      <trkpt lat="43.49769" lon="6.51305">
        <ele>155.3</ele>
        <time>2014-03-16T13:32:04Z</time>
      </trkpt>
      <trkpt lat="43.4977" lon="6.51317">
        <ele>156.8</ele>
        <time>2014-03-16T13:32:14Z</time>
      </trkpt>
      <trkpt lat="43.49768" lon="6.51328">
        <ele>158.9</ele>
        <time>2014-03-16T13:32:56Z</time>
      </trkpt>
      <trkpt lat="43.49768" lon="6.51329">
        <ele>159</ele>
        <time>2014-03-16T13:32:57Z</time>
      </trkpt>
      <trkpt lat="43.49763" lon="6.51351">
        <ele>163.3</ele>
        <time>2014-03-16T13:33:31Z</time>
      </trkpt>
      <trkpt lat="43.49766" lon="6.51362">
        <ele>165.4</ele>
        <time>2014-03-16T13:33:51Z</time>
      </trkpt>
      <trkpt lat="43.49771" lon="6.51372">
        <ele>166.9</ele>
        <time>2014-03-16T13:34:02Z</time>
      </trkpt>
      <trkpt lat="43.49772" lon="6.51372">
        <ele>166.9</ele>
        <time>2014-03-16T13:34:03Z</time>
      </trkpt>
      <trkpt lat="43.4978" lon="6.51391">
        <ele>171.9</ele>
        <time>2014-03-16T13:34:54Z</time>
      </trkpt>
      <trkpt lat="43.4978" lon="6.51404">
        <ele>174.1</ele>
        <time>2014-03-16T13:35:14Z</time>
      </trkpt>
      <trkpt lat="43.49779" lon="6.51404">
        <ele>174.2</ele>
        <time>2014-03-16T13:35:15Z</time>
      </trkpt>
      <trkpt lat="43.49778" lon="6.51428">
        <ele>178.2</ele>
        <time>2014-03-16T13:35:52Z</time>
      </trkpt>
      <trkpt lat="43.49781" lon="6.51439">
        <ele>178.9</ele>
        <time>2014-03-16T13:36:21Z</time>
      </trkpt>
      <trkpt lat="43.4978" lon="6.5144">
        <ele>179.1</ele>
        <time>2014-03-16T13:36:22Z</time>
      </trkpt>
      <trkpt lat="43.49783" lon="6.51461">
        <ele>182.2</ele>
        <time>2014-03-16T13:36:58Z</time>
      </trkpt>
      <trkpt lat="43.49783" lon="6.51473">
        <ele>184</ele>
        <time>2014-03-16T13:37:10Z</time>
      </trkpt>
      <trkpt lat="43.49783" lon="6.51485">
        <ele>184.7</ele>
        <time>2014-03-16T13:37:21Z</time>
      </trkpt>
      <trkpt lat="43.49784" lon="6.51497">
        <ele>185.3</ele>
        <time>2014-03-16T13:37:33Z</time>
      </trkpt>
      <trkpt lat="43.49784" lon="6.51498">
        <ele>185.5</ele>
        <time>2014-03-16T13:37:34Z</time>
      </trkpt>
      <trkpt lat="43.49797" lon="6.51512">
        <ele>187.4</ele>
        <time>2014-03-16T13:38:26Z</time>
      </trkpt>
      <trkpt lat="43.49804" lon="6.51519">
        <ele>188.5</ele>
        <time>2014-03-16T13:38:38Z</time>
      </trkpt>
      <trkpt lat="43.49804" lon="6.5152">
        <ele>188.5</ele>
        <time>2014-03-16T13:38:39Z</time>
      </trkpt>
      <trkpt lat="43.49819" lon="6.51521">
        <ele>189.8</ele>
        <time>2014-03-16T13:38:59Z</time>
      </trkpt>
      <trkpt lat="43.49828" lon="6.51521">
        <ele>191.5</ele>
        <time>2014-03-16T13:39:11Z</time>
      </trkpt>
      <trkpt lat="43.49836" lon="6.51519">
        <ele>192.9</ele>
        <time>2014-03-16T13:39:29Z</time>
      </trkpt>
      <trkpt lat="43.49845" lon="6.51517">
        <ele>194.7</ele>
        <time>2014-03-16T13:39:46Z</time>
      </trkpt>
      <trkpt lat="43.49846" lon="6.51517">
        <ele>194.6</ele>
        <time>2014-03-16T13:39:47Z</time>
      </trkpt>
      <trkpt lat="43.49862" lon="6.51513">
        <ele>195.7</ele>
        <time>2014-03-16T13:40:03Z</time>
      </trkpt>
      <trkpt lat="43.4987" lon="6.51515">
        <ele>197.6</ele>
        <time>2014-03-16T13:40:15Z</time>
      </trkpt>
      <trkpt lat="43.49879" lon="6.51513">
        <ele>198.5</ele>
        <time>2014-03-16T13:40:27Z</time>
      </trkpt>
      <trkpt lat="43.49887" lon="6.51511">
        <ele>200.4</ele>
        <time>2014-03-16T13:40:40Z</time>
      </trkpt>
      <trkpt lat="43.49894" lon="6.51518">
        <ele>202</ele>
        <time>2014-03-16T13:40:58Z</time>
      </trkpt>
      <trkpt lat="43.49895" lon="6.51519">
        <ele>202</ele>
        <time>2014-03-16T13:40:59Z</time>
      </trkpt>
      <trkpt lat="43.49906" lon="6.51532">
        <ele>203.9</ele>
        <time>2014-03-16T13:41:19Z</time>
      </trkpt>
      <trkpt lat="43.49915" lon="6.51531">
        <ele>204.1</ele>
        <time>2014-03-16T13:41:27Z</time>
      </trkpt>
      <trkpt lat="43.49923" lon="6.51535">
        <ele>204.3</ele>
        <time>2014-03-16T13:41:34Z</time>
      </trkpt>
      <trkpt lat="43.4993" lon="6.51536">
        <ele>204.4</ele>
        <time>2014-03-16T13:41:40Z</time>
      </trkpt>
      <trkpt lat="43.49938" lon="6.51535">
        <ele>204.1</ele>
        <time>2014-03-16T13:41:44Z</time>
      </trkpt>
      <trkpt lat="43.49946" lon="6.51534">
        <ele>203.3</ele>
        <time>2014-03-16T13:41:49Z</time>
      </trkpt>
      <trkpt lat="43.49953" lon="6.5153">
        <ele>203.7</ele>
        <time>2014-03-16T13:41:55Z</time>
      </trkpt>
      <trkpt lat="43.49959" lon="6.51521">
        <ele>203.5</ele>
        <time>2014-03-16T13:42:03Z</time>
      </trkpt>
      <trkpt lat="43.4996" lon="6.51518">
        <ele>203.3</ele>
        <time>2014-03-16T13:42:04Z</time>
      </trkpt>
      <trkpt lat="43.49973" lon="6.51507">
        <ele>202.4</ele>
        <time>2014-03-16T13:42:20Z</time>
      </trkpt>
      <trkpt lat="43.4998" lon="6.515">
        <ele>201.6</ele>
        <time>2014-03-16T13:42:27Z</time>
      </trkpt>
      <trkpt lat="43.49989" lon="6.51501">
        <ele>200.9</ele>
        <time>2014-03-16T13:42:40Z</time>
      </trkpt>
      <trkpt lat="43.49997" lon="6.51498">
        <ele>199.9</ele>
        <time>2014-03-16T13:42:49Z</time>
      </trkpt>
      <trkpt lat="43.50005" lon="6.51498">
        <ele>198.5</ele>
        <time>2014-03-16T13:42:56Z</time>
      </trkpt>
      <trkpt lat="43.50013" lon="6.515">
        <ele>197.7</ele>
        <time>2014-03-16T13:43:04Z</time>
      </trkpt>
      <trkpt lat="43.50015" lon="6.51501">
        <ele>197.9</ele>
        <time>2014-03-16T13:43:05Z</time>
      </trkpt>
      <trkpt lat="43.5003" lon="6.51502">
        <ele>195.6</ele>
        <time>2014-03-16T13:43:20Z</time>
      </trkpt>
      <trkpt lat="43.50038" lon="6.51505">
        <ele>195.4</ele>
        <time>2014-03-16T13:43:27Z</time>
      </trkpt>
      <trkpt lat="43.50047" lon="6.51505">
        <ele>195.2</ele>
        <time>2014-03-16T13:43:33Z</time>
      </trkpt>
      <trkpt lat="43.50055" lon="6.51508">
        <ele>196</ele>
        <time>2014-03-16T13:43:40Z</time>
      </trkpt>
      <trkpt lat="43.50064" lon="6.51511">
        <ele>195.3</ele>
        <time>2014-03-16T13:43:47Z</time>
      </trkpt>
      <trkpt lat="43.50073" lon="6.5151">
        <ele>194.5</ele>
        <time>2014-03-16T13:43:54Z</time>
      </trkpt>
      <trkpt lat="43.50081" lon="6.51512">
        <ele>194.6</ele>
        <time>2014-03-16T13:44:01Z</time>
      </trkpt>
      <trkpt lat="43.5009" lon="6.51514">
        <ele>193.9</ele>
        <time>2014-03-16T13:44:10Z</time>
      </trkpt>
      <trkpt lat="43.50091" lon="6.51515">
        <ele>193.4</ele>
        <time>2014-03-16T13:44:11Z</time>
      </trkpt>
      <trkpt lat="43.50107" lon="6.51515">
        <ele>193.9</ele>
        <time>2014-03-16T13:44:26Z</time>
      </trkpt>
      <trkpt lat="43.50114" lon="6.51519">
        <ele>193.2</ele>
        <time>2014-03-16T13:44:34Z</time>
      </trkpt>
      <trkpt lat="43.50121" lon="6.51519">
        <ele>193.1</ele>
        <time>2014-03-16T13:44:42Z</time>
      </trkpt>
      <trkpt lat="43.50129" lon="6.51521">
        <ele>194.1</ele>
        <time>2014-03-16T13:44:47Z</time>
      </trkpt>
      <trkpt lat="43.50137" lon="6.51524">
        <ele>193.3</ele>
        <time>2014-03-16T13:44:54Z</time>
      </trkpt>
      <trkpt lat="43.50145" lon="6.51524">
        <ele>194.2</ele>
        <time>2014-03-16T13:45:03Z</time>
      </trkpt>
      <trkpt lat="43.50152" lon="6.51527">
        <ele>194.6</ele>
        <time>2014-03-16T13:45:10Z</time>
      </trkpt>
      <trkpt lat="43.50161" lon="6.51528">
        <ele>194.9</ele>
        <time>2014-03-16T13:45:22Z</time>
      </trkpt>
      <trkpt lat="43.50163" lon="6.51528">
        <ele>194.9</ele>
        <time>2014-03-16T13:45:23Z</time>
      </trkpt>
      <trkpt lat="43.50176" lon="6.51521">
        <ele>195.4</ele>
        <time>2014-03-16T13:45:35Z</time>
      </trkpt>
      <trkpt lat="43.50184" lon="6.51516">
        <ele>195.6</ele>
        <time>2014-03-16T13:45:45Z</time>
      </trkpt>
      <trkpt lat="43.50189" lon="6.51508">
        <ele>195.8</ele>
        <time>2014-03-16T13:45:51Z</time>
      </trkpt>
      <trkpt lat="43.50193" lon="6.51498">
        <ele>195.1</ele>
        <time>2014-03-16T13:46:03Z</time>
      </trkpt>
      <trkpt lat="43.50192" lon="6.51486">
        <ele>194.5</ele>
        <time>2014-03-16T13:46:42Z</time>
      </trkpt>
      <trkpt lat="43.50192" lon="6.51484">
        <ele>194.4</ele>
        <time>2014-03-16T13:46:43Z</time>
      </trkpt>
      <trkpt lat="43.5018" lon="6.51471">
        <ele>190.2</ele>
        <time>2014-03-16T13:47:08Z</time>
      </trkpt>
      <trkpt lat="43.50172" lon="6.51468">
        <ele>187.5</ele>
        <time>2014-03-16T13:47:46Z</time>
      </trkpt>
      <trkpt lat="43.50171" lon="6.51466">
        <ele>186.9</ele>
        <time>2014-03-16T13:47:47Z</time>
      </trkpt>
      <trkpt lat="43.50161" lon="6.51449">
        <ele>182.7</ele>
        <time>2014-03-16T13:48:10Z</time>
      </trkpt>
      <trkpt lat="43.50153" lon="6.51445">
        <ele>181</ele>
        <time>2014-03-16T13:48:20Z</time>
      </trkpt>
      <trkpt lat="43.50146" lon="6.51439">
        <ele>179.7</ele>
        <time>2014-03-16T13:48:28Z</time>
      </trkpt>
      <trkpt lat="43.5014" lon="6.51434">
        <ele>178.6</ele>
        <time>2014-03-16T13:48:33Z</time>
      </trkpt>
      <trkpt lat="43.50132" lon="6.51432">
        <ele>178.4</ele>
        <time>2014-03-16T13:48:37Z</time>
      </trkpt>
      <trkpt lat="43.50125" lon="6.51426">
        <ele>176.5</ele>
        <time>2014-03-16T13:48:44Z</time>
      </trkpt>
      <trkpt lat="43.50119" lon="6.51417">
        <ele>174.5</ele>
        <time>2014-03-16T13:48:55Z</time>
      </trkpt>
      <trkpt lat="43.50119" lon="6.51416">
        <ele>174.4</ele>
        <time>2014-03-16T13:48:56Z</time>
      </trkpt>
      <trkpt lat="43.50111" lon="6.51396">
        <ele>170.3</ele>
        <time>2014-03-16T13:49:20Z</time>
      </trkpt>
      <trkpt lat="43.50119" lon="6.51393">
        <ele>167.5</ele>
        <time>2014-03-16T13:49:44Z</time>
      </trkpt>
      <trkpt lat="43.50127" lon="6.51393">
        <ele>166.2</ele>
        <time>2014-03-16T13:49:53Z</time>
      </trkpt>
      <trkpt lat="43.50135" lon="6.51389">
        <ele>165.4</ele>
        <time>2014-03-16T13:50:01Z</time>
      </trkpt>
      <trkpt lat="43.50136" lon="6.51388">
        <ele>165.3</ele>
        <time>2014-03-16T13:50:02Z</time>
      </trkpt>
      <trkpt lat="43.50149" lon="6.51376">
        <ele>164</ele>
        <time>2014-03-16T13:50:14Z</time>
      </trkpt>
      <trkpt lat="43.50156" lon="6.5137">
        <ele>163.5</ele>
        <time>2014-03-16T13:50:20Z</time>
      </trkpt>
      <trkpt lat="43.50162" lon="6.51363">
        <ele>162.6</ele>
        <time>2014-03-16T13:50:28Z</time>
      </trkpt>
      <trkpt lat="43.50168" lon="6.51354">
        <ele>161.8</ele>
        <time>2014-03-16T13:50:36Z</time>
      </trkpt>
      <trkpt lat="43.50174" lon="6.51347">
        <ele>161</ele>
        <time>2014-03-16T13:50:44Z</time>
      </trkpt>
      <trkpt lat="43.50181" lon="6.51339">
        <ele>160.3</ele>
        <time>2014-03-16T13:50:51Z</time>
      </trkpt>
      <trkpt lat="43.50189" lon="6.51336">
        <ele>160</ele>
        <time>2014-03-16T13:50:58Z</time>
      </trkpt>
      <trkpt lat="43.50196" lon="6.51332">
        <ele>160.2</ele>
        <time>2014-03-16T13:51:05Z</time>
      </trkpt>
      <trkpt lat="43.50197" lon="6.51331">
        <ele>159.9</ele>
        <time>2014-03-16T13:51:06Z</time>
      </trkpt>
      <trkpt lat="43.50211" lon="6.51321">
        <ele>158.6</ele>
        <time>2014-03-16T13:51:21Z</time>
      </trkpt>
      <trkpt lat="43.50217" lon="6.51314">
        <ele>158.4</ele>
        <time>2014-03-16T13:51:27Z</time>
      </trkpt>
      <trkpt lat="43.50223" lon="6.51306">
        <ele>157.6</ele>
        <time>2014-03-16T13:51:34Z</time>
      </trkpt>
      <trkpt lat="43.50226" lon="6.51298">
        <ele>156.3</ele>
        <time>2014-03-16T13:51:39Z</time>
      </trkpt>
      <trkpt lat="43.50229" lon="6.51289">
        <ele>155.7</ele>
        <time>2014-03-16T13:51:43Z</time>
      </trkpt>
      <trkpt lat="43.50228" lon="6.51277">
        <ele>155.8</ele>
        <time>2014-03-16T13:51:49Z</time>
      </trkpt>
      <trkpt lat="43.50219" lon="6.51273">
        <ele>154.8</ele>
        <time>2014-03-16T13:51:57Z</time>
      </trkpt>
      <trkpt lat="43.50211" lon="6.51273">
        <ele>153.8</ele>
        <time>2014-03-16T13:52:02Z</time>
      </trkpt>
      <trkpt lat="43.50203" lon="6.51274">
        <ele>153.2</ele>
        <time>2014-03-16T13:52:09Z</time>
      </trkpt>
      <trkpt lat="43.50202" lon="6.51275">
        <ele>152.9</ele>
        <time>2014-03-16T13:52:10Z</time>
      </trkpt>
      <trkpt lat="43.50187" lon="6.51278">
        <ele>151.2</ele>
        <time>2014-03-16T13:52:21Z</time>
      </trkpt>
      <trkpt lat="43.50179" lon="6.51279">
        <ele>150.2</ele>
        <time>2014-03-16T13:52:26Z</time>
      </trkpt>
      <trkpt lat="43.50171" lon="6.5128">
        <ele>149.2</ele>
        <time>2014-03-16T13:52:30Z</time>
      </trkpt>
      <trkpt lat="43.50163" lon="6.51282">
        <ele>147.4</ele>
        <time>2014-03-16T13:52:39Z</time>
      </trkpt>
      <trkpt lat="43.50156" lon="6.51284">
        <ele>146.9</ele>
        <time>2014-03-16T13:52:43Z</time>
      </trkpt>
      <trkpt lat="43.50149" lon="6.51286">
        <ele>146.5</ele>
        <time>2014-03-16T13:52:48Z</time>
      </trkpt>
      <trkpt lat="43.5014" lon="6.51286">
        <ele>145.3</ele>
        <time>2014-03-16T13:52:56Z</time>
      </trkpt>
      <trkpt lat="43.50137" lon="6.51275">
        <ele>143.9</ele>
        <time>2014-03-16T13:53:10Z</time>
      </trkpt>
      <trkpt lat="43.50137" lon="6.51274">
        <ele>143.8</ele>
        <time>2014-03-16T13:53:11Z</time>
      </trkpt>
      <trkpt lat="43.50134" lon="6.51265">
        <ele>142.6</ele>
        <time>2014-03-16T13:54:02Z</time>
      </trkpt>
      <trkpt lat="43.50137" lon="6.51254">
        <ele>141.4</ele>
        <time>2014-03-16T13:54:20Z</time>
      </trkpt>
      <trkpt lat="43.50137" lon="6.51253">
        <ele>141.3</ele>
        <time>2014-03-16T13:54:21Z</time>
      </trkpt>
    </trkseg>
  </trk>
</gpx>